Provisional Data: Chest Creek near Patton, PA


Please select a monitoring station.
Please select start date.
Please select start date.

Toggle Unit: C/F Toggle Unit: C/F
Sample Time Temperature (C) Temperature (F) Specific Conductivity (mS/cm) pH   Turbidity (NTU+) DO (mg/L)
4/7/2021 12:00:00 AM 11.3 52.34 0.197 6.97 5.64 9.78
4/7/2021 12:15:00 AM 11.28 52.304 0.196 6.98 5.62 9.77
4/7/2021 12:30:00 AM 11.27 52.286 0.197 6.98 5.7 9.75
4/7/2021 12:45:00 AM 11.27 52.286 0.197 6.98 5.83 9.73
4/7/2021 1:00:00 AM 11.26 52.268 0.197 6.98 5.71 9.73
4/7/2021 1:15:00 AM 11.25 52.25 0.197 6.97 5.87 9.72
4/7/2021 1:30:00 AM 11.23 52.214 0.197 6.96 6.02 9.71
4/7/2021 1:45:00 AM 11.2 52.16 0.197 6.96 5.97 9.7
4/7/2021 2:00:00 AM 11.16 52.088 0.197 6.96 5.62 9.7
4/7/2021 2:15:00 AM 11.11 51.998 0.197 6.96 5.93 9.69
4/7/2021 2:30:00 AM 11.07 51.926 0.197 6.96 5.83 9.68
4/7/2021 2:45:00 AM 11.03 51.854 0.197 6.95 6.55 9.68
4/7/2021 3:00:00 AM 10.98 51.764 0.198 6.95 5.83 9.68
4/7/2021 3:15:00 AM 10.93 51.674 0.198 6.95 5.96 9.68
4/7/2021 3:30:00 AM 10.89 51.602 0.197 6.95 5.99 9.69
4/7/2021 3:45:00 AM 10.83 51.494 0.198 6.95 5.85 9.69
4/7/2021 4:00:00 AM 10.78 51.404 0.198 6.95 5.86 9.69
4/7/2021 4:15:00 AM 10.74 51.332 0.198 6.96 5.8 9.7
4/7/2021 4:30:00 AM 10.69 51.242 0.198 6.95 5.94 9.7
4/7/2021 4:45:00 AM 10.64 51.152 0.198 6.95 6.11 9.71
4/7/2021 5:00:00 AM 10.59 51.062 0.198 6.95 5.98 9.72
4/7/2021 5:15:00 AM 10.54 50.972 0.198 6.96 5.93 9.72
4/7/2021 5:30:00 AM 10.49 50.882 0.199 6.96 5.94 9.73
4/7/2021 5:45:00 AM 10.44 50.792 0.199 6.96 5.82 9.74
4/7/2021 6:00:00 AM 10.39 50.702 0.199 6.96 5.73 9.75
4/7/2021 6:15:00 AM 10.35 50.63 0.199 6.96 6 9.75
4/7/2021 6:30:00 AM 10.3 50.54 0.199 6.96 5.79 9.75
4/7/2021 6:45:00 AM 10.26 50.468 0.199 6.96 6.05 9.76
4/7/2021 7:00:00 AM 10.22 50.396 0.199 6.96 5.96 9.79
4/7/2021 7:15:00 AM 10.18 50.324 0.199 6.96 5.98 9.82
4/7/2021 7:30:00 AM 10.14 50.252 0.2 6.97 5.66 9.89
4/7/2021 7:45:00 AM 10.12 50.216 0.199 6.98 5.75 9.96
4/7/2021 8:00:00 AM 10.12 50.216 0.199 6.99 5.68 10.07
4/7/2021 8:15:00 AM 10.12 50.216 0.199 7.01 5.78 10.17
4/7/2021 8:30:00 AM 10.15 50.27 0.2 7.03 5.58 10.28
4/7/2021 8:45:00 AM 10.2 50.36 0.199 7.04 5.73 10.38
4/7/2021 9:00:00 AM 10.31 50.558 0.199 7.06 5.58 10.49
4/7/2021 9:15:00 AM 10.42 50.756 0.199 7.08 5.46 10.57
4/7/2021 9:30:00 AM 10.54 50.972 0.2 7.1 5.44 10.64
4/7/2021 9:45:00 AM 10.69 51.242 0.199 7.11 5.39 10.69
4/7/2021 10:00:00 AM 10.82 51.476 0.199 7.12 6.09 10.74
4/7/2021 10:15:00 AM 10.9 51.62 0.199 7.12 5.32 10.76
4/7/2021 10:30:00 AM 11.03 51.854 0.199 7.13 5.43 10.8
4/7/2021 10:45:00 AM 11.11 51.998 0.199 7.13 5.31 10.82
4/7/2021 11:00:00 AM 11.17 52.106 0.2 7.13 5.66 10.84
4/7/2021 11:15:00 AM 11.17 52.106 0.2 7.13 5.32 10.81
4/7/2021 11:30:00 AM 11.18 52.124 0.2 7.13 5.33 10.82
4/7/2021 11:45:00 AM 11.15 52.07 0.2 7.11 5.35 10.76
4/7/2021 12:00:00 PM 11.19 52.142 0.2 7.13 5.26 10.83
4/7/2021 12:15:00 PM 11.3 52.34 0.199 7.14 5.39 10.9
4/7/2021 12:30:00 PM 11.43 52.574 0.2 7.15 5.25 10.96
4/7/2021 12:45:00 PM 11.68 53.024 0.2 7.16 5.36 10.98
4/7/2021 1:00:00 PM 11.97 53.546 0.2 7.17 5.46 11.04
4/7/2021 1:15:00 PM 12.11 53.798 0.2 7.18 5.2 11.03
4/7/2021 1:30:00 PM 12.42 54.356 0.2 7.2 5.28 11.07
4/7/2021 1:45:00 PM 12.66 54.788 0.2 7.22 5.16 11.08
4/7/2021 2:00:00 PM 12.93 55.274 0.2 7.23 5.15 11.09
4/7/2021 2:15:00 PM 13.22 55.796 0.199 7.25 5.27 11.09
4/7/2021 2:30:00 PM 13.49 56.282 0.199 7.25 5.4 11.1
4/7/2021 2:45:00 PM 13.74 56.732 0.199 7.26 5.18 11.11
4/7/2021 3:00:00 PM 13.89 57.002 0.2 7.26 5.18 11.08
4/7/2021 3:15:00 PM 13.97 57.146 0.2 7.26 5.23 11.02
4/7/2021 3:30:00 PM 14.04 57.272 0.199 7.26 5.2 11.01
4/7/2021 3:45:00 PM 14.04 57.272 0.199 7.25 5.27 10.97
4/7/2021 4:00:00 PM 14.15 57.47 0.2 7.26 5.28 10.99
4/7/2021 4:15:00 PM 14.14 57.452 0.2 7.26 5.09 10.94
4/7/2021 4:30:00 PM 14.08 57.344 0.2 7.23 5.38 10.81
4/7/2021 4:45:00 PM 13.99 57.182 0.2 7.18 5.18 10.64
4/7/2021 5:00:00 PM 13.87 56.966 0.2 7.16 5.29 10.56
4/7/2021 5:15:00 PM 13.74 56.732 0.2 7.14 5.33 10.43
4/7/2021 5:30:00 PM 13.65 56.57 0.2 7.13 5.35 10.43
4/7/2021 5:45:00 PM 13.58 56.444 0.2 7.12 5.76 10.4
4/7/2021 6:00:00 PM 13.55 56.39 0.2 7.12 5.41 10.41
4/7/2021 6:15:00 PM 13.53 56.354 0.2 7.13 5.39 10.43
4/7/2021 6:30:00 PM 13.49 56.282 0.201 7.13 5.28 10.41
4/7/2021 6:45:00 PM 13.41 56.138 0.2 7.11 5.39 10.34
4/7/2021 7:00:00 PM 13.32 55.976 0.201 7.09 5.28 10.26
4/7/2021 7:15:00 PM 13.25 55.85 0.201 7.07 5.39 10.18
4/7/2021 7:30:00 PM 13.18 55.724 0.201 7.06 5.33 10.08
4/7/2021 7:45:00 PM 13.09 55.562 0.201 7.04 5.3 9.98
4/7/2021 8:00:00 PM 13 55.4 0.201 7.03 5.36 9.89
4/7/2021 8:15:00 PM 12.92 55.256 0.201 7.01 5.55 9.81
4/7/2021 8:30:00 PM 12.85 55.13 0.201 7.01 6.01 9.74
4/7/2021 8:45:00 PM 12.79 55.022 0.201 6.99 5.63 9.69
4/7/2021 9:00:00 PM 12.74 54.932 0.201 6.99 5.93 9.65
4/7/2021 9:15:00 PM 12.7 54.86 0.201 6.99 5.73 9.61
4/7/2021 9:30:00 PM 12.66 54.788 0.201 6.98 5.58 9.59
4/7/2021 9:45:00 PM 12.62 54.716 0.201 6.98 5.94 9.56
4/7/2021 10:00:00 PM 12.58 54.644 0.201 6.97 5.67 9.55
4/7/2021 10:15:00 PM 12.54 54.572 0.202 6.97 5.67 9.53
4/7/2021 10:30:00 PM 12.52 54.536 0.201 6.97 5.92 9.52
4/7/2021 10:45:00 PM 12.48 54.464 0.202 6.97 5.63 9.5
4/7/2021 11:00:00 PM 12.44 54.392 0.202 6.97 5.71 9.48
4/7/2021 11:15:00 PM 12.41 54.338 0.201 6.96 5.97 9.47
4/7/2021 11:30:00 PM 12.37 54.266 0.202 6.95 6.31 9.44
4/7/2021 11:45:00 PM 12.33 54.194 0.202 6.95 6.18 9.43
4/8/2021 12:00:00 AM 12.29 54.122 0.202 6.95 5.94 9.43
4/8/2021 12:15:00 AM 12.25 54.05 0.202 6.95 5.92 9.42
4/8/2021 12:30:00 AM 12.2 53.96 0.202 6.96 6.17 9.42
4/8/2021 12:45:00 AM 12.17 53.906 0.202 6.96 6.46 9.42
4/8/2021 1:00:00 AM 12.12 53.816 0.202 6.97 5.98 9.41
4/8/2021 1:15:00 AM 12.08 53.744 0.202 6.98 6.21 9.41
4/8/2021 1:30:00 AM 12.04 53.672 0.202 6.98 5.95 9.41
4/8/2021 1:45:00 AM 12 53.6 0.202 6.98 5.92 9.4
4/8/2021 2:00:00 AM 11.96 53.528 0.202 6.98 6.3 9.4
4/8/2021 2:15:00 AM 11.92 53.456 0.202 6.97 6.02 9.4
4/8/2021 2:30:00 AM 11.89 53.402 0.202 6.97 6.06 9.4
4/8/2021 2:45:00 AM 11.85 53.33 0.202 6.97 6.07 9.4
4/8/2021 3:00:00 AM 11.81 53.258 0.202 6.97 6.59 9.4
4/8/2021 3:15:00 AM 11.77 53.186 0.203 6.97 6.07 9.4
4/8/2021 3:30:00 AM 11.73 53.114 0.203 6.97 6.14 9.4
4/8/2021 3:45:00 AM 11.69 53.042 0.203 6.97 6.07 9.41
4/8/2021 4:00:00 AM 11.65 52.97 0.203 6.97 6.21 9.4
4/8/2021 4:15:00 AM 11.6 52.88 0.203 6.97 6.44 9.41
4/8/2021 4:30:00 AM 11.56 52.808 0.203 6.96 6.23 9.42
4/8/2021 4:45:00 AM 11.52 52.736 0.203 6.96 6.22 9.42
4/8/2021 5:00:00 AM 11.48 52.664 0.203 6.96 6.17 9.42
4/8/2021 5:15:00 AM 11.45 52.61 0.203 6.97 6.21 9.43
4/8/2021 5:30:00 AM 11.42 52.556 0.204 6.97 6.39 9.43
4/8/2021 5:45:00 AM 11.39 52.502 0.204 6.96 6.27 9.44
4/8/2021 6:00:00 AM 11.35 52.43 0.204 6.96 6.2 9.45
4/8/2021 6:15:00 AM 11.32 52.376 0.204 6.97 6.38 9.45
4/8/2021 6:30:00 AM 11.28 52.304 0.204 6.97 6.3 9.45
4/8/2021 6:45:00 AM 11.25 52.25 0.204 6.96 6.09 9.47
4/8/2021 7:00:00 AM 11.22 52.196 0.204 6.96 5.99 9.49
4/8/2021 7:15:00 AM 11.2 52.16 0.204 6.97 6.08 9.52
4/8/2021 7:30:00 AM 11.17 52.106 0.204 6.98 5.84 9.6
4/8/2021 7:45:00 AM 11.16 52.088 0.204 6.99 5.88 9.7
4/8/2021 8:00:00 AM 11.14 52.052 0.204 7 5.77 9.8
4/8/2021 8:15:00 AM 11.16 52.088 0.204 7.01 5.83 9.93
4/8/2021 8:30:00 AM 11.18 52.124 0.204 7.03 5.89 10.05
4/8/2021 8:45:00 AM 11.21 52.178 0.204 7.04 5.86 10.15
4/8/2021 9:00:00 AM 11.29 52.322 0.204 7.06 5.55 10.26
4/8/2021 9:15:00 AM 11.39 52.502 0.204 7.08 5.74 10.35
4/8/2021 9:30:00 AM 11.49 52.682 0.204 7.1 5.57 10.43
4/8/2021 9:45:00 AM 11.6 52.88 0.204 7.11 5.43 10.5
4/8/2021 10:00:00 AM 11.71 53.078 0.204 7.12 5.47 10.56
4/8/2021 10:15:00 AM 11.82 53.276 0.204 7.13 5.27 10.6
4/8/2021 10:30:00 AM 11.94 53.492 0.204 7.14 5.61 10.65
4/8/2021 10:45:00 AM 12.15 53.87 0.204 7.15 5.41 10.71
4/8/2021 11:00:00 AM 12.34 54.212 0.204 7.17 5.46 10.75
4/8/2021 11:15:00 AM 12.56 54.608 0.204 7.18 5.37 10.78
4/8/2021 11:30:00 AM 12.73 54.914 0.204 7.19 5.43 10.81
4/8/2021 11:45:00 AM 12.92 55.256 0.204 7.2 5.33 10.84
4/8/2021 12:00:00 PM 13.11 55.598 0.204 7.21 5.27 10.86
4/8/2021 12:15:00 PM 13.3 55.94 0.204 7.21 5.44 10.89
4/8/2021 12:30:00 PM 13.49 56.282 0.204 7.23 5.32 10.9
4/8/2021 12:45:00 PM 13.69 56.642 0.204 7.24 5.45 10.91
4/8/2021 1:00:00 PM 13.88 56.984 0.204 7.25 5.46 10.94
4/8/2021 1:15:00 PM 14.06 57.308 0.204 7.26 5.32 10.92
4/8/2021 1:30:00 PM 14.25 57.65 0.204 7.26 5.36 10.94
4/8/2021 1:45:00 PM 14.4 57.92 0.204 7.27 5.47 10.94
4/8/2021 2:00:00 PM 14.58 58.244 0.204 7.29 5.46 10.95
4/8/2021 2:15:00 PM 14.73 58.514 0.204 7.3 5.45 10.95
4/8/2021 2:30:00 PM 14.83 58.694 0.204 7.3 5.2 10.93
4/8/2021 2:45:00 PM 14.95 58.91 0.204 7.31 5.34 10.92
4/8/2021 3:00:00 PM 15.05 59.09 0.204 7.31 5.56 10.91
4/8/2021 3:15:00 PM 15.16 59.288 0.204 7.32 5.52 10.91
4/8/2021 3:30:00 PM 15.23 59.414 0.204 7.32 5.65 10.87
4/8/2021 3:45:00 PM 15.31 59.558 0.204 7.32 5.54 10.86
4/8/2021 4:00:00 PM 15.36 59.648 0.205 7.31 5.63 10.84
4/8/2021 4:15:00 PM 15.37 59.666 0.205 7.31 5.51 10.81
4/8/2021 4:30:00 PM 15.32 59.576 0.205 7.29 5.44 10.76
4/8/2021 4:45:00 PM 15.31 59.558 0.205 7.28 5.55 10.74
4/8/2021 5:00:00 PM 15.28 59.504 0.205 7.27 5.68 10.71
4/8/2021 5:15:00 PM 15.2 59.36 0.205 7.26 5.54 10.66
4/8/2021 5:30:00 PM 15.12 59.216 0.205 7.25 5.68 10.61
4/8/2021 5:45:00 PM 15.01 59.018 0.205 7.23 5.45 10.54
4/8/2021 6:00:00 PM 14.88 58.784 0.206 7.2 5.45 10.46
4/8/2021 6:15:00 PM 14.74 58.532 0.206 7.19 5.5 10.4
4/8/2021 6:30:00 PM 14.62 58.316 0.205 7.17 5.55 10.33
4/8/2021 6:45:00 PM 14.5 58.1 0.206 7.16 5.55 10.23
4/8/2021 7:00:00 PM 14.38 57.884 0.206 7.14 5.39 10.11
4/8/2021 7:15:00 PM 14.27 57.686 0.206 7.12 5.57 10
4/8/2021 7:30:00 PM 14.17 57.506 0.206 7.11 5.13 9.88
4/8/2021 7:45:00 PM 14.06 57.308 0.206 7.09 5.57 9.77
4/8/2021 8:00:00 PM 13.96 57.128 0.207 7.07 5.68 9.65
4/8/2021 8:15:00 PM 13.85 56.93 0.207 7.06 5.63 9.56
4/8/2021 8:30:00 PM 13.76 56.768 0.207 7.04 5.6 9.49
4/8/2021 8:45:00 PM 13.67 56.606 0.207 7.04 5.71 9.45
4/8/2021 9:00:00 PM 13.57 56.426 0.207 7.03 5.79 9.41
4/8/2021 9:15:00 PM 13.49 56.282 0.207 7.03 5.84 9.39
4/8/2021 9:30:00 PM 13.42 56.156 0.208 7.02 6.08 9.36
4/8/2021 9:45:00 PM 13.35 56.03 0.208 7.02 6.1 9.34
4/8/2021 10:00:00 PM 13.31 55.958 0.207 7.02 6.06 9.33
4/8/2021 10:15:00 PM 13.25 55.85 0.208 7.02 5.82 9.31
4/8/2021 10:30:00 PM 13.22 55.796 0.207 7.01 6.07 9.3
4/8/2021 10:45:00 PM 13.18 55.724 0.208 7.02 5.88 9.29
4/8/2021 11:00:00 PM 13.15 55.67 0.208 7.01 6.1 9.27
4/8/2021 11:15:00 PM 13.12 55.616 0.208 7.01 6.28 9.25
4/8/2021 11:30:00 PM 13.09 55.562 0.207 7 6.05 9.23
4/8/2021 11:45:00 PM 13.05 55.49 0.208 6.99 6.15 9.21
4/9/2021 12:00:00 AM 13.02 55.436 0.208 6.99 6.15 9.2
4/9/2021 12:15:00 AM 13.01 55.418 0.208 6.99 6.78 9.2
4/9/2021 12:30:00 AM 12.99 55.382 0.208 6.99 6.04 9.19
4/9/2021 12:45:00 AM 12.97 55.346 0.208 6.99 6.09 9.18
4/9/2021 1:00:00 AM 12.94 55.292 0.208 6.99 6.09 9.17
4/9/2021 1:15:00 AM 12.9 55.22 0.208 7 6.31 9.17
4/9/2021 1:30:00 AM 12.87 55.166 0.208 7 6.34 9.17
4/9/2021 1:45:00 AM 12.84 55.112 0.209 7 6.36 9.16
4/9/2021 2:00:00 AM 12.82 55.076 0.209 7 6.56 9.16
4/9/2021 2:15:00 AM 12.8 55.04 0.209 7 7.47 9.15
4/9/2021 2:30:00 AM 12.78 55.004 0.209 7 5.98 9.14
4/9/2021 2:45:00 AM 12.76 54.968 0.208 7 6.42 9.13
4/9/2021 3:00:00 AM 12.72 54.896 0.208 7 5.93 9.13
4/9/2021 3:15:00 AM 12.69 54.842 0.208 7 6.19 9.13
4/9/2021 3:30:00 AM 12.65 54.77 0.209 6.99 5.95 9.13
4/9/2021 3:45:00 AM 12.64 54.752 0.209 7 5.99 9.12
4/9/2021 4:00:00 AM 12.61 54.698 0.209 6.99 6.28 9.12
4/9/2021 4:15:00 AM 12.58 54.644 0.209 6.99 5.95 9.12
4/9/2021 4:30:00 AM 12.55 54.59 0.209 6.99 6.16 9.12
4/9/2021 4:45:00 AM 12.52 54.536 0.209 6.99 5.83 9.12
4/9/2021 5:00:00 AM 12.5 54.5 0.209 6.99 6.14 9.11
4/9/2021 5:15:00 AM 12.46 54.428 0.209 6.98 5.83 9.11
4/9/2021 5:30:00 AM 12.44 54.392 0.21 6.98 6.09 9.11
4/9/2021 5:45:00 AM 12.4 54.32 0.21 6.98 6.22 9.11
4/9/2021 6:00:00 AM 12.37 54.266 0.21 6.98 5.95 9.12
4/9/2021 6:15:00 AM 12.34 54.212 0.21 6.98 5.95 9.13
4/9/2021 6:30:00 AM 12.32 54.176 0.21 6.98 6.83 9.12
4/9/2021 6:45:00 AM 12.28 54.104 0.21 6.98 6.05 9.14
4/9/2021 7:00:00 AM 12.26 54.068 0.21 6.98 5.89 9.14
4/9/2021 7:15:00 AM 12.23 54.014 0.21 6.98 5.8 9.16
4/9/2021 7:30:00 AM 12.2 53.96 0.21 6.99 5.8 9.19
4/9/2021 7:45:00 AM 12.18 53.924 0.21 6.99 6.04 9.24
4/9/2021 8:00:00 AM 12.15 53.87 0.211 7 5.84 9.26
4/9/2021 8:15:00 AM 12.12 53.816 0.211 7 5.62 9.29
4/9/2021 8:30:00 AM 12.11 53.798 0.211 7.01 5.77 9.34
4/9/2021 8:45:00 AM 12.11 53.798 0.211 7.02 5.71 9.44
4/9/2021 9:00:00 AM 12.11 53.798 0.211 7.03 5.69 9.54
4/9/2021 9:15:00 AM 12.1 53.78 0.211 7.03 5.5 9.59
4/9/2021 9:30:00 AM 12.13 53.834 0.211 7.05 5.49 9.73
4/9/2021 9:45:00 AM 12.13 53.834 0.211 7.06 5.58 9.78
4/9/2021 10:00:00 AM 12.12 53.816 0.21 7.06 5.43 9.82
4/9/2021 10:15:00 AM 12.18 53.924 0.211 7.08 5.47 9.97
4/9/2021 10:30:00 AM 12.21 53.978 0.211 7.09 5.56 10.05
4/9/2021 10:45:00 AM 12.35 54.23 0.21 7.11 5.48 10.21
4/9/2021 11:00:00 AM 12.46 54.428 0.211 7.13 5.35 10.31
4/9/2021 11:15:00 AM 12.51 54.518 0.21 7.13 5.38 10.34
4/9/2021 11:30:00 AM 12.56 54.608 0.211 7.14 5.48 10.36
4/9/2021 11:45:00 AM 12.56 54.608 0.211 7.14 5.43 10.36
4/9/2021 12:00:00 PM 12.58 54.644 0.211 7.15 5.28 10.41
4/9/2021 12:15:00 PM 12.61 54.698 0.211 7.16 5.42 10.46
4/9/2021 12:30:00 PM 12.69 54.842 0.21 7.17 5.44 10.53
4/9/2021 12:45:00 PM 12.8 55.04 0.211 7.19 5.5 10.59
4/9/2021 1:00:00 PM 12.96 55.328 0.211 7.2 5.28 10.66
4/9/2021 1:15:00 PM 13.19 55.742 0.211 7.22 5.45 10.72
4/9/2021 1:30:00 PM 13.38 56.084 0.21 7.23 5.4 10.76
4/9/2021 1:45:00 PM 13.55 56.39 0.21 7.24 5.59 10.78
4/9/2021 2:00:00 PM 13.72 56.696 0.211 7.25 5.37 10.79
4/9/2021 2:15:00 PM 14.03 57.254 0.21 7.28 5.48 10.83
4/9/2021 2:30:00 PM 14.02 57.236 0.211 7.28 5.4 10.81
4/9/2021 2:45:00 PM 14.23 57.614 0.211 7.29 5.61 10.83
4/9/2021 3:00:00 PM 14.37 57.866 0.211 7.29 5.44 10.83
4/9/2021 3:15:00 PM 14.36 57.848 0.21 7.29 5.43 10.79
4/9/2021 3:30:00 PM 14.22 57.596 0.211 7.28 5.48 10.75
4/9/2021 3:45:00 PM 14.19 57.542 0.211 7.28 5.64 10.74
4/9/2021 4:00:00 PM 14.02 57.236 0.211 7.26 5.44 10.66
4/9/2021 4:15:00 PM 13.93 57.074 0.211 7.26 5.57 10.66
4/9/2021 4:30:00 PM 13.83 56.894 0.211 7.25 5.52 10.63
4/9/2021 4:45:00 PM 13.73 56.714 0.211 7.23 5.35 10.56
4/9/2021 5:00:00 PM 13.61 56.498 0.211 7.21 5.72 10.48
4/9/2021 5:15:00 PM 13.49 56.282 0.211 7.19 5.51 10.38
4/9/2021 5:30:00 PM 13.39 56.102 0.211 7.17 5.49 10.33
4/9/2021 5:45:00 PM 13.31 55.958 0.211 7.17 5.58 10.31
4/9/2021 6:00:00 PM 13.24 55.832 0.212 7.16 5.42 10.24
4/9/2021 6:15:00 PM 13.17 55.706 0.212 7.14 5.44 10.12
4/9/2021 6:30:00 PM 13.12 55.616 0.211 7.13 6.32 10.03
4/9/2021 6:45:00 PM 13.08 55.544 0.211 7.12 5.42 9.98
4/9/2021 7:00:00 PM 13.04 55.472 0.212 7.11 5.43 9.94
4/9/2021 7:15:00 PM 13 55.4 0.212 7.1 5.47 9.87
4/9/2021 7:30:00 PM 12.96 55.328 0.212 7.09 5.58 9.8
4/9/2021 7:45:00 PM 12.93 55.274 0.212 7.08 5.61 9.73
4/9/2021 8:00:00 PM 12.89 55.202 0.212 7.07 5.86 9.65
4/9/2021 8:15:00 PM 12.86 55.148 0.212 7.05 5.89 9.59
4/9/2021 8:30:00 PM 12.83 55.094 0.212 7.04 5.84 9.54
4/9/2021 8:45:00 PM 12.8 55.04 0.212 7.04 5.61 9.5
4/9/2021 9:00:00 PM 12.78 55.004 0.212 7.04 6.12 9.48
4/9/2021 9:15:00 PM 12.77 54.986 0.212 7.04 6.03 9.45
4/9/2021 9:30:00 PM 12.76 54.968 0.212 7.03 6.11 9.43
4/9/2021 9:45:00 PM 12.75 54.95 0.212 7.03 6.15 9.42
4/9/2021 10:00:00 PM 12.74 54.932 0.212 7.03 5.95 9.39
4/9/2021 10:15:00 PM 12.73 54.914 0.212 7.03 5.75 9.38
4/9/2021 10:30:00 PM 12.72 54.896 0.212 7.02 5.78 9.36
4/9/2021 10:45:00 PM 12.72 54.896 0.212 7.01 5.71 9.33
4/9/2021 11:00:00 PM 12.71 54.878 0.212 7.01 5.87 9.32
4/9/2021 11:15:00 PM 12.7 54.86 0.212 7.01 5.94 9.29
4/9/2021 11:30:00 PM 12.69 54.842 0.212 7.01 5.94 9.29
4/9/2021 11:45:00 PM 12.67 54.806 0.212 7.01 5.8 9.29
4/10/2021 12:00:00 AM 12.65 54.77 0.212 7 5.75 9.28
4/10/2021 12:15:00 AM 12.63 54.734 0.212 7 5.99 9.26
4/10/2021 12:30:00 AM 12.61 54.698 0.212 6.99 5.68 9.25
4/10/2021 12:45:00 AM 12.58 54.644 0.212 6.99 5.74 9.25
4/10/2021 1:00:00 AM 12.56 54.608 0.212 6.99 5.75 9.24
4/10/2021 1:15:00 AM 12.53 54.554 0.213 6.99 5.81 9.25
4/10/2021 1:30:00 AM 12.5 54.5 0.213 7 5.91 9.25
4/10/2021 1:45:00 AM 12.48 54.464 0.213 7 5.89 9.25
4/10/2021 2:00:00 AM 12.45 54.41 0.212 7 5.98 9.25
4/10/2021 2:15:00 AM 12.43 54.374 0.212 7 5.68 9.25
4/10/2021 2:30:00 AM 12.4 54.32 0.213 7 5.86 9.25
4/10/2021 2:45:00 AM 12.38 54.284 0.213 6.99 5.81 9.24
4/10/2021 3:00:00 AM 12.36 54.248 0.213 6.99 5.84 9.24
4/10/2021 3:15:00 AM 12.34 54.212 0.212 6.99 6.1 9.23
4/10/2021 3:30:00 AM 12.31 54.158 0.213 6.99 5.89 9.24
4/10/2021 3:45:00 AM 12.29 54.122 0.213 6.99 6.07 9.24
4/10/2021 4:00:00 AM 12.28 54.104 0.213 6.99 6.15 9.23
4/10/2021 4:15:00 AM 12.25 54.05 0.213 6.99 6.07 9.23
4/10/2021 4:30:00 AM 12.23 54.014 0.213 6.99 6.15 9.23
4/10/2021 4:45:00 AM 12.21 53.978 0.213 6.99 6.09 9.23
4/10/2021 5:00:00 AM 12.19 53.942 0.213 6.99 6.37 9.23
4/10/2021 5:15:00 AM 12.18 53.924 0.213 6.99 6.17 9.23
4/10/2021 5:30:00 AM 12.16 53.888 0.213 6.99 6.42 9.23
4/10/2021 5:45:00 AM 12.14 53.852 0.213 6.99 6.08 9.23
4/10/2021 6:00:00 AM 12.12 53.816 0.213 6.99 6.03 9.23
4/10/2021 6:15:00 AM 12.09 53.762 0.213 6.99 5.89 9.24
4/10/2021 6:30:00 AM 12.07 53.726 0.213 6.99 6.29 9.24
4/10/2021 6:45:00 AM 12.05 53.69 0.213 6.99 6.01 9.24
4/10/2021 7:00:00 AM 12.03 53.654 0.214 6.99 5.54 9.26
4/10/2021 7:15:00 AM 12.02 53.636 0.214 7 6.35 9.29
4/10/2021 7:30:00 AM 12.01 53.618 0.214 7 5.99 9.34
4/10/2021 7:45:00 AM 12.02 53.636 0.214 7.01 5.78 9.4
4/10/2021 8:00:00 AM 12.02 53.636 0.213 7.02 5.66 9.5
4/10/2021 8:15:00 AM 12.04 53.672 0.213 7.03 5.7 9.6
4/10/2021 8:30:00 AM 12.06 53.708 0.213 7.04 5.56 9.74
4/10/2021 8:45:00 AM 12.11 53.798 0.214 7.06 5.71 9.89
4/10/2021 9:00:00 AM 12.18 53.924 0.214 7.08 5.52 10.02
4/10/2021 9:15:00 AM 12.33 54.194 0.213 7.09 5.53 10.15
4/10/2021 9:30:00 AM 12.44 54.392 0.213 7.11 5.51 10.23
4/10/2021 9:45:00 AM 12.55 54.59 0.213 7.13 5.44 10.3
4/10/2021 10:00:00 AM 12.71 54.878 0.213 7.14 5.51 10.37
4/10/2021 10:15:00 AM 12.88 55.184 0.214 7.15 5.41 10.43
4/10/2021 10:30:00 AM 13.08 55.544 0.213 7.16 5.15 10.49
4/10/2021 10:45:00 AM 13.28 55.904 0.214 7.18 5.45 10.54
4/10/2021 11:00:00 AM 13.46 56.228 0.213 7.19 5.38 10.58
4/10/2021 11:15:00 AM 13.66 56.588 0.213 7.2 5.41 10.62
4/10/2021 11:30:00 AM 13.85 56.93 0.213 7.21 5.38 10.65
4/10/2021 11:45:00 AM 14.03 57.254 0.213 7.22 5.4 10.68
4/10/2021 12:00:00 PM 14.25 57.65 0.214 7.23 5.42 10.7
4/10/2021 12:15:00 PM 14.46 58.028 0.214 7.23 5.43 10.73
4/10/2021 12:30:00 PM 14.64 58.352 0.214 7.24 5.36 10.75
4/10/2021 12:45:00 PM 14.84 58.712 0.214 7.25 5.32 10.76
4/10/2021 1:00:00 PM 15.02 59.036 0.213 7.26 5.3 10.77
4/10/2021 1:15:00 PM 15.18 59.324 0.213 7.27 5.4 10.78
4/10/2021 1:30:00 PM 15.34 59.612 0.214 7.28 5.42 10.8
4/10/2021 1:45:00 PM 15.47 59.846 0.214 7.29 5.36 10.79
4/10/2021 2:00:00 PM 15.62 60.116 0.214 7.31 5.36 10.8
4/10/2021 2:15:00 PM 15.74 60.332 0.213 7.32 5.47 10.8
4/10/2021 2:30:00 PM 15.86 60.548 0.213 7.32 5.54 10.8
4/10/2021 2:45:00 PM 15.95 60.71 0.214 7.33 5.38 10.8
4/10/2021 3:00:00 PM 16.01 60.818 0.214 7.34 5.44 10.78
4/10/2021 3:15:00 PM 15.99 60.782 0.214 7.33 5.25 10.75
4/10/2021 3:30:00 PM 16.03 60.854 0.214 7.32 5.24 10.75
4/10/2021 3:45:00 PM 16 60.8 0.214 7.31 5.41 10.72
4/10/2021 4:00:00 PM 16.02 60.836 0.214 7.3 5.41 10.71
4/10/2021 4:15:00 PM 16.03 60.854 0.214 7.31 5.76 10.69
4/10/2021 4:30:00 PM 16 60.8 0.214 7.3 5.49 10.66
4/10/2021 4:45:00 PM 15.95 60.71 0.214 7.28 5.89 10.63
4/10/2021 5:00:00 PM 15.88 60.584 0.214 7.27 5.63 10.58
4/10/2021 5:15:00 PM 15.78 60.404 0.214 7.27 5.47 10.52
4/10/2021 5:30:00 PM 15.68 60.224 0.214 7.26 5.43 10.45
4/10/2021 5:45:00 PM 15.58 60.044 0.214 7.24 5.33 10.4
4/10/2021 6:00:00 PM 15.48 59.864 0.214 7.22 5.46 10.32
4/10/2021 6:15:00 PM 15.38 59.684 0.214 7.21 5.56 10.24
4/10/2021 6:30:00 PM 15.28 59.504 0.215 7.19 5.5 10.13
4/10/2021 6:45:00 PM 15.2 59.36 0.215 7.17 5.31 10.01
4/10/2021 7:00:00 PM 15.1 59.18 0.215 7.14 5.45 9.85
4/10/2021 7:15:00 PM 15.02 59.036 0.215 7.11 5.45 9.71
4/10/2021 7:30:00 PM 14.93 58.874 0.215 7.1 5.55 9.58
4/10/2021 7:45:00 PM 14.85 58.73 0.216 7.08 5.65 9.45
4/10/2021 8:00:00 PM 14.78 58.604 0.216 7.07 5.89 9.34
4/10/2021 8:15:00 PM 14.71 58.478 0.215 7.06 5.74 9.26
4/10/2021 8:30:00 PM 14.64 58.352 0.216 7.05 5.7 9.19
4/10/2021 8:45:00 PM 14.58 58.244 0.216 7.04 6.03 9.13
4/10/2021 9:00:00 PM 14.52 58.136 0.216 7.04 5.84 9.1
4/10/2021 9:15:00 PM 14.46 58.028 0.217 7.03 5.62 9.06
4/10/2021 9:30:00 PM 14.41 57.938 0.216 7.03 5.55 9.02
4/10/2021 9:45:00 PM 14.37 57.866 0.216 7.03 5.84 9.01
4/10/2021 10:00:00 PM 14.34 57.812 0.216 7.02 5.59 8.98
4/10/2021 10:15:00 PM 14.3 57.74 0.216 7.02 5.51 8.97
4/10/2021 10:30:00 PM 14.27 57.686 0.216 7.02 5.58 8.95
4/10/2021 10:45:00 PM 14.24 57.632 0.216 7.02 5.78 8.93
4/10/2021 11:00:00 PM 14.21 57.578 0.216 7.02 5.76 8.91
4/10/2021 11:15:00 PM 14.19 57.542 0.216 7.02 5.82 8.91
4/10/2021 11:30:00 PM 14.16 57.488 0.216 7.02 5.81 8.9
4/10/2021 11:45:00 PM 14.14 57.452 0.216 7.02 5.94 8.88
4/11/2021 12:00:00 AM 14.12 57.416 0.217 7.01 6.6 8.86
4/11/2021 12:15:00 AM 14.09 57.362 0.218 7.01 7.44 8.85
4/11/2021 12:30:00 AM 14.07 57.326 0.22 7.01 9.59 8.83
4/11/2021 12:45:00 AM 14.03 57.254 0.218 7.01 8.45 8.83
4/11/2021 1:00:00 AM 14 57.2 0.218 7 9.8 8.81
4/11/2021 1:15:00 AM 13.98 57.164 0.218 7 12.5 8.79
4/11/2021 1:30:00 AM 13.94 57.092 0.218 6.99 10.4 8.77
4/11/2021 1:45:00 AM 13.9 57.02 0.218 6.99 10.32 8.76
4/11/2021 2:00:00 AM 13.87 56.966 0.217 6.99 11.64 8.76
4/11/2021 2:15:00 AM 13.85 56.93 0.214 7 13.29 8.76
4/11/2021 2:30:00 AM 13.82 56.876 0.214 7 12.33 8.77
4/11/2021 2:45:00 AM 13.78 56.804 0.214 7 11.59 8.76
4/11/2021 3:00:00 AM 13.77 56.786 0.211 7 13.09 8.76
4/11/2021 3:15:00 AM 13.74 56.732 0.211 7 11.79 8.76
4/11/2021 3:30:00 AM 13.71 56.678 0.211 7 11.22 8.75
4/11/2021 3:45:00 AM 13.68 56.624 0.211 7 10.89 8.75
4/11/2021 4:00:00 AM 13.66 56.588 0.211 7 10.16 8.76
4/11/2021 4:15:00 AM 13.64 56.552 0.21 7 10.92 8.75
4/11/2021 4:30:00 AM 13.6 56.48 0.211 7 10.79 8.77
4/11/2021 4:45:00 AM 13.56 56.408 0.212 7 10.22 8.77
4/11/2021 5:00:00 AM 13.54 56.372 0.211 6.99 10.59 8.77
4/11/2021 5:15:00 AM 13.52 56.336 0.21 6.99 11.04 8.78
4/11/2021 5:30:00 AM 13.48 56.264 0.21 6.99 11.34 8.78
4/11/2021 5:45:00 AM 13.46 56.228 0.208 7 12.37 8.79
4/11/2021 6:00:00 AM 13.43 56.174 0.208 7 12.15 8.81
4/11/2021 6:15:00 AM 13.39 56.102 0.207 7 13.25 8.84
4/11/2021 6:30:00 AM 13.38 56.084 0.201 7.03 32.08 8.87
4/11/2021 6:45:00 AM 13.26 55.868 0.205 7.04 26.33 8.91
4/11/2021 7:00:00 AM 13.21 55.778 0.205 7.05 23.86 8.93
4/11/2021 7:15:00 AM 13.2 55.76 0.203 7.06 27.74 8.93
4/11/2021 7:30:00 AM 13.14 55.652 0.205 7.05 24.79 8.96
4/11/2021 7:45:00 AM 13.1 55.58 0.205 7.04 25.03 8.98
4/11/2021 8:00:00 AM 13.08 55.544 0.205 7.04 24.45 9.01
4/11/2021 8:15:00 AM 13.05 55.49 0.206 7.04 26.27 9.03
4/11/2021 8:30:00 AM 13.02 55.436 0.207 7.04 35.14 9.05
4/11/2021 8:45:00 AM 13.01 55.418 0.207 7.04 37.28 9.09
4/11/2021 9:00:00 AM 13.03 55.454 0.207 7.06 36.09 9.15
4/11/2021 9:15:00 AM 13.04 55.472 0.207 7.07 34.21 9.21
4/11/2021 9:30:00 AM 13.05 55.49 0.207 7.08 32.82 9.26
4/11/2021 9:45:00 AM 13.08 55.544 0.206 7.09 37.72 9.32
4/11/2021 10:00:00 AM 13.15 55.67 0.204 7.11 32.56 9.35
4/11/2021 10:15:00 AM 13.22 55.796 0.202 7.12 29.99 9.37
4/11/2021 10:30:00 AM 13.37 56.066 0.199 7.13 26.08 9.43
4/11/2021 10:45:00 AM 13.39 56.102 0.195 7.12 24.33 9.38
4/11/2021 11:00:00 AM 13.55 56.39 0.192 7.13 23.55 9.43
4/11/2021 11:15:00 AM 13.69 56.642 0.188 7.14 22.94 9.45
4/11/2021 11:30:00 AM 13.74 56.732 0.186 7.14 21.46 9.47
4/11/2021 11:45:00 AM 13.78 56.804 0.185 7.13 21.03 9.47
4/11/2021 12:00:00 PM 13.8 56.84 0.183 7.13 20.74 9.47
4/11/2021 12:15:00 PM 13.82 56.876 0.182 7.11 20.99 9.48
4/11/2021 12:30:00 PM 13.82 56.876 0.181 7.12 20.27 9.5
4/11/2021 12:45:00 PM 13.84 56.912 0.179 7.12 22.14 9.49
4/11/2021 1:00:00 PM 13.86 56.948 0.177 7.12 22.59 9.49
4/11/2021 1:15:00 PM 13.88 56.984 0.176 7.11 22.21 9.48
4/11/2021 1:30:00 PM 13.89 57.002 0.174 7.11 23.28 9.47
4/11/2021 1:45:00 PM 14 57.2 0.173 7.12 24.68 9.51
4/11/2021 2:00:00 PM 14.02 57.236 0.172 7.11 26.71 9.48
4/11/2021 2:15:00 PM 14.19 57.542 0.171 7.13 24.99 9.52
4/11/2021 2:30:00 PM 14.24 57.632 0.17 7.12 27.7 9.48
4/11/2021 2:45:00 PM 14.29 57.722 0.169 7.11 25.59 9.46
4/11/2021 3:00:00 PM 14.26 57.668 0.168 7.08 25.83 9.42
4/11/2021 3:15:00 PM 14.31 57.758 0.168 7.09 26.24 9.4
4/11/2021 3:30:00 PM 14.42 57.956 0.167 7.09 26.52 9.4
4/11/2021 3:45:00 PM 14.54 58.172 0.167 7.1 27.29 9.4
4/11/2021 4:00:00 PM 14.65 58.37 0.166 7.1 27.07 9.39
4/11/2021 4:15:00 PM 14.58 58.244 0.166 7.07 28.49 9.32
4/11/2021 4:30:00 PM 14.43 57.974 0.166 7.05 29.59 9.27
4/11/2021 4:45:00 PM 14.31 57.758 0.166 7.04 30.41 9.21
4/11/2021 5:00:00 PM 14.24 57.632 0.165 7.03 29.89 9.16
4/11/2021 5:15:00 PM 14.15 57.47 0.165 7.02 31.78 9.13
4/11/2021 5:30:00 PM 14.08 57.344 0.165 7.02 31.07 9.09
4/11/2021 5:45:00 PM 14.02 57.236 0.165 7.03 35.58 9.08
4/11/2021 6:00:00 PM 13.97 57.146 0.165 7.02 29.85 9.07
4/11/2021 6:15:00 PM 13.94 57.092 0.165 7.02 30.25 9.06
4/11/2021 6:30:00 PM 13.91 57.038 0.164 7.02 29.58 9.05
4/11/2021 6:45:00 PM 13.89 57.002 0.165 7.02 28.63 9.04
4/11/2021 7:00:00 PM 13.86 56.948 0.165 7.01 25.09 9.02
4/11/2021 7:15:00 PM 13.83 56.894 0.165 7.02 27.64 9.01
4/11/2021 7:30:00 PM 13.8 56.84 0.165 7.02 29.83 8.99
4/11/2021 7:45:00 PM 13.77 56.786 0.166 7.02 27.67 8.98
4/11/2021 8:00:00 PM 13.75 56.75 0.166 7.02 26.32 8.97
4/11/2021 8:15:00 PM 13.71 56.678 0.166 7.02 25.38 8.97
4/11/2021 8:30:00 PM 13.67 56.606 0.166 7.01 25.12 8.97
4/11/2021 8:45:00 PM 13.63 56.534 0.167 7.01 25.38 8.97
4/11/2021 9:00:00 PM 13.59 56.462 0.167 7.01 24.71 8.97
4/11/2021 9:15:00 PM 13.55 56.39 0.167 7.01 23.9 8.98
4/11/2021 9:30:00 PM 13.51 56.318 0.168 7.01 24.35 8.98
4/11/2021 9:45:00 PM 13.46 56.228 0.168 7.01 23.73 8.99
4/11/2021 10:00:00 PM 13.41 56.138 0.169 7.01 24.08 8.99
4/11/2021 10:15:00 PM 13.36 56.048 0.169 7.01 23.32 9
4/11/2021 10:30:00 PM 13.31 55.958 0.17 7.01 22.57 9
4/11/2021 10:45:00 PM 13.26 55.868 0.17 7.01 22.44 9.01
4/11/2021 11:00:00 PM 13.21 55.778 0.171 7.01 22.41 9.01
4/11/2021 11:15:00 PM 13.15 55.67 0.171 7 22.66 9.02
4/11/2021 11:30:00 PM 13.09 55.562 0.171 7 22.55 9.02
4/11/2021 11:45:00 PM 13.03 55.454 0.171 7 21.7 9.02
4/12/2021 12:00:00 AM 12.99 55.382 0.171 7.01 21.49 9.03
4/12/2021 12:15:00 AM 12.95 55.31 0.171 7.01 21.88 9.03
4/12/2021 12:30:00 AM 12.91 55.238 0.171 7.01 20.81 9.03
4/12/2021 12:45:00 AM 12.86 55.148 0.172 7 20.96 9.04
4/12/2021 1:00:00 AM 12.82 55.076 0.172 7 20.31 9.05
4/12/2021 1:15:00 AM 12.78 55.004 0.172 7 21.01 9.05
4/12/2021 1:30:00 AM 12.74 54.932 0.172 7 20.16 9.05
4/12/2021 1:45:00 AM 12.69 54.842 0.172 7 20.95 9.06
4/12/2021 2:00:00 AM 12.65 54.77 0.172 7 20.47 9.06
4/12/2021 2:15:00 AM 12.62 54.716 0.172 7 20.36 9.06
4/12/2021 2:30:00 AM 12.59 54.662 0.172 6.99 20.33 9.07
4/12/2021 2:45:00 AM 12.56 54.608 0.172 6.99 19.84 9.07
4/12/2021 3:00:00 AM 12.53 54.554 0.172 6.99 19.5 9.07
4/12/2021 3:15:00 AM 12.49 54.482 0.172 6.99 19.73 9.08
4/12/2021 3:30:00 AM 12.46 54.428 0.172 6.99 19.48 9.08
4/12/2021 3:45:00 AM 12.43 54.374 0.172 6.99 19.88 9.09
4/12/2021 4:00:00 AM 12.39 54.302 0.172 6.98 18.88 9.09
4/12/2021 4:15:00 AM 12.36 54.248 0.173 6.98 19.79 9.09
4/12/2021 4:30:00 AM 12.33 54.194 0.173 6.98 19.09 9.1
4/12/2021 4:45:00 AM 12.3 54.14 0.173 6.98 18.49 9.1
4/12/2021 5:00:00 AM 12.28 54.104 0.173 6.98 18.51 9.1
4/12/2021 5:15:00 AM 12.26 54.068 0.173 6.98 18.66 9.11
4/12/2021 5:30:00 AM 12.24 54.032 0.174 6.98 18.41 9.11
4/12/2021 5:45:00 AM 12.21 53.978 0.174 6.98 18.03 9.11
4/12/2021 6:00:00 AM 12.19 53.942 0.174 6.97 18.37 9.12
4/12/2021 6:15:00 AM 12.17 53.906 0.174 6.97 17.8 9.12
4/12/2021 6:30:00 AM 12.15 53.87 0.174 6.97 17.87 9.13
4/12/2021 6:45:00 AM 12.13 53.834 0.175 6.97 18.02 9.13
4/12/2021 7:00:00 AM 12.11 53.798 0.175 6.97 17.24 9.14
4/12/2021 7:15:00 AM 12.09 53.762 0.175 6.97 16.27 9.15
4/12/2021 7:30:00 AM 12.06 53.708 0.175 6.97 16.97 9.17
4/12/2021 7:45:00 AM 12.04 53.672 0.175 6.97 16.9 9.2
4/12/2021 8:00:00 AM 12.03 53.654 0.175 6.98 16.04 9.24
4/12/2021 8:15:00 AM 12.03 53.654 0.175 6.99 15.93 9.29
4/12/2021 8:30:00 AM 12.03 53.654 0.175 6.99 15.47 9.32
4/12/2021 8:45:00 AM 12.04 53.672 0.176 7 15.14 9.37
4/12/2021 9:00:00 AM 12.04 53.672 0.176 7 15.19 9.41
4/12/2021 9:15:00 AM 12.03 53.654 0.176 7.01 14.64 9.43
4/12/2021 9:30:00 AM 12.04 53.672 0.176 7.01 14.78 9.46
4/12/2021 9:45:00 AM 12.02 53.636 0.176 7.01 14.88 9.48
4/12/2021 10:00:00 AM 12.01 53.618 0.177 7.02 13.72 9.5
4/12/2021 10:15:00 AM 12.01 53.618 0.177 7.02 13.62 9.53
4/12/2021 10:30:00 AM 11.98 53.564 0.177 7.02 13.6 9.52
4/12/2021 10:45:00 AM 11.95 53.51 0.177 7.02 14.13 9.51
4/12/2021 11:00:00 AM 11.92 53.456 0.178 7.02 12.94 9.5
4/12/2021 11:15:00 AM 11.89 53.402 0.178 7.01 12.66 9.5
4/12/2021 11:30:00 AM 11.88 53.384 0.178 7.01 12.69 9.52
4/12/2021 11:45:00 AM 11.86 53.348 0.178 7.02 12.19 9.53
4/12/2021 12:00:00 PM 11.85 53.33 0.178 7.02 12.25 9.57
4/12/2021 12:15:00 PM 11.85 53.33 0.179 7.03 12.07 9.62
4/12/2021 12:30:00 PM 11.86 53.348 0.179 7.03 11.83 9.66
4/12/2021 12:45:00 PM 11.86 53.348 0.179 7.04 12.13 9.7
4/12/2021 1:00:00 PM 11.87 53.366 0.179 7.05 11.41 9.75
4/12/2021 1:15:00 PM 11.89 53.402 0.179 7.06 11.33 9.8
4/12/2021 1:30:00 PM 11.98 53.564 0.179 7.07 11.48 9.89
4/12/2021 1:45:00 PM 12.08 53.744 0.179 7.09 11.35 9.94
4/12/2021 2:00:00 PM 12.13 53.834 0.179 7.09 11.04 9.95
4/12/2021 2:15:00 PM 12.2 53.96 0.18 7.1 10.73 10
4/12/2021 2:30:00 PM 12.28 54.104 0.18 7.11 10.97 10.04
4/12/2021 2:45:00 PM 12.38 54.284 0.18 7.12 10.49 10.07
4/12/2021 3:00:00 PM 12.42 54.356 0.18 7.12 10.72 10.07
4/12/2021 3:15:00 PM 12.41 54.338 0.18 7.12 10.79 10.07
4/12/2021 3:30:00 PM 12.42 54.356 0.18 7.12 10.11 10.09
4/12/2021 3:45:00 PM 12.43 54.374 0.18 7.13 10.11 10.11
4/12/2021 4:00:00 PM 12.46 54.428 0.18 7.13 9.77 10.13
4/12/2021 4:15:00 PM 12.46 54.428 0.181 7.13 10.19 10.14
4/12/2021 4:30:00 PM 12.44 54.392 0.181 7.13 10.25 10.13
4/12/2021 4:45:00 PM 12.41 54.338 0.181 7.12 9.92 10.11
4/12/2021 5:00:00 PM 12.39 54.302 0.181 7.12 10 10.12
4/12/2021 5:15:00 PM 12.37 54.266 0.181 7.12 9.77 10.11
4/12/2021 5:30:00 PM 12.31 54.158 0.181 7.1 9.64 10.03
4/12/2021 5:45:00 PM 12.31 54.158 0.181 7.11 9.45 10.08
4/12/2021 6:00:00 PM 12.27 54.086 0.181 7.11 9.34 10.07
4/12/2021 6:15:00 PM 12.21 53.978 0.181 7.1 9.26 10.02
4/12/2021 6:30:00 PM 12.15 53.87 0.182 7.1 8.92 10.02
4/12/2021 6:45:00 PM 12.1 53.78 0.182 7.1 9.14 10
4/12/2021 7:00:00 PM 12.03 53.654 0.182 7.09 9.18 9.96
4/12/2021 7:15:00 PM 11.98 53.564 0.182 7.08 8.92 9.93
4/12/2021 7:30:00 PM 11.92 53.456 0.182 7.08 9.24 9.89
4/12/2021 7:45:00 PM 11.88 53.384 0.183 7.07 8.87 9.85
4/12/2021 8:00:00 PM 11.84 53.312 0.183 7.06 8.82 9.79
4/12/2021 8:15:00 PM 11.79 53.222 0.183 7.06 9.19 9.74
4/12/2021 8:30:00 PM 11.74 53.132 0.183 7.04 9.19 9.71
4/12/2021 8:45:00 PM 11.68 53.024 0.183 7.04 9.1 9.69
4/12/2021 9:00:00 PM 11.63 52.934 0.183 7.03 8.75 9.68
4/12/2021 9:15:00 PM 11.59 52.862 0.184 7.03 8.92 9.67
4/12/2021 9:30:00 PM 11.55 52.79 0.184 7.03 9.01 9.67
4/12/2021 9:45:00 PM 11.51 52.718 0.184 7.03 9.01 9.66
4/12/2021 10:00:00 PM 11.46 52.628 0.184 7.03 8.92 9.66
4/12/2021 10:15:00 PM 11.43 52.574 0.184 7.02 9.37 9.66
4/12/2021 10:30:00 PM 11.39 52.502 0.184 7.02 8.99 9.66
4/12/2021 10:45:00 PM 11.37 52.466 0.184 7.02 8.76 9.66
4/12/2021 11:00:00 PM 11.35 52.43 0.185 7.03 9.04 9.65
4/12/2021 11:15:00 PM 11.32 52.376 0.185 7.03 8.86 9.66
4/12/2021 11:30:00 PM 11.3 52.34 0.185 7.03 8.82 9.65
4/12/2021 11:45:00 PM 11.27 52.286 0.185 7.03 8.5 9.65
4/13/2021 12:00:00 AM 11.25 52.25 0.185 7.03 8.76 9.65
4/13/2021 12:15:00 AM 11.22 52.196 0.185 7.03 8.47 9.65
4/13/2021 12:30:00 AM 11.2 52.16 0.185 7.03 8.79 9.65
4/13/2021 12:45:00 AM 11.17 52.106 0.186 7.03 8.48 9.65
4/13/2021 1:00:00 AM 11.15 52.07 0.186 7.03 8.22 9.65
4/13/2021 1:15:00 AM 11.11 51.998 0.186 7.03 8.63 9.65
4/13/2021 1:30:00 AM 11.07 51.926 0.186 7.02 8.2 9.66
4/13/2021 1:45:00 AM 11.02 51.836 0.186 7.03 8.3 9.67
4/13/2021 2:00:00 AM 10.98 51.764 0.186 7.02 8.25 9.67
4/13/2021 2:15:00 AM 10.95 51.71 0.187 7.02 8.27 9.67
4/13/2021 2:30:00 AM 10.94 51.692 0.187 7.02 8.25 9.68
4/13/2021 2:45:00 AM 10.92 51.656 0.186 7.03 8.34 9.67
4/13/2021 3:00:00 AM 10.9 51.62 0.187 7.02 8.3 9.68
4/13/2021 3:15:00 AM 10.87 51.566 0.187 7.03 8.6 9.68
4/13/2021 3:30:00 AM 10.85 51.53 0.187 7.03 8.24 9.69
4/13/2021 3:45:00 AM 10.82 51.476 0.187 7.03 8.12 9.69
4/13/2021 4:00:00 AM 10.79 51.422 0.187 7.03 8.09 9.69
4/13/2021 4:15:00 AM 10.77 51.386 0.187 7.03 8.08 9.7
4/13/2021 4:30:00 AM 10.74 51.332 0.188 7.03 7.97 9.71
4/13/2021 4:45:00 AM 10.71 51.278 0.188 7.03 8.12 9.71
4/13/2021 5:00:00 AM 10.67 51.206 0.188 7.03 8.21 9.72
4/13/2021 5:15:00 AM 10.64 51.152 0.188 7.03 8.23 9.72
4/13/2021 5:30:00 AM 10.61 51.098 0.188 7.03 7.98 9.73
4/13/2021 5:45:00 AM 10.58 51.044 0.188 7.03 8.05 9.73
4/13/2021 6:00:00 AM 10.55 50.99 0.188 7.03 8.25 9.74
4/13/2021 6:15:00 AM 10.53 50.954 0.188 7.03 8.06 9.74
4/13/2021 6:30:00 AM 10.5 50.9 0.188 7.03 7.91 9.75
4/13/2021 6:45:00 AM 10.49 50.882 0.189 7.03 7.92 9.76
4/13/2021 7:00:00 AM 10.46 50.828 0.189 7.03 7.91 9.78
4/13/2021 7:15:00 AM 10.44 50.792 0.189 7.03 7.78 9.8
4/13/2021 7:30:00 AM 10.44 50.792 0.189 7.04 7.61 9.84
4/13/2021 7:45:00 AM 10.45 50.81 0.189 7.04 7.27 9.9
4/13/2021 8:00:00 AM 10.46 50.828 0.189 7.06 7.27 9.97
4/13/2021 8:15:00 AM 10.47 50.846 0.189 7.06 7.3 10.01
4/13/2021 8:30:00 AM 10.48 50.864 0.189 7.07 6.97 10.07
4/13/2021 8:45:00 AM 10.51 50.918 0.189 7.08 6.81 10.13
4/13/2021 9:00:00 AM 10.59 51.062 0.189 7.1 6.75 10.22
4/13/2021 9:15:00 AM 10.59 51.062 0.189 7.1 6.66 10.26
4/13/2021 9:30:00 AM 10.63 51.134 0.189 7.1 6.81 10.28
4/13/2021 9:45:00 AM 10.71 51.278 0.189 7.11 6.64 10.34
4/13/2021 10:00:00 AM 10.78 51.404 0.189 7.11 6.97 10.4
4/13/2021 10:15:00 AM 10.98 51.764 0.189 7.13 6.5 10.45
4/13/2021 10:30:00 AM 11.17 52.106 0.189 7.14 6.39 10.49
4/13/2021 10:45:00 AM 11.29 52.322 0.189 7.15 6.27 10.5
4/13/2021 11:00:00 AM 11.57 52.826 0.189 7.17 6.7 10.54
4/13/2021 11:15:00 AM 11.61 52.898 0.189 7.16 6.35 10.52
4/13/2021 11:30:00 AM 11.7 53.06 0.189 7.17 6.38 10.54
4/13/2021 11:45:00 AM 11.76 53.168 0.189 7.17 6.33 10.57
4/13/2021 12:00:00 PM 11.71 53.078 0.189 7.17 6.3 10.56
4/13/2021 12:15:00 PM 11.68 53.024 0.189 7.17 6.23 10.57
4/13/2021 12:30:00 PM 11.7 53.06 0.189 7.18 6.36 10.6
4/13/2021 12:45:00 PM 11.77 53.186 0.189 7.18 6.21 10.63
4/13/2021 1:00:00 PM 11.89 53.402 0.19 7.19 6.26 10.67
4/13/2021 1:15:00 PM 12.1 53.78 0.19 7.2 6.17 10.69
4/13/2021 1:30:00 PM 12.2 53.96 0.189 7.2 6.4 10.68
4/13/2021 1:45:00 PM 12.38 54.284 0.19 7.2 6.27 10.68
4/13/2021 2:00:00 PM 12.55 54.59 0.19 7.21 6.23 10.68
4/13/2021 2:15:00 PM 12.75 54.95 0.189 7.22 6.24 10.66
4/13/2021 2:30:00 PM 12.98 55.364 0.19 7.23 6.04 10.68
4/13/2021 2:45:00 PM 12.99 55.382 0.19 7.23 6.31 10.66
4/13/2021 3:00:00 PM 12.92 55.256 0.19 7.22 6.45 10.63
4/13/2021 3:15:00 PM 13.1 55.58 0.19 7.23 6.38 10.67
4/13/2021 3:30:00 PM 13.2 55.76 0.19 7.23 6.29 10.66
4/13/2021 3:45:00 PM 13.26 55.868 0.19 7.23 6 10.63
4/13/2021 4:00:00 PM 13.38 56.084 0.19 7.23 6.48 10.64
4/13/2021 4:15:00 PM 13.45 56.21 0.19 7.23 6.27 10.64
4/13/2021 4:30:00 PM 13.52 56.336 0.19 7.23 6.29 10.63
4/13/2021 4:45:00 PM 13.6 56.48 0.191 7.24 6.36 10.63
4/13/2021 5:00:00 PM 13.62 56.516 0.19 7.23 6.2 10.61
4/13/2021 5:15:00 PM 13.58 56.444 0.19 7.23 6.11 10.57
4/13/2021 5:30:00 PM 13.48 56.264 0.19 7.22 6.15 10.5
4/13/2021 5:45:00 PM 13.41 56.138 0.191 7.2 6.24 10.45
4/13/2021 6:00:00 PM 13.32 55.976 0.191 7.19 6.21 10.44
4/13/2021 6:15:00 PM 13.21 55.778 0.19 7.18 6.25 10.38
4/13/2021 6:30:00 PM 13.09 55.562 0.191 7.17 6.08 10.33
4/13/2021 6:45:00 PM 12.96 55.328 0.191 7.15 6.03 10.27
4/13/2021 7:00:00 PM 12.84 55.112 0.191 7.14 6.16 10.2
4/13/2021 7:15:00 PM 12.74 54.932 0.191 7.13 6.08 10.16
4/13/2021 7:30:00 PM 12.64 54.752 0.191 7.11 6.23 10.09
4/13/2021 7:45:00 PM 12.55 54.59 0.191 7.1 6.22 10.02
4/13/2021 8:00:00 PM 12.47 54.446 0.192 7.09 6.78 9.95
4/13/2021 8:15:00 PM 12.38 54.284 0.191 7.07 6.35 9.89
4/13/2021 8:30:00 PM 12.3 54.14 0.192 7.06 6.49 9.84
4/13/2021 8:45:00 PM 12.24 54.032 0.192 7.06 6.54 9.8
4/13/2021 9:00:00 PM 12.18 53.924 0.192 7.05 6.53 9.77
4/13/2021 9:15:00 PM 12.13 53.834 0.192 7.05 6.7 9.75
4/13/2021 9:30:00 PM 12.08 53.744 0.192 7.05 6.38 9.73
4/13/2021 9:45:00 PM 12.03 53.654 0.192 7.04 6.7 9.72
4/13/2021 10:00:00 PM 11.99 53.582 0.192 7.05 6.62 9.7
4/13/2021 10:15:00 PM 11.96 53.528 0.192 7.04 6.7 9.69
4/13/2021 10:30:00 PM 11.93 53.474 0.192 7.05 6.66 9.68
4/13/2021 10:45:00 PM 11.91 53.438 0.192 7.05 6.68 9.67
4/13/2021 11:00:00 PM 11.88 53.384 0.192 7.05 6.71 9.65
4/13/2021 11:15:00 PM 11.86 53.348 0.192 7.05 6.66 9.64
4/13/2021 11:30:00 PM 11.86 53.348 0.192 7.05 6.71 9.62
4/13/2021 11:45:00 PM 11.85 53.33 0.192 7.04 6.7 9.6
4/14/2021 12:00:00 AM 11.84 53.312 0.193 7.04 7.02 9.58
4/14/2021 12:15:00 AM 11.81 53.258 0.193 7.04 6.69 9.58
4/14/2021 12:30:00 AM 11.78 53.204 0.193 7.04 6.65 9.57
4/14/2021 12:45:00 AM 11.76 53.168 0.193 7.04 6.61 9.57
4/14/2021 1:00:00 AM 11.73 53.114 0.193 7.04 7.07 9.56
4/14/2021 1:15:00 AM 11.7 53.06 0.193 7.04 6.77 9.56
4/14/2021 1:30:00 AM 11.67 53.006 0.193 7.04 6.64 9.56
4/14/2021 1:45:00 AM 11.64 52.952 0.193 7.03 7.19 9.56
4/14/2021 2:00:00 AM 11.6 52.88 0.193 7.03 7.01 9.55
4/14/2021 2:15:00 AM 11.58 52.844 0.194 7.03 7.36 9.55
4/14/2021 2:30:00 AM 11.56 52.808 0.193 7.03 7.07 9.54
4/14/2021 2:45:00 AM 11.54 52.772 0.193 7.03 6.96 9.55
4/14/2021 3:00:00 AM 11.51 52.718 0.193 7.03 6.66 9.55
4/14/2021 3:15:00 AM 11.48 52.664 0.194 7.03 7 9.55
4/14/2021 3:30:00 AM 11.44 52.592 0.194 7.03 6.67 9.55
4/14/2021 3:45:00 AM 11.41 52.538 0.194 7.03 7.74 9.55
4/14/2021 4:00:00 AM 11.38 52.484 0.194 7.03 7.01 9.55
4/14/2021 4:15:00 AM 11.34 52.412 0.194 7.02 6.98 9.55
4/14/2021 4:30:00 AM 11.3 52.34 0.194 7.02 6.81 9.56
4/14/2021 4:45:00 AM 11.26 52.268 0.195 7.02 6.94 9.56
4/14/2021 5:00:00 AM 11.22 52.196 0.195 7.02 6.74 9.56
4/14/2021 5:15:00 AM 11.17 52.106 0.195 7.02 6.78 9.58
4/14/2021 5:30:00 AM 11.11 51.998 0.195 7.02 6.97 9.58
4/14/2021 5:45:00 AM 11.06 51.908 0.195 7.01 6.57 9.59
4/14/2021 6:00:00 AM 11.02 51.836 0.195 7.02 6.87 9.6
4/14/2021 6:15:00 AM 10.98 51.764 0.195 7.02 6.73 9.6
4/14/2021 6:30:00 AM 10.95 51.71 0.195 7.02 6.93 9.61
4/14/2021 6:45:00 AM 10.92 51.656 0.195 7.02 6.43 9.62
4/14/2021 7:00:00 AM 10.9 51.62 0.195 7.02 6.59 9.64
4/14/2021 7:15:00 AM 10.87 51.566 0.195 7.02 6.36 9.68
4/14/2021 7:30:00 AM 10.86 51.548 0.195 7.03 6.36 9.74
4/14/2021 7:45:00 AM 10.86 51.548 0.195 7.04 6.34 9.81
4/14/2021 8:00:00 AM 10.86 51.548 0.196 7.06 6.69 9.87
4/14/2021 8:15:00 AM 10.87 51.566 0.195 7.06 6.17 9.93
4/14/2021 8:30:00 AM 10.91 51.638 0.195 7.08 6.28 10.03
4/14/2021 8:45:00 AM 10.93 51.674 0.196 7.08 6.11 10.07
4/14/2021 9:00:00 AM 10.96 51.728 0.195 7.09 5.87 10.12
4/14/2021 9:15:00 AM 10.98 51.764 0.195 7.1 5.85 10.16
4/14/2021 9:30:00 AM 11 51.8 0.196 7.1 5.97 10.19
4/14/2021 9:45:00 AM 11.02 51.836 0.196 7.11 5.97 10.23
4/14/2021 10:00:00 AM 11.06 51.908 0.195 7.12 5.85 10.28
4/14/2021 10:15:00 AM 11.12 52.016 0.196 7.12 5.67 10.35
4/14/2021 10:30:00 AM 11.16 52.088 0.195 7.13 5.87 10.38
4/14/2021 10:45:00 AM 11.24 52.232 0.196 7.14 5.95 10.43
4/14/2021 11:00:00 AM 11.41 52.538 0.196 7.15 5.82 10.51
4/14/2021 11:15:00 AM 11.52 52.736 0.196 7.16 5.88 10.55
4/14/2021 11:30:00 AM 11.61 52.898 0.196 7.17 5.73 10.57
4/14/2021 11:45:00 AM 11.73 53.114 0.196 7.18 6.03 10.62
4/14/2021 12:00:00 PM 11.82 53.276 0.195 7.19 5.87 10.64
4/14/2021 12:15:00 PM 11.93 53.474 0.195 7.2 5.7 10.67
4/14/2021 12:30:00 PM 12.03 53.654 0.196 7.2 6.23 10.69
4/14/2021 12:45:00 PM 12.26 54.068 0.196 7.22 6.17 10.73
4/14/2021 1:00:00 PM 12.4 54.32 0.196 7.22 5.76 10.74
4/14/2021 1:15:00 PM 12.55 54.59 0.196 7.23 5.81 10.75
4/14/2021 1:30:00 PM 12.75 54.95 0.196 7.23 6.04 10.74
4/14/2021 1:45:00 PM 12.86 55.148 0.196 7.23 5.83 10.75
4/14/2021 2:00:00 PM 12.95 55.31 0.196 7.24 5.77 10.74
4/14/2021 2:15:00 PM 13.1 55.58 0.196 7.24 5.67 10.76
4/14/2021 2:30:00 PM 13.24 55.832 0.196 7.25 5.66 10.76
4/14/2021 2:45:00 PM 13.3 55.94 0.196 7.25 5.63 10.77
4/14/2021 3:00:00 PM 13.34 56.012 0.196 7.26 5.81 10.77
4/14/2021 3:15:00 PM 13.34 56.012 0.196 7.26 5.61 10.77
4/14/2021 3:30:00 PM 13.33 55.994 0.196 7.26 5.68 10.77
4/14/2021 3:45:00 PM 13.32 55.976 0.196 7.26 5.89 10.77
4/14/2021 4:00:00 PM 13.3 55.94 0.196 7.26 5.8 10.75
4/14/2021 4:15:00 PM 13.23 55.814 0.196 7.25 5.63 10.71
4/14/2021 4:30:00 PM 13.23 55.814 0.196 7.24 5.56 10.7
4/14/2021 4:45:00 PM 13.24 55.832 0.197 7.24 5.69 10.69
4/14/2021 5:00:00 PM 13.26 55.868 0.196 7.25 6.01 10.68
4/14/2021 5:15:00 PM 13.3 55.94 0.196 7.24 5.73 10.67
4/14/2021 5:30:00 PM 13.21 55.778 0.196 7.23 5.58 10.6
4/14/2021 5:45:00 PM 13.13 55.634 0.197 7.22 5.76 10.54
4/14/2021 6:00:00 PM 13.08 55.544 0.196 7.21 5.87 10.53
4/14/2021 6:15:00 PM 13.01 55.418 0.196 7.21 5.75 10.5
4/14/2021 6:30:00 PM 12.94 55.292 0.196 7.2 5.74 10.44
4/14/2021 6:45:00 PM 12.88 55.184 0.196 7.19 5.81 10.39
4/14/2021 7:00:00 PM 12.81 55.058 0.196 7.18 5.92 10.31
4/14/2021 7:15:00 PM 12.73 54.914 0.196 7.16 5.76 10.22
4/14/2021 7:30:00 PM 12.64 54.752 0.197 7.14 5.85 10.13
4/14/2021 7:45:00 PM 12.55 54.59 0.197 7.12 5.73 10.04
4/14/2021 8:00:00 PM 12.47 54.446 0.197 7.1 5.87 9.96
4/14/2021 8:15:00 PM 12.4 54.32 0.197 7.1 5.85 9.89
4/14/2021 8:30:00 PM 12.33 54.194 0.197 7.08 6.01 9.84
4/14/2021 8:45:00 PM 12.25 54.05 0.197 7.08 6 9.8
4/14/2021 9:00:00 PM 12.17 53.906 0.197 7.07 5.9 9.76
4/14/2021 9:15:00 PM 12.09 53.762 0.197 7.07 6.19 9.74
4/14/2021 9:30:00 PM 12.02 53.636 0.197 7.06 6.21 9.72
4/14/2021 9:45:00 PM 11.96 53.528 0.197 7.06 6.34 9.71
4/14/2021 10:00:00 PM 11.89 53.402 0.197 7.06 6 9.7
4/14/2021 10:15:00 PM 11.84 53.312 0.197 7.06 6.65 9.68
4/14/2021 10:30:00 PM 11.79 53.222 0.197 7.06 6.32 9.67
4/14/2021 10:45:00 PM 11.74 53.132 0.197 7.06 6.43 9.67
4/14/2021 11:00:00 PM 11.69 53.042 0.197 7.06 6.59 9.65
4/14/2021 11:15:00 PM 11.63 52.934 0.197 7.05 6.33 9.65
4/14/2021 11:30:00 PM 11.59 52.862 0.197 7.05 6.23 9.64
4/14/2021 11:45:00 PM 11.54 52.772 0.197 7.05 6.43 9.63
4/15/2021 12:00:00 AM 11.5 52.7 0.197 7.05 6.64 9.61
4/15/2021 12:15:00 AM 11.45 52.61 0.197 7.05 6.34 9.61
4/15/2021 12:30:00 AM 11.41 52.538 0.197 7.05 6.56 9.61
4/15/2021 12:45:00 AM 11.37 52.466 0.197 7.05 6.28 9.6
4/15/2021 1:00:00 AM 11.33 52.394 0.197 7.06 6.3 9.6
4/15/2021 1:15:00 AM 11.3 52.34 0.197 7.05 6.31 9.59
4/15/2021 1:30:00 AM 11.27 52.286 0.198 7.06 6.36 9.59
4/15/2021 1:45:00 AM 11.26 52.268 0.197 7.06 6.43 9.59
4/15/2021 2:00:00 AM 11.23 52.214 0.198 7.06 6.4 9.59
4/15/2021 2:15:00 AM 11.2 52.16 0.197 7.06 6.97 9.58
4/15/2021 2:30:00 AM 11.17 52.106 0.197 7.06 6.83 9.58
4/15/2021 2:45:00 AM 11.14 52.052 0.198 7.06 6.57 9.58
4/15/2021 3:00:00 AM 11.12 52.016 0.198 7.06 6.54 9.58
4/15/2021 3:15:00 AM 11.11 51.998 0.198 7.06 6.62 9.57
4/15/2021 3:30:00 AM 11.08 51.944 0.198 7.05 6.34 9.57
4/15/2021 3:45:00 AM 11.04 51.872 0.198 7.06 6.4 9.57
4/15/2021 4:00:00 AM 11.01 51.818 0.198 7.06 6.53 9.57
4/15/2021 4:15:00 AM 10.98 51.764 0.198 7.06 6.42 9.57
4/15/2021 4:30:00 AM 10.95 51.71 0.198 7.05 6.46 9.57
4/15/2021 4:45:00 AM 10.92 51.656 0.199 7.06 6.61 9.57
4/15/2021 5:00:00 AM 10.9 51.62 0.198 7.06 6.53 9.57
4/15/2021 5:15:00 AM 10.87 51.566 0.198 7.06 6.3 9.58
4/15/2021 5:30:00 AM 10.83 51.494 0.198 7.06 6.52 9.58
4/15/2021 5:45:00 AM 10.79 51.422 0.199 7.05 6.37 9.59
4/15/2021 6:00:00 AM 10.75 51.35 0.199 7.06 6.42 9.59
4/15/2021 6:15:00 AM 10.71 51.278 0.199 7.06 6.48 9.6
4/15/2021 6:30:00 AM 10.66 51.188 0.199 7.06 6.5 9.6
4/15/2021 6:45:00 AM 10.63 51.134 0.199 7.06 7.01 9.61
4/15/2021 7:00:00 AM 10.6 51.08 0.199 7.06 6.82 9.63
4/15/2021 7:15:00 AM 10.56 51.008 0.199 7.06 6.59 9.65
4/15/2021 7:30:00 AM 10.54 50.972 0.199 7.07 6.53 9.7
4/15/2021 7:45:00 AM 10.52 50.936 0.199 7.07 6.35 9.74
4/15/2021 8:00:00 AM 10.49 50.882 0.2 7.08 6.17 9.78
4/15/2021 8:15:00 AM 10.47 50.846 0.2 7.08 6.17 9.81
4/15/2021 8:30:00 AM 10.46 50.828 0.2 7.09 5.82 9.91
4/15/2021 8:45:00 AM 10.43 50.774 0.2 7.1 5.96 9.97
4/15/2021 9:00:00 AM 10.37 50.666 0.2 7.1 5.97 9.96
4/15/2021 9:15:00 AM 10.34 50.612 0.2 7.11 5.74 10
4/15/2021 9:30:00 AM 10.31 50.558 0.2 7.11 5.92 10.06
4/15/2021 9:45:00 AM 10.3 50.54 0.2 7.12 5.65 10.15
4/15/2021 10:00:00 AM 10.32 50.576 0.2 7.14 5.86 10.25
4/15/2021 10:15:00 AM 10.35 50.63 0.2 7.15 5.55 10.33
4/15/2021 10:30:00 AM 10.39 50.702 0.2 7.16 5.74 10.38
4/15/2021 10:45:00 AM 10.39 50.702 0.2 7.16 5.72 10.42
4/15/2021 11:00:00 AM 10.38 50.684 0.2 7.17 5.56 10.45
4/15/2021 11:15:00 AM 10.41 50.738 0.2 7.18 5.52 10.51
4/15/2021 11:30:00 AM 10.42 50.756 0.2 7.19 5.64 10.55
4/15/2021 11:45:00 AM 10.48 50.864 0.2 7.2 5.56 10.6
4/15/2021 12:00:00 PM 10.56 51.008 0.2 7.21 5.63 10.65
4/15/2021 12:15:00 PM 10.67 51.206 0.2 7.22 5.49 10.71
4/15/2021 12:30:00 PM 10.68 51.224 0.2 7.22 5.39 10.71
4/15/2021 12:45:00 PM 10.73 51.314 0.2 7.23 5.68 10.74
4/15/2021 1:00:00 PM 10.75 51.35 0.2 7.24 5.62 10.77
4/15/2021 1:15:00 PM 10.67 51.206 0.2 7.23 5.43 10.68
4/15/2021 1:30:00 PM 10.59 51.062 0.201 7.23 5.5 10.63
4/15/2021 1:45:00 PM 10.49 50.882 0.2 7.21 5.72 10.55
4/15/2021 2:00:00 PM 10.39 50.702 0.2 7.2 5.9 10.51
4/15/2021 2:15:00 PM 10.3 50.54 0.201 7.19 5.74 10.47
4/15/2021 2:30:00 PM 10.22 50.396 0.2 7.18 5.68 10.45
4/15/2021 2:45:00 PM 10.15 50.27 0.201 7.18 5.54 10.47
4/15/2021 3:00:00 PM 10.09 50.162 0.201 7.18 5.49 10.48
4/15/2021 3:15:00 PM 10.04 50.072 0.201 7.18 5.55 10.53
4/15/2021 3:30:00 PM 10.06 50.108 0.2 7.19 5.58 10.64
4/15/2021 3:45:00 PM 10.07 50.126 0.201 7.2 5.56 10.71
4/15/2021 4:00:00 PM 10.04 50.072 0.2 7.21 5.4 10.7
4/15/2021 4:15:00 PM 10.2 50.36 0.2 7.23 5.43 10.8
4/15/2021 4:30:00 PM 10.23 50.414 0.2 7.24 5.48 10.85
4/15/2021 4:45:00 PM 10.25 50.45 0.201 7.24 5.44 10.84
4/15/2021 5:00:00 PM 10.21 50.378 0.2 7.24 5.88 10.78
4/15/2021 5:15:00 PM 10.29 50.522 0.2 7.25 5.35 10.84
4/15/2021 5:30:00 PM 10.27 50.486 0.2 7.25 5.69 10.86
4/15/2021 5:45:00 PM 10.28 50.504 0.2 7.25 5.4 10.86
4/15/2021 6:00:00 PM 10.25 50.45 0.2 7.25 5.47 10.84
4/15/2021 6:15:00 PM 10.17 50.306 0.2 7.24 5.37 10.79
4/15/2021 6:30:00 PM 10.05 50.09 0.2 7.23 5.44 10.7
4/15/2021 6:45:00 PM 9.96 49.928 0.201 7.21 5.18 10.64
4/15/2021 7:00:00 PM 9.84 49.712 0.201 7.2 5.48 10.57
4/15/2021 7:15:00 PM 9.72 49.496 0.201 7.19 5.51 10.51
4/15/2021 7:30:00 PM 9.63 49.334 0.2 7.18 5.4 10.47
4/15/2021 7:45:00 PM 9.57 49.226 0.2 7.17 5.39 10.43
4/15/2021 8:00:00 PM 9.51 49.118 0.2 7.16 5.5 10.39
4/15/2021 8:15:00 PM 9.46 49.028 0.201 7.15 5.62 10.36
4/15/2021 8:30:00 PM 9.41 48.938 0.2 7.14 5.59 10.32
4/15/2021 8:45:00 PM 9.36 48.848 0.201 7.13 5.56 10.3
4/15/2021 9:00:00 PM 9.32 48.776 0.2 7.13 5.76 10.28
4/15/2021 9:15:00 PM 9.27 48.686 0.201 7.13 5.71 10.27
4/15/2021 9:30:00 PM 9.21 48.578 0.2 7.12 5.55 10.27
4/15/2021 9:45:00 PM 9.14 48.452 0.2 7.12 5.52 10.26
4/15/2021 10:00:00 PM 9.06 48.308 0.2 7.12 5.81 10.27
4/15/2021 10:15:00 PM 9.03 48.254 0.201 7.12 6.05 10.26
4/15/2021 10:30:00 PM 8.99 48.182 0.201 7.12 5.91 10.26
4/15/2021 10:45:00 PM 8.95 48.11 0.201 7.12 6.04 10.26
4/15/2021 11:00:00 PM 8.9 48.02 0.201 7.11 5.71 10.25
4/15/2021 11:15:00 PM 8.87 47.966 0.201 7.11 5.92 10.25
4/15/2021 11:30:00 PM 8.83 47.894 0.2 7.11 5.91 10.24
4/15/2021 11:45:00 PM 8.79 47.822 0.2 7.1 5.84 10.24
4/16/2021 12:00:00 AM 8.75 47.75 0.2 7.1 6.08 10.25
4/16/2021 12:15:00 AM 8.72 47.696 0.201 7.11 5.91 10.25
4/16/2021 12:30:00 AM 8.69 47.642 0.201 7.11 5.65 10.25
4/16/2021 12:45:00 AM 8.64 47.552 0.201 7.11 5.59 10.25
4/16/2021 1:00:00 AM 8.61 47.498 0.201 7.11 5.8 10.26
4/16/2021 1:15:00 AM 8.57 47.426 0.201 7.11 5.7 10.27
4/16/2021 1:30:00 AM 8.52 47.336 0.201 7.11 5.81 10.27
4/16/2021 1:45:00 AM 8.48 47.264 0.201 7.11 5.58 10.27
4/16/2021 2:00:00 AM 8.44 47.192 0.201 7.11 5.97 10.28
4/16/2021 2:15:00 AM 8.4 47.12 0.202 7.11 5.69 10.28
4/16/2021 2:30:00 AM 8.36 47.048 0.201 7.11 5.77 10.28
4/16/2021 2:45:00 AM 8.31 46.958 0.201 7.11 5.72 10.29
4/16/2021 3:00:00 AM 8.27 46.886 0.201 7.11 5.7 10.3
4/16/2021 3:15:00 AM 8.22 46.796 0.201 7.11 5.59 10.31
4/16/2021 3:30:00 AM 8.14 46.652 0.201 7.11 5.66 10.31
4/16/2021 3:45:00 AM 8.09 46.562 0.201 7.11 5.66 10.32
4/16/2021 4:00:00 AM 8.05 46.49 0.201 7.11 5.93 10.33
4/16/2021 4:15:00 AM 8 46.4 0.202 7.11 5.89 10.34
4/16/2021 4:30:00 AM 7.98 46.364 0.202 7.11 5.88 10.34
4/16/2021 4:45:00 AM 7.95 46.31 0.202 7.11 5.93 10.35
4/16/2021 5:00:00 AM 7.93 46.274 0.202 7.1 5.83 10.35
4/16/2021 5:15:00 AM 7.91 46.238 0.202 7.1 5.95 10.36
4/16/2021 5:30:00 AM 7.88 46.184 0.202 7.11 5.73 10.37
4/16/2021 5:45:00 AM 7.86 46.148 0.202 7.11 5.67 10.38
4/16/2021 6:00:00 AM 7.83 46.094 0.202 7.11 5.66 10.38
4/16/2021 6:15:00 AM 7.8 46.04 0.202 7.11 5.89 10.39
4/16/2021 6:30:00 AM 7.77 45.986 0.202 7.11 5.84 10.4
4/16/2021 6:45:00 AM 7.75 45.95 0.202 7.11 5.61 10.41
4/16/2021 7:00:00 AM 7.72 45.896 0.202 7.11 5.49 10.43
4/16/2021 7:15:00 AM 7.7 45.86 0.202 7.11 5.54 10.45
4/16/2021 7:30:00 AM 7.68 45.824 0.202 7.12 5.67 10.48
4/16/2021 7:45:00 AM 7.68 45.824 0.202 7.12 5.77 10.52
4/16/2021 8:00:00 AM 7.66 45.788 0.203 7.13 5.79 10.56
4/16/2021 8:15:00 AM 7.65 45.77 0.202 7.13 5.69 10.61
4/16/2021 8:30:00 AM 7.65 45.77 0.202 7.13 5.46 10.65
4/16/2021 8:45:00 AM 7.65 45.77 0.202 7.13 5.57 10.7
4/16/2021 9:00:00 AM 7.65 45.77 0.202 7.14 5.43 10.77
4/16/2021 9:15:00 AM 7.65 45.77 0.202 7.14 5.35 10.79
4/16/2021 9:30:00 AM 7.64 45.752 0.202 7.15 5.39 10.83
4/16/2021 9:45:00 AM 7.64 45.752 0.202 7.16 5.29 10.87
4/16/2021 10:00:00 AM 7.64 45.752 0.202 7.16 5.28 10.94
4/16/2021 10:15:00 AM 7.66 45.788 0.201 7.17 5.19 11.01
4/16/2021 10:30:00 AM 7.72 45.896 0.201 7.19 5.17 11.09
4/16/2021 10:45:00 AM 7.77 45.986 0.205 7.2 5.22 11.14
4/16/2021 11:00:00 AM 7.86 46.148 0.203 7.21 5.24 11.21
4/16/2021 11:15:00 AM 7.92 46.256 0.203 7.22 5.49 11.24
4/16/2021 11:30:00 AM 7.95 46.31 0.203 7.22 5.79 11.26
4/16/2021 11:45:00 AM 8.1 46.58 0.201 7.23 5.52 11.31
4/16/2021 12:00:00 PM 8.25 46.85 0.201 7.24 5.32 11.34
4/16/2021 12:15:00 PM 8.43 47.174 0.2 7.25 5.4 11.37
4/16/2021 12:30:00 PM 8.69 47.642 0.2 7.26 5.44 11.39
4/16/2021 12:45:00 PM 8.72 47.696 0.2 7.26 5.01 11.39
4/16/2021 1:00:00 PM 8.77 47.786 0.199 7.27 5.19 11.39
4/16/2021 1:15:00 PM 8.84 47.912 0.199 7.27 5.1 11.4
4/16/2021 1:30:00 PM 8.94 48.092 0.199 7.28 5.16 11.41
4/16/2021 1:45:00 PM 8.93 48.074 0.199 7.28 5.06 11.42
4/16/2021 2:00:00 PM 9.11 48.398 0.198 7.29 5.07 11.45
4/16/2021 2:15:00 PM 9.29 48.722 0.198 7.3 5.09 11.45
4/16/2021 2:30:00 PM 9.32 48.776 0.198 7.3 5.12 11.46
4/16/2021 2:45:00 PM 9.36 48.848 0.198 7.3 5.09 11.46
4/16/2021 3:00:00 PM 9.42 48.956 0.198 7.31 5.13 11.46
4/16/2021 3:15:00 PM 9.45 49.01 0.198 7.31 5.43 11.45
4/16/2021 3:30:00 PM 9.4 48.92 0.198 7.31 5.14 11.43
4/16/2021 3:45:00 PM 9.48 49.064 0.198 7.32 5.14 11.45
4/16/2021 4:00:00 PM 9.34 48.812 0.198 7.31 5.09 11.41
4/16/2021 4:15:00 PM 9.3 48.74 0.198 7.3 5.07 11.43
4/16/2021 4:30:00 PM 9.32 48.776 0.198 7.31 5.05 11.44
4/16/2021 4:45:00 PM 9.28 48.704 0.198 7.3 5.03 11.43
4/16/2021 5:00:00 PM 9.29 48.722 0.198 7.31 5.04 11.44
4/16/2021 5:15:00 PM 9.28 48.704 0.198 7.31 4.98 11.45
4/16/2021 5:30:00 PM 9.19 48.542 0.198 7.3 4.98 11.41
4/16/2021 5:45:00 PM 9.08 48.344 0.198 7.29 5.16 11.34
4/16/2021 6:00:00 PM 8.98 48.164 0.198 7.28 4.99 11.29
4/16/2021 6:15:00 PM 8.86 47.948 0.198 7.27 4.96 11.23
4/16/2021 6:30:00 PM 8.77 47.786 0.198 7.25 4.93 11.17
4/16/2021 6:45:00 PM 8.7 47.66 0.198 7.24 5.11 11.11
4/16/2021 7:00:00 PM 8.63 47.534 0.198 7.23 4.98 11.06
4/16/2021 7:15:00 PM 8.56 47.408 0.198 7.22 5.1 11.01
4/16/2021 7:30:00 PM 8.5 47.3 0.198 7.21 5.49 10.97
4/16/2021 7:45:00 PM 8.44 47.192 0.198 7.2 5.12 10.92
4/16/2021 8:00:00 PM 8.39 47.102 0.198 7.19 5.27 10.88
4/16/2021 8:15:00 PM 8.33 46.994 0.198 7.19 5.13 10.84
4/16/2021 8:30:00 PM 8.3 46.94 0.199 7.18 5.22 10.81
4/16/2021 8:45:00 PM 8.26 46.868 0.198 7.18 5.34 10.79
4/16/2021 9:00:00 PM 8.23 46.814 0.198 7.17 5.43 10.77
4/16/2021 9:15:00 PM 8.19 46.742 0.198 7.17 5.38 10.76
4/16/2021 9:30:00 PM 8.16 46.688 0.198 7.17 5.34 10.75
4/16/2021 9:45:00 PM 8.14 46.652 0.198 7.17 5.4 10.73
4/16/2021 10:00:00 PM 8.11 46.598 0.198 7.17 5.5 10.72
4/16/2021 10:15:00 PM 8.07 46.526 0.198 7.16 5.31 10.71
4/16/2021 10:30:00 PM 8.04 46.472 0.198 7.16 5.34 10.71
4/16/2021 10:45:00 PM 8.01 46.418 0.198 7.16 5.4 10.69
4/16/2021 11:00:00 PM 7.98 46.364 0.198 7.16 5.42 10.69
4/16/2021 11:15:00 PM 7.96 46.328 0.198 7.16 5.57 10.68
4/16/2021 11:30:00 PM 7.93 46.274 0.198 7.15 5.47 10.67
4/16/2021 11:45:00 PM 7.91 46.238 0.198 7.15 5.54 10.66
4/17/2021 12:00:00 AM 7.88 46.184 0.198 7.15 5.61 10.65
4/17/2021 12:15:00 AM 7.86 46.148 0.198 7.15 5.59 10.64
4/17/2021 12:30:00 AM 7.84 46.112 0.199 7.15 5.41 10.64
4/17/2021 12:45:00 AM 7.82 46.076 0.199 7.15 5.41 10.64
4/17/2021 1:00:00 AM 7.8 46.04 0.199 7.15 5.37 10.63
4/17/2021 1:15:00 AM 7.79 46.022 0.199 7.15 5.35 10.62
4/17/2021 1:30:00 AM 7.77 45.986 0.199 7.14 5.3 10.62
4/17/2021 1:45:00 AM 7.75 45.95 0.199 7.14 5.65 10.62
4/17/2021 2:00:00 AM 7.73 45.914 0.199 7.14 5.61 10.62
4/17/2021 2:15:00 AM 7.71 45.878 0.199 7.14 5.29 10.62
4/17/2021 2:30:00 AM 7.7 45.86 0.199 7.14 5.53 10.61
4/17/2021 2:45:00 AM 7.68 45.824 0.199 7.14 5.44 10.6
4/17/2021 3:00:00 AM 7.66 45.788 0.199 7.14 5.45 10.6
4/17/2021 3:15:00 AM 7.64 45.752 0.199 7.14 5.39 10.6
4/17/2021 3:30:00 AM 7.63 45.734 0.199 7.14 5.56 10.59
4/17/2021 3:45:00 AM 7.61 45.698 0.199 7.14 5.52 10.59
4/17/2021 4:00:00 AM 7.58 45.644 0.2 7.14 5.69 10.59
4/17/2021 4:15:00 AM 7.56 45.608 0.2 7.14 5.77 10.59
4/17/2021 4:30:00 AM 7.55 45.59 0.2 7.14 5.53 10.59
4/17/2021 4:45:00 AM 7.53 45.554 0.2 7.13 5.84 10.59
4/17/2021 5:00:00 AM 7.5 45.5 0.2 7.13 5.57 10.6
4/17/2021 5:15:00 AM 7.49 45.482 0.2 7.14 5.71 10.59
4/17/2021 5:30:00 AM 7.46 45.428 0.2 7.13 5.73 10.6
4/17/2021 5:45:00 AM 7.44 45.392 0.2 7.13 5.63 10.6
4/17/2021 6:00:00 AM 7.43 45.374 0.2 7.13 5.5 10.61
4/17/2021 6:15:00 AM 7.4 45.32 0.201 7.13 5.44 10.6
4/17/2021 6:30:00 AM 7.38 45.284 0.201 7.13 5.49 10.61
4/17/2021 6:45:00 AM 7.36 45.248 0.201 7.13 5.49 10.62
4/17/2021 7:00:00 AM 7.35 45.23 0.201 7.13 5.28 10.63
4/17/2021 7:15:00 AM 7.33 45.194 0.201 7.13 5.31 10.64
4/17/2021 7:30:00 AM 7.31 45.158 0.201 7.13 5.37 10.66
4/17/2021 7:45:00 AM 7.3 45.14 0.201 7.13 5.1 10.67
4/17/2021 8:00:00 AM 7.29 45.122 0.201 7.13 5.18 10.71
4/17/2021 8:15:00 AM 7.28 45.104 0.202 7.14 5.05 10.74
4/17/2021 8:30:00 AM 7.28 45.104 0.201 7.14 5 10.78
4/17/2021 8:45:00 AM 7.29 45.122 0.202 7.15 5.01 10.83
4/17/2021 9:00:00 AM 7.32 45.176 0.201 7.15 5.08 10.91
4/17/2021 9:15:00 AM 7.42 45.356 0.201 7.17 5.17 11.03
4/17/2021 9:30:00 AM 7.46 45.428 0.201 7.18 4.98 11.1
4/17/2021 9:45:00 AM 7.51 45.518 0.201 7.19 4.97 11.16
4/17/2021 10:00:00 AM 7.56 45.608 0.202 7.2 5.42 11.21
4/17/2021 10:15:00 AM 7.58 45.644 0.202 7.21 5.32 11.24
4/17/2021 10:30:00 AM 7.6 45.68 0.201 7.21 5.2 11.26
4/17/2021 10:45:00 AM 7.6 45.68 0.202 7.21 4.92 11.27
4/17/2021 11:00:00 AM 7.59 45.662 0.202 7.21 4.94 11.27
4/17/2021 11:15:00 AM 7.6 45.68 0.202 7.22 4.95 11.3
4/17/2021 11:30:00 AM 7.61 45.698 0.202 7.22 4.84 11.32
4/17/2021 11:45:00 AM 7.62 45.716 0.202 7.22 4.96 11.34
4/17/2021 12:00:00 PM 7.62 45.716 0.202 7.22 4.83 11.35
4/17/2021 12:15:00 PM 7.65 45.77 0.202 7.23 4.81 11.38
4/17/2021 12:30:00 PM 7.68 45.824 0.202 7.23 4.82 11.41
4/17/2021 12:45:00 PM 7.68 45.824 0.202 7.23 4.78 11.4
4/17/2021 1:00:00 PM 7.71 45.878 0.202 7.22 4.78 11.43
4/17/2021 1:15:00 PM 7.7 45.86 0.202 7.23 4.84 11.43
4/17/2021 1:30:00 PM 7.69 45.842 0.202 7.23 4.79 11.42
4/17/2021 1:45:00 PM 7.7 45.86 0.202 7.23 4.81 11.43
4/17/2021 2:00:00 PM 7.72 45.896 0.202 7.23 4.77 11.46
4/17/2021 2:15:00 PM 7.74 45.932 0.202 7.24 4.95 11.49
4/17/2021 2:30:00 PM 7.79 46.022 0.203 7.24 4.91 11.51
4/17/2021 2:45:00 PM 7.81 46.058 0.202 7.25 5.04 11.53
4/17/2021 3:00:00 PM 7.86 46.148 0.202 7.25 4.98 11.56
4/17/2021 3:15:00 PM 7.85 46.13 0.202 7.25 5.11 11.54
4/17/2021 3:30:00 PM 7.84 46.112 0.203 7.24 4.94 11.51
4/17/2021 3:45:00 PM 7.89 46.202 0.203 7.25 5.05 11.54
4/17/2021 4:00:00 PM 7.87 46.166 0.203 7.25 4.92 11.52
4/17/2021 4:15:00 PM 7.88 46.184 0.203 7.24 4.96 11.51
4/17/2021 4:30:00 PM 7.87 46.166 0.203 7.24 4.87 11.49
4/17/2021 4:45:00 PM 7.86 46.148 0.203 7.24 4.75 11.49
4/17/2021 5:00:00 PM 7.83 46.094 0.203 7.24 4.85 11.46
4/17/2021 5:15:00 PM 7.8 46.04 0.203 7.23 4.85 11.42
4/17/2021 5:30:00 PM 7.78 46.004 0.203 7.23 4.86 11.41
4/17/2021 5:45:00 PM 7.76 45.968 0.203 7.23 4.84 11.4
4/17/2021 6:00:00 PM 7.76 45.968 0.204 7.23 4.92 11.39
4/17/2021 6:15:00 PM 7.74 45.932 0.203 7.22 4.72 11.34
4/17/2021 6:30:00 PM 7.71 45.878 0.204 7.22 4.75 11.31
4/17/2021 6:45:00 PM 7.68 45.824 0.204 7.22 4.66 11.28
4/17/2021 7:00:00 PM 7.65 45.77 0.204 7.21 4.75 11.23
4/17/2021 7:15:00 PM 7.63 45.734 0.204 7.21 4.7 11.22
4/17/2021 7:30:00 PM 7.59 45.662 0.204 7.2 4.87 11.21
4/17/2021 7:45:00 PM 7.54 45.572 0.204 7.19 4.89 11.16
4/17/2021 8:00:00 PM 7.5 45.5 0.204 7.18 4.83 11.11
4/17/2021 8:15:00 PM 7.45 45.41 0.204 7.17 4.85 11.06
4/17/2021 8:30:00 PM 7.41 45.338 0.204 7.16 4.78 11.03
4/17/2021 8:45:00 PM 7.36 45.248 0.205 7.16 4.98 11
4/17/2021 9:00:00 PM 7.32 45.176 0.205 7.16 5.12 10.97
4/17/2021 9:15:00 PM 7.28 45.104 0.205 7.16 4.99 10.95
4/17/2021 9:30:00 PM 7.23 45.014 0.205 7.15 5.02 10.94
4/17/2021 9:45:00 PM 7.19 44.942 0.205 7.15 4.99 10.92
4/17/2021 10:00:00 PM 7.15 44.87 0.205 7.15 5.15 10.91
4/17/2021 10:15:00 PM 7.11 44.798 0.205 7.14 4.91 10.92
4/17/2021 10:30:00 PM 7.07 44.726 0.205 7.14 4.92 10.91
4/17/2021 10:45:00 PM 7.03 44.654 0.205 7.14 5 10.91
4/17/2021 11:00:00 PM 6.99 44.582 0.205 7.14 5.06 10.9
4/17/2021 11:15:00 PM 6.95 44.51 0.205 7.14 5.02 10.91
4/17/2021 11:30:00 PM 6.91 44.438 0.205 7.14 5.11 10.91
4/17/2021 11:45:00 PM 6.87 44.366 0.205 7.14 5.07 10.9
4/18/2021 12:00:00 AM 6.85 44.33 0.205 7.14 4.99 10.91
4/18/2021 12:15:00 AM 6.84 44.312 0.205 7.14 5.04 10.9
4/18/2021 12:30:00 AM 6.83 44.294 0.205 7.14 5.06 10.9
4/18/2021 12:45:00 AM 6.82 44.276 0.205 7.14 5.14 10.9
4/18/2021 1:00:00 AM 6.81 44.258 0.205 7.14 5.05 10.89
4/18/2021 1:15:00 AM 6.8 44.24 0.205 7.14 5.29 10.89
4/18/2021 1:30:00 AM 6.79 44.222 0.206 7.14 5.18 10.88
4/18/2021 1:45:00 AM 6.77 44.186 0.206 7.14 5.12 10.88
4/18/2021 2:00:00 AM 6.76 44.168 0.206 7.14 5.21 10.88
4/18/2021 2:15:00 AM 6.74 44.132 0.206 7.14 5.25 10.87
4/18/2021 2:30:00 AM 6.72 44.096 0.206 7.14 5.07 10.87
4/18/2021 2:45:00 AM 6.7 44.06 0.206 7.13 5 10.87
4/18/2021 3:00:00 AM 6.65 43.97 0.206 7.13 5.06 10.87
4/18/2021 3:15:00 AM 6.61 43.898 0.206 7.13 5.12 10.88
4/18/2021 3:30:00 AM 6.56 43.808 0.206 7.13 5.28 10.88
4/18/2021 3:45:00 AM 6.51 43.718 0.206 7.13 5.09 10.88
4/18/2021 4:00:00 AM 6.46 43.628 0.206 7.13 5.09 10.89
4/18/2021 4:15:00 AM 6.42 43.556 0.206 7.13 5.09 10.9
4/18/2021 4:30:00 AM 6.37 43.466 0.207 7.12 5.09 10.9
4/18/2021 4:45:00 AM 6.32 43.376 0.207 7.13 5.01 10.91
4/18/2021 5:00:00 AM 6.28 43.304 0.206 7.13 5.06 10.92
4/18/2021 5:15:00 AM 6.23 43.214 0.207 7.13 5.23 10.93
4/18/2021 5:30:00 AM 6.2 43.16 0.207 7.13 5.08 10.94
4/18/2021 5:45:00 AM 6.16 43.088 0.207 7.13 5.21 10.94
4/18/2021 6:00:00 AM 6.12 43.016 0.207 7.13 5.21 10.96
4/18/2021 6:15:00 AM 6.08 42.944 0.207 7.13 5.02 10.96
4/18/2021 6:30:00 AM 6.05 42.89 0.207 7.13 5.13 10.98
4/18/2021 6:45:00 AM 6.01 42.818 0.207 7.13 5.07 10.99
4/18/2021 7:00:00 AM 5.98 42.764 0.207 7.13 4.9 11.03
4/18/2021 7:15:00 AM 5.97 42.746 0.207 7.14 5 11.08
4/18/2021 7:30:00 AM 5.97 42.746 0.207 7.15 4.97 11.14
4/18/2021 7:45:00 AM 5.98 42.764 0.207 7.16 4.91 11.21
4/18/2021 8:00:00 AM 5.99 42.782 0.207 7.16 5.04 11.28
4/18/2021 8:15:00 AM 6.03 42.854 0.207 7.17 5.1 11.34
4/18/2021 8:30:00 AM 6.1 42.98 0.207 7.18 4.96 11.41
4/18/2021 8:45:00 AM 6.2 43.16 0.207 7.19 4.83 11.47
4/18/2021 9:00:00 AM 6.23 43.214 0.207 7.2 4.8 11.51
4/18/2021 9:15:00 AM 6.31 43.358 0.207 7.21 4.86 11.55
4/18/2021 9:30:00 AM 6.41 43.538 0.207 7.22 4.76 11.59
4/18/2021 9:45:00 AM 6.53 43.754 0.207 7.23 4.93 11.63
4/18/2021 10:00:00 AM 6.68 44.024 0.207 7.23 4.85 11.68
4/18/2021 10:15:00 AM 6.84 44.312 0.207 7.24 4.88 11.71
4/18/2021 10:30:00 AM 7.04 44.672 0.207 7.25 4.87 11.74
4/18/2021 10:45:00 AM 7.24 45.032 0.207 7.26 4.78 11.76
4/18/2021 11:00:00 AM 7.49 45.482 0.207 7.26 4.84 11.76
4/18/2021 11:15:00 AM 7.82 46.076 0.208 7.27 4.83 11.78
4/18/2021 11:30:00 AM 8.13 46.634 0.207 7.28 4.74 11.76
4/18/2021 11:45:00 AM 8.34 47.012 0.207 7.28 4.92 11.74
4/18/2021 12:00:00 PM 8.52 47.336 0.207 7.28 4.81 11.73
4/18/2021 12:15:00 PM 8.79 47.822 0.207 7.28 4.9 11.73
4/18/2021 12:30:00 PM 8.88 47.984 0.208 7.28 4.76 11.71
4/18/2021 12:45:00 PM 9.12 48.416 0.207 7.28 4.81 11.7
4/18/2021 1:00:00 PM 9.38 48.884 0.207 7.28 4.78 11.7
4/18/2021 1:15:00 PM 9.61 49.298 0.207 7.28 5.02 11.67
4/18/2021 1:30:00 PM 9.71 49.478 0.207 7.27 4.85 11.63
4/18/2021 1:45:00 PM 9.72 49.496 0.208 7.27 4.81 11.6
4/18/2021 2:00:00 PM 9.67 49.406 0.208 7.27 4.74 11.58
4/18/2021 2:15:00 PM 9.59 49.262 0.208 7.27 4.84 11.59
4/18/2021 2:30:00 PM 9.45 49.01 0.208 7.26 5.11 11.58
4/18/2021 2:45:00 PM 9.36 48.848 0.208 7.26 5.05 11.6
4/18/2021 3:00:00 PM 9.35 48.83 0.208 7.25 5.08 11.62
4/18/2021 3:15:00 PM 9.29 48.722 0.208 7.25 4.86 11.63
4/18/2021 3:30:00 PM 9.25 48.65 0.208 7.25 6.43 11.63
4/18/2021 3:45:00 PM 9.25 48.65 0.208 7.25 4.91 11.65
4/18/2021 4:00:00 PM 9.4 48.92 0.208 7.26 4.78 11.69
4/18/2021 4:15:00 PM 9.47 49.046 0.208 7.25 4.83 11.68
4/18/2021 4:30:00 PM 9.51 49.118 0.208 7.26 4.83 11.65
4/18/2021 4:45:00 PM 9.61 49.298 0.208 7.26 4.91 11.63
4/18/2021 5:00:00 PM 9.68 49.424 0.209 7.27 4.79 11.61
4/18/2021 5:15:00 PM 9.57 49.226 0.209 7.27 4.98 11.57
4/18/2021 5:30:00 PM 9.49 49.082 0.209 7.26 4.8 11.55
4/18/2021 5:45:00 PM 9.43 48.974 0.209 7.26 4.85 11.53
4/18/2021 6:00:00 PM 9.42 48.956 0.209 7.26 4.76 11.54
4/18/2021 6:15:00 PM 9.34 48.812 0.209 7.26 4.91 11.51
4/18/2021 6:30:00 PM 9.22 48.596 0.209 7.25 4.79 11.44
4/18/2021 6:45:00 PM 9.11 48.398 0.209 7.24 4.81 11.38
4/18/2021 7:00:00 PM 9.01 48.218 0.209 7.23 4.82 11.32
4/18/2021 7:15:00 PM 8.94 48.092 0.209 7.22 5.08 11.26
4/18/2021 7:30:00 PM 8.87 47.966 0.21 7.21 5.01 11.19
4/18/2021 7:45:00 PM 8.8 47.84 0.209 7.2 4.88 11.12
4/18/2021 8:00:00 PM 8.75 47.75 0.21 7.19 4.77 11.04
4/18/2021 8:15:00 PM 8.7 47.66 0.21 7.17 4.93 10.96
4/18/2021 8:30:00 PM 8.65 47.57 0.21 7.16 5.01 10.9
4/18/2021 8:45:00 PM 8.6 47.48 0.21 7.15 5.49 10.85
4/18/2021 9:00:00 PM 8.53 47.354 0.21 7.15 5.17 10.81
4/18/2021 9:15:00 PM 8.46 47.228 0.211 7.14 5.34 10.78
4/18/2021 9:30:00 PM 8.4 47.12 0.211 7.14 5.13 10.76
4/18/2021 9:45:00 PM 8.33 46.994 0.211 7.13 5.3 10.74
4/18/2021 10:00:00 PM 8.26 46.868 0.211 7.13 5.34 10.73
4/18/2021 10:15:00 PM 8.2 46.76 0.211 7.12 5.13 10.72
4/18/2021 10:30:00 PM 8.14 46.652 0.211 7.13 5.2 10.71
4/18/2021 10:45:00 PM 8.1 46.58 0.211 7.13 5.17 10.7
4/18/2021 11:00:00 PM 8.07 46.526 0.211 7.13 5.35 10.7
4/18/2021 11:15:00 PM 8.05 46.49 0.211 7.12 5.15 10.69
4/18/2021 11:30:00 PM 8.04 46.472 0.211 7.13 5.19 10.68
4/18/2021 11:45:00 PM 8.02 46.436 0.211 7.12 5.22 10.66
4/19/2021 12:00:00 AM 8.02 46.436 0.211 7.11 5.11 10.64
4/19/2021 12:15:00 AM 8.01 46.418 0.211 7.12 5.19 10.64
4/19/2021 12:30:00 AM 8.01 46.418 0.211 7.12 5.33 10.63
4/19/2021 12:45:00 AM 8.01 46.418 0.211 7.12 5.02 10.62
4/19/2021 1:00:00 AM 7.99 46.382 0.211 7.12 5.22 10.61
4/19/2021 1:15:00 AM 7.97 46.346 0.211 7.12 5.25 10.6
4/19/2021 1:30:00 AM 7.93 46.274 0.211 7.12 5 10.59
4/19/2021 1:45:00 AM 7.9 46.22 0.211 7.11 5.08 10.58
4/19/2021 2:00:00 AM 7.87 46.166 0.211 7.11 5.23 10.58
4/19/2021 2:15:00 AM 7.83 46.094 0.211 7.11 5.36 10.57
4/19/2021 2:30:00 AM 7.81 46.058 0.212 7.11 5.28 10.57
4/19/2021 2:45:00 AM 7.79 46.022 0.212 7.11 5.15 10.56
4/19/2021 3:00:00 AM 7.79 46.022 0.212 7.11 5.18 10.56
4/19/2021 3:15:00 AM 7.78 46.004 0.212 7.11 5.27 10.56
4/19/2021 3:30:00 AM 7.78 46.004 0.211 7.11 5.28 10.55
4/19/2021 3:45:00 AM 7.78 46.004 0.211 7.11 5.33 10.55
4/19/2021 4:00:00 AM 7.78 46.004 0.212 7.11 5.25 10.54
4/19/2021 4:15:00 AM 7.78 46.004 0.212 7.11 5.22 10.53
4/19/2021 4:30:00 AM 7.77 45.986 0.212 7.11 5.28 10.53
4/19/2021 4:45:00 AM 7.76 45.968 0.212 7.11 5.11 10.52
4/19/2021 5:00:00 AM 7.75 45.95 0.212 7.11 5.18 10.51
4/19/2021 5:15:00 AM 7.73 45.914 0.212 7.11 5.31 10.5
4/19/2021 5:30:00 AM 7.71 45.878 0.212 7.1 5.39 10.5
4/19/2021 5:45:00 AM 7.67 45.806 0.212 7.1 7.12 10.5
4/19/2021 6:00:00 AM 7.63 45.734 0.212 7.1 5.23 10.49
4/19/2021 6:15:00 AM 7.58 45.644 0.212 7.09 5.05 10.5
4/19/2021 6:30:00 AM 7.54 45.572 0.212 7.09 5.08 10.5
4/19/2021 6:45:00 AM 7.49 45.482 0.212 7.1 5.04 10.53
4/19/2021 7:00:00 AM 7.46 45.428 0.212 7.1 5.01 10.56
4/19/2021 7:15:00 AM 7.43 45.374 0.212 7.11 5.25 10.62
4/19/2021 7:30:00 AM 7.42 45.356 0.212 7.11 4.92 10.67
4/19/2021 7:45:00 AM 7.42 45.356 0.212 7.12 5.02 10.75
4/19/2021 8:00:00 AM 7.44 45.392 0.212 7.13 5.01 10.82
4/19/2021 8:15:00 AM 7.47 45.446 0.212 7.14 4.83 10.89
4/19/2021 8:30:00 AM 7.54 45.572 0.212 7.15 4.74 10.97
4/19/2021 8:45:00 AM 7.63 45.734 0.212 7.16 4.81 11.03
4/19/2021 9:00:00 AM 7.75 45.95 0.212 7.18 4.68 11.09
4/19/2021 9:15:00 AM 7.9 46.22 0.212 7.19 4.74 11.14
4/19/2021 9:30:00 AM 8.1 46.58 0.212 7.2 4.94 11.2
4/19/2021 9:45:00 AM 8.16 46.688 0.212 7.2 4.85 11.22
4/19/2021 10:00:00 AM 8.21 46.778 0.212 7.21 4.85 11.23
4/19/2021 10:15:00 AM 8.53 47.354 0.212 7.23 4.83 11.28
4/19/2021 10:30:00 AM 8.61 47.498 0.212 7.22 4.78 11.28
4/19/2021 10:45:00 AM 8.67 47.606 0.212 7.22 4.75 11.27
4/19/2021 11:00:00 AM 9.12 48.416 0.212 7.22 4.7 11.31
4/19/2021 11:15:00 AM 9.42 48.956 0.212 7.23 4.73 11.34
4/19/2021 11:30:00 AM 9.62 49.316 0.212 7.23 4.77 11.34
4/19/2021 11:45:00 AM 9.79 49.622 0.212 7.24 4.79 11.33
4/19/2021 12:00:00 PM 10.15 50.27 0.212 7.25 4.63 11.35
4/19/2021 12:15:00 PM 10.09 50.162 0.212 7.25 5.03 11.29
4/19/2021 12:30:00 PM 10.07 50.126 0.212 7.24 4.76 11.28
4/19/2021 12:45:00 PM 10.38 50.684 0.212 7.26 4.82 11.31
4/19/2021 1:00:00 PM 10.64 51.152 0.212 7.26 4.74 11.33
4/19/2021 1:15:00 PM 10.91 51.638 0.212 7.27 4.76 11.34
4/19/2021 1:30:00 PM 11.13 52.034 0.212 7.28 4.86 11.33
4/19/2021 1:45:00 PM 11.49 52.682 0.213 7.29 4.81 11.34
4/19/2021 2:00:00 PM 11.72 53.096 0.212 7.29 4.85 11.31
4/19/2021 2:15:00 PM 11.7 53.06 0.212 7.27 4.97 11.26
4/19/2021 2:30:00 PM 11.71 53.078 0.212 7.27 4.85 11.23
4/19/2021 2:45:00 PM 12.01 53.618 0.213 7.28 4.84 11.25
4/19/2021 3:00:00 PM 12.12 53.816 0.212 7.28 4.81 11.24
4/19/2021 3:15:00 PM 12.03 53.654 0.212 7.28 4.92 11.2
4/19/2021 3:30:00 PM 11.98 53.564 0.212 7.28 4.95 11.16
4/19/2021 3:45:00 PM 11.88 53.384 0.212 7.27 4.86 11.14
4/19/2021 4:00:00 PM 11.78 53.204 0.213 7.26 4.97 11.12
4/19/2021 4:15:00 PM 11.93 53.474 0.212 7.28 4.93 11.16
4/19/2021 4:30:00 PM 11.8 53.24 0.212 7.27 4.95 11.11
4/19/2021 4:45:00 PM 11.68 53.024 0.212 7.26 4.82 11.04
4/19/2021 5:00:00 PM 11.65 52.97 0.213 7.25 4.89 11.04
4/19/2021 5:15:00 PM 11.67 53.006 0.213 7.25 4.77 11.06
4/19/2021 5:30:00 PM 11.68 53.024 0.213 7.25 5.01 11.06
4/19/2021 5:45:00 PM 11.62 52.916 0.213 7.24 4.95 11.02
4/19/2021 6:00:00 PM 11.54 52.772 0.213 7.24 4.81 10.99
4/19/2021 6:15:00 PM 11.43 52.574 0.213 7.23 4.88 10.94
4/19/2021 6:30:00 PM 11.33 52.394 0.213 7.22 5.02 10.9
4/19/2021 6:45:00 PM 11.23 52.214 0.213 7.21 4.88 10.85
4/19/2021 7:00:00 PM 11.12 52.016 0.213 7.2 4.79 10.8
4/19/2021 7:15:00 PM 11.02 51.836 0.214 7.19 4.82 10.73
4/19/2021 7:30:00 PM 10.91 51.638 0.214 7.18 4.93 10.64
4/19/2021 7:45:00 PM 10.81 51.458 0.214 7.17 5.44 10.57
4/19/2021 8:00:00 PM 10.73 51.314 0.214 7.15 4.97 10.49
4/19/2021 8:15:00 PM 10.63 51.134 0.214 7.14 5.14 10.42
4/19/2021 8:30:00 PM 10.53 50.954 0.215 7.14 5.33 10.34
4/19/2021 8:45:00 PM 10.43 50.774 0.216 7.14 6.21 10.29
4/19/2021 9:00:00 PM 10.34 50.612 0.216 7.12 6.18 10.25
4/19/2021 9:15:00 PM 10.27 50.486 0.215 7.1 5.45 10.22
4/19/2021 9:30:00 PM 10.2 50.36 0.215 7.1 5.44 10.19
4/19/2021 9:45:00 PM 10.12 50.216 0.215 7.09 5.26 10.18
4/19/2021 10:00:00 PM 10.05 50.09 0.215 7.09 5.15 10.17
4/19/2021 10:15:00 PM 9.98 49.964 0.215 7.08 5.25 10.15
4/19/2021 10:30:00 PM 9.9 49.82 0.215 7.08 5.42 10.14
4/19/2021 10:45:00 PM 9.84 49.712 0.215 7.08 5.3 10.13
4/19/2021 11:00:00 PM 9.78 49.604 0.215 7.08 5.21 10.13
4/19/2021 11:15:00 PM 9.72 49.496 0.215 7.09 5.39 10.13
4/19/2021 11:30:00 PM 9.66 49.388 0.215 7.09 5.31 10.12
4/19/2021 11:45:00 PM 9.61 49.298 0.215 7.09 5.3 10.12
4/20/2021 12:00:00 AM 9.56 49.208 0.215 7.09 5.18 10.11
4/20/2021 12:15:00 AM 9.51 49.118 0.215 7.09 5.35 10.1
4/20/2021 12:30:00 AM 9.47 49.046 0.215 7.09 5.23 10.1
4/20/2021 12:45:00 AM 9.44 48.992 0.215 7.09 6.15 10.1
4/20/2021 1:00:00 AM 9.42 48.956 0.215 7.09 5.32 10.1
4/20/2021 1:15:00 AM 9.4 48.92 0.215 7.09 5.37 10.09
4/20/2021 1:30:00 AM 9.38 48.884 0.216 7.1 5.51 10.09
4/20/2021 1:45:00 AM 9.35 48.83 0.216 7.09 5.29 10.09
4/20/2021 2:00:00 AM 9.31 48.758 0.216 7.09 5.4 10.08
4/20/2021 2:15:00 AM 9.26 48.668 0.216 7.09 5.32 10.08
4/20/2021 2:30:00 AM 9.21 48.578 0.216 7.09 5.27 10.08
4/20/2021 2:45:00 AM 9.15 48.47 0.216 7.09 5.56 10.08
4/20/2021 3:00:00 AM 9.09 48.362 0.216 7.09 5.35 10.08
4/20/2021 3:15:00 AM 9.04 48.272 0.216 7.09 5.22 10.09
4/20/2021 3:30:00 AM 8.99 48.182 0.216 7.08 5.17 10.09
4/20/2021 3:45:00 AM 8.93 48.074 0.216 7.09 5.27 10.09
4/20/2021 4:00:00 AM 8.89 48.002 0.216 7.09 5.16 10.1
4/20/2021 4:15:00 AM 8.84 47.912 0.217 7.09 5.22 10.1
4/20/2021 4:30:00 AM 8.81 47.858 0.217 7.09 5.66 10.1
4/20/2021 4:45:00 AM 8.77 47.786 0.217 7.09 5.68 10.11
4/20/2021 5:00:00 AM 8.74 47.732 0.217 7.09 5.38 10.11
4/20/2021 5:15:00 AM 8.71 47.678 0.217 7.09 5.19 10.12
4/20/2021 5:30:00 AM 8.68 47.624 0.217 7.1 5.26 10.13
4/20/2021 5:45:00 AM 8.65 47.57 0.218 7.1 5.25 10.13
4/20/2021 6:00:00 AM 8.62 47.516 0.218 7.1 5.25 10.13
4/20/2021 6:15:00 AM 8.6 47.48 0.217 7.1 5.21 10.13
4/20/2021 6:30:00 AM 8.58 47.444 0.217 7.1 5.26 10.14
4/20/2021 6:45:00 AM 8.58 47.444 0.218 7.1 5.16 10.15
4/20/2021 7:00:00 AM 8.6 47.48 0.217 7.1 5.12 10.17
4/20/2021 7:15:00 AM 8.59 47.462 0.218 7.11 5.13 10.22
4/20/2021 7:30:00 AM 8.63 47.534 0.218 7.11 5.04 10.28
4/20/2021 7:45:00 AM 8.67 47.606 0.218 7.12 4.99 10.34
4/20/2021 8:00:00 AM 8.68 47.624 0.218 7.12 5 10.35
4/20/2021 8:15:00 AM 8.7 47.66 0.218 7.13 4.96 10.4
4/20/2021 8:30:00 AM 8.73 47.714 0.218 7.13 5.02 10.46
4/20/2021 8:45:00 AM 8.76 47.768 0.218 7.14 5 10.51
4/20/2021 9:00:00 AM 8.8 47.84 0.218 7.15 4.94 10.56
4/20/2021 9:15:00 AM 8.83 47.894 0.218 7.15 4.94 10.61
4/20/2021 9:30:00 AM 8.87 47.966 0.217 7.15 5.02 10.65
4/20/2021 9:45:00 AM 8.91 48.038 0.218 7.16 4.91 10.71
4/20/2021 10:00:00 AM 9 48.2 0.218 7.16 4.93 10.79
4/20/2021 10:15:00 AM 9.08 48.344 0.218 7.18 5.1 10.86
4/20/2021 10:30:00 AM 9.23 48.614 0.218 7.19 5.02 10.94
4/20/2021 10:45:00 AM 9.49 49.082 0.218 7.21 5.03 11.02
4/20/2021 11:00:00 AM 9.8 49.64 0.217 7.22 4.9 11.07
4/20/2021 11:15:00 AM 9.98 49.964 0.217 7.23 4.97 11.11
4/20/2021 11:30:00 AM 10.18 50.324 0.218 7.24 5.08 11.13
4/20/2021 11:45:00 AM 10.46 50.828 0.218 7.25 5.03 11.16
4/20/2021 12:00:00 PM 10.74 51.332 0.218 7.26 4.97 11.17
4/20/2021 12:15:00 PM 11.09 51.962 0.217 7.26 5.02 11.18
4/20/2021 12:30:00 PM 11.41 52.538 0.217 7.27 5 11.18
4/20/2021 12:45:00 PM 11.69 53.042 0.218 7.27 4.93 11.16
4/20/2021 1:00:00 PM 11.99 53.582 0.217 7.28 5.01 11.16
4/20/2021 1:15:00 PM 12.27 54.086 0.217 7.29 4.9 11.16
4/20/2021 1:30:00 PM 12.57 54.626 0.218 7.3 5.02 11.16
4/20/2021 1:45:00 PM 12.77 54.986 0.217 7.3 5.01 11.15
4/20/2021 2:00:00 PM 12.97 55.346 0.218 7.3 4.99 11.15
4/20/2021 2:15:00 PM 13.15 55.67 0.217 7.31 5.11 11.12
4/20/2021 2:30:00 PM 13.29 55.922 0.217 7.31 5.13 11.1
4/20/2021 2:45:00 PM 13.33 55.994 0.218 7.3 4.98 11.07
4/20/2021 3:00:00 PM 13.41 56.138 0.218 7.31 5.2 11.05
4/20/2021 3:15:00 PM 13.45 56.21 0.218 7.31 5.06 11.04
4/20/2021 3:30:00 PM 13.51 56.318 0.218 7.3 5.13 11.03
4/20/2021 3:45:00 PM 13.6 56.48 0.218 7.31 5.01 11.02
4/20/2021 4:00:00 PM 13.58 56.444 0.218 7.3 5.12 11.01
4/20/2021 4:15:00 PM 13.54 56.372 0.218 7.29 5.36 11
4/20/2021 4:30:00 PM 13.58 56.444 0.218 7.29 5.28 10.99
4/20/2021 4:45:00 PM 13.61 56.498 0.218 7.29 5.17 10.94
4/20/2021 5:00:00 PM 13.63 56.534 0.218 7.28 6.04 10.91
4/20/2021 5:15:00 PM 13.62 56.516 0.218 7.28 5.22 10.89
4/20/2021 5:30:00 PM 13.55 56.39 0.218 7.27 5.09 10.86
4/20/2021 5:45:00 PM 13.47 56.246 0.218 7.27 5.08 10.83
4/20/2021 6:00:00 PM 13.34 56.012 0.218 7.25 5.48 10.78
4/20/2021 6:15:00 PM 13.19 55.742 0.218 7.25 5.67 10.73
4/20/2021 6:30:00 PM 13.02 55.436 0.219 7.23 5 10.66
4/20/2021 6:45:00 PM 12.86 55.148 0.219 7.22 5.13 10.6
4/20/2021 7:00:00 PM 12.73 54.914 0.219 7.21 5.2 10.54
4/20/2021 7:15:00 PM 12.6 54.68 0.219 7.19 5.2 10.46
4/20/2021 7:30:00 PM 12.52 54.536 0.219 7.17 5.26 10.39
4/20/2021 7:45:00 PM 12.42 54.356 0.219 7.16 5.28 10.3
4/20/2021 8:00:00 PM 12.32 54.176 0.22 7.14 5.57 10.19
4/20/2021 8:15:00 PM 12.25 54.05 0.219 7.13 5.44 10.09
4/20/2021 8:30:00 PM 12.16 53.888 0.22 7.12 5.63 10.01
4/20/2021 8:45:00 PM 12.06 53.708 0.22 7.11 5.21 9.95
4/20/2021 9:00:00 PM 11.97 53.546 0.22 7.1 5.54 9.89
4/20/2021 9:15:00 PM 11.89 53.402 0.22 7.09 5.53 9.85
4/20/2021 9:30:00 PM 11.81 53.258 0.22 7.08 5.68 9.8
4/20/2021 9:45:00 PM 11.74 53.132 0.22 7.07 6.72 9.77
4/20/2021 10:00:00 PM 11.67 53.006 0.22 7.06 5.78 9.74
4/20/2021 10:15:00 PM 11.6 52.88 0.22 7.06 5.84 9.72
4/20/2021 10:30:00 PM 11.54 52.772 0.22 7.07 5.76 9.7
4/20/2021 10:45:00 PM 11.49 52.682 0.22 7.07 5.86 9.7
4/20/2021 11:00:00 PM 11.42 52.556 0.219 7.07 5.93 9.69
4/20/2021 11:15:00 PM 11.36 52.448 0.219 7.07 5.78 9.68
4/20/2021 11:30:00 PM 11.3 52.34 0.219 7.07 5.82 9.67
4/20/2021 11:45:00 PM 11.24 52.232 0.218 7.07 5.81 9.67
4/21/2021 12:00:00 AM 11.18 52.124 0.218 7.06 6.04 9.66
4/21/2021 12:15:00 AM 11.14 52.052 0.218 7.06 5.85 9.65
4/21/2021 12:30:00 AM 11.09 51.962 0.217 7.06 6.46 9.64
4/21/2021 12:45:00 AM 11.04 51.872 0.217 7.05 5.92 9.64
4/21/2021 1:00:00 AM 11.03 51.854 0.217 7.05 6.18 9.64
4/21/2021 1:15:00 AM 10.96 51.728 0.217 7.05 5.83 9.64
4/21/2021 1:30:00 AM 10.9 51.62 0.217 7.05 6.02 9.64
4/21/2021 1:45:00 AM 10.84 51.512 0.217 7.05 6.18 9.64
4/21/2021 2:00:00 AM 10.79 51.422 0.217 7.05 5.87 9.63
4/21/2021 2:15:00 AM 10.76 51.368 0.217 7.05 6.13 9.63
4/21/2021 2:30:00 AM 10.72 51.296 0.217 7.05 5.98 9.64
4/21/2021 2:45:00 AM 10.67 51.206 0.218 7.05 6.23 9.63
4/21/2021 3:00:00 AM 10.61 51.098 0.218 7.06 5.99 9.63
4/21/2021 3:15:00 AM 10.55 50.99 0.218 7.06 6.11 9.63
4/21/2021 3:30:00 AM 10.49 50.882 0.218 7.06 5.96 9.63
4/21/2021 3:45:00 AM 10.43 50.774 0.219 7.06 5.94 9.64
4/21/2021 4:00:00 AM 10.37 50.666 0.219 7.06 5.85 9.64
4/21/2021 4:15:00 AM 10.32 50.576 0.219 7.06 6.07 9.64
4/21/2021 4:30:00 AM 10.28 50.504 0.219 7.06 6.34 9.64
4/21/2021 4:45:00 AM 10.25 50.45 0.219 7.07 5.98 9.65
4/21/2021 5:00:00 AM 10.21 50.378 0.22 7.07 5.98 9.65
4/21/2021 5:15:00 AM 10.18 50.324 0.22 7.07 5.82 9.66
4/21/2021 5:30:00 AM 10.15 50.27 0.22 7.07 6.13 9.66
4/21/2021 5:45:00 AM 10.12 50.216 0.22 7.07 5.78 9.66
4/21/2021 6:00:00 AM 10.06 50.108 0.22 7.07 5.87 9.67
4/21/2021 6:15:00 AM 10.02 50.036 0.221 7.07 5.68 9.66
4/21/2021 6:30:00 AM 9.96 49.928 0.221 7.07 5.53 9.67
4/21/2021 6:45:00 AM 9.9 49.82 0.221 7.06 5.69 9.69
4/21/2021 7:00:00 AM 9.84 49.712 0.221 7.06 5.68 9.71
4/21/2021 7:15:00 AM 9.76 49.568 0.222 7.06 5.3 9.73
4/21/2021 7:30:00 AM 9.69 49.442 0.222 7.07 5.38 9.76
4/21/2021 7:45:00 AM 9.62 49.316 0.222 7.07 5.45 9.79
4/21/2021 8:00:00 AM 9.57 49.226 0.222 7.07 5.23 9.81
4/21/2021 8:15:00 AM 9.53 49.154 0.222 7.08 5.26 9.86
4/21/2021 8:30:00 AM 9.47 49.046 0.222 7.08 5.33 9.89
4/21/2021 8:45:00 AM 9.41 48.938 0.222 7.09 5.31 9.92
4/21/2021 9:00:00 AM 9.38 48.884 0.222 7.1 5.09 9.98
4/21/2021 9:15:00 AM 9.31 48.758 0.222 7.1 5.36 10.03
4/21/2021 9:30:00 AM 9.27 48.686 0.222 7.11 5.36 10.12
4/21/2021 9:45:00 AM 9.26 48.668 0.222 7.12 5.28 10.24
4/21/2021 10:00:00 AM 9.29 48.722 0.222 7.14 5.28 10.36
4/21/2021 10:15:00 AM 9.36 48.848 0.222 7.16 5.33 10.48
4/21/2021 10:30:00 AM 9.41 48.938 0.222 7.17 5.16 10.57
4/21/2021 10:45:00 AM 9.43 48.974 0.222 7.18 5.12 10.63
4/21/2021 11:00:00 AM 9.46 49.028 0.222 7.19 5.23 10.71
4/21/2021 11:15:00 AM 9.44 48.992 0.222 7.19 5.16 10.73
4/21/2021 11:30:00 AM 9.4 48.92 0.222 7.2 5.25 10.75
4/21/2021 11:45:00 AM 9.43 48.974 0.222 7.2 5.21 10.82
4/21/2021 12:00:00 PM 9.53 49.154 0.222 7.22 5.14 10.89
4/21/2021 12:15:00 PM 9.49 49.082 0.222 7.22 5.2 10.94
4/21/2021 12:30:00 PM 9.72 49.496 0.222 7.25 5.19 11
4/21/2021 12:45:00 PM 9.8 49.64 0.222 7.25 5.04 11.03
4/21/2021 1:00:00 PM 9.78 49.604 0.222 7.25 5.27 11.01
4/21/2021 1:15:00 PM 9.8 49.64 0.222 7.25 5.48 11.02
4/21/2021 1:30:00 PM 9.7 49.46 0.222 7.25 5.41 11.01
4/21/2021 1:45:00 PM 9.73 49.514 0.222 7.25 5.42 11.06
4/21/2021 2:00:00 PM 9.81 49.658 0.222 7.27 5.31 11.12
4/21/2021 2:15:00 PM 9.71 49.478 0.223 7.27 5.41 11.14
4/21/2021 2:30:00 PM 9.73 49.514 0.223 7.28 5.29 11.17
4/21/2021 2:45:00 PM 9.64 49.352 0.223 7.27 5.38 11.14
4/21/2021 3:00:00 PM 9.67 49.406 0.223 7.28 5.45 11.17
4/21/2021 3:15:00 PM 9.58 49.244 0.223 7.28 5.26 11.15
4/21/2021 3:30:00 PM 9.5 49.1 0.223 7.28 5.34 11.16
4/21/2021 3:45:00 PM 9.46 49.028 0.223 7.28 5.3 11.19
4/21/2021 4:00:00 PM 9.4 48.92 0.223 7.29 5.34 11.21
4/21/2021 4:15:00 PM 9.33 48.794 0.223 7.29 5.33 11.21
4/21/2021 4:30:00 PM 9.38 48.884 0.223 7.3 5.4 11.23
4/21/2021 4:45:00 PM 9.29 48.722 0.223 7.3 5.29 11.22
4/21/2021 5:00:00 PM 9.26 48.668 0.223 7.3 5.41 11.24
4/21/2021 5:15:00 PM 9.33 48.794 0.223 7.31 5.39 11.26
4/21/2021 5:30:00 PM 9.28 48.704 0.223 7.31 5.27 11.27
4/21/2021 5:45:00 PM 9.15 48.47 0.223 7.3 5.37 11.26
4/21/2021 6:00:00 PM 9.08 48.344 0.223 7.3 5.39 11.25
4/21/2021 6:15:00 PM 8.96 48.128 0.224 7.29 5.47 11.22
4/21/2021 6:30:00 PM 8.85 47.93 0.224 7.29 5.41 11.21
4/21/2021 6:45:00 PM 8.74 47.732 0.223 7.28 5.4 11.18
4/21/2021 7:00:00 PM 8.61 47.498 0.224 7.28 5.33 11.15
4/21/2021 7:15:00 PM 8.5 47.3 0.224 7.27 5.63 11.11
4/21/2021 7:30:00 PM 8.38 47.084 0.224 7.26 5.33 11.05
4/21/2021 7:45:00 PM 8.25 46.85 0.224 7.25 5.39 11
4/21/2021 8:00:00 PM 8.17 46.706 0.224 7.24 5.42 10.93
4/21/2021 8:15:00 PM 8.07 46.526 0.224 7.23 5.5 10.88
4/21/2021 8:30:00 PM 7.94 46.292 0.224 7.21 5.42 10.84
4/21/2021 8:45:00 PM 7.81 46.058 0.224 7.21 5.49 10.81
4/21/2021 9:00:00 PM 7.68 45.824 0.225 7.19 5.57 10.78
4/21/2021 9:15:00 PM 7.58 45.644 0.224 7.19 5.3 10.76
4/21/2021 9:30:00 PM 7.47 45.446 0.225 7.18 5.59 10.75
4/21/2021 9:45:00 PM 7.37 45.266 0.225 7.18 5.73 10.73
4/21/2021 10:00:00 PM 7.27 45.086 0.225 7.17 5.52 10.72
4/21/2021 10:15:00 PM 7.21 44.978 0.225 7.17 5.52 10.73
4/21/2021 10:30:00 PM 7.13 44.834 0.225 7.17 5.48 10.73
4/21/2021 10:45:00 PM 7.05 44.69 0.224 7.17 5.71 10.73
4/21/2021 11:00:00 PM 6.98 44.564 0.224 7.16 5.55 10.73
4/21/2021 11:15:00 PM 6.92 44.456 0.224 7.16 5.51 10.73
4/21/2021 11:30:00 PM 6.86 44.348 0.224 7.15 5.6 10.74
4/21/2021 11:45:00 PM 6.79 44.222 0.224 7.16 5.47 10.75
4/22/2021 12:00:00 AM 6.75 44.15 0.224 7.16 5.69 10.76
4/22/2021 12:15:00 AM 6.73 44.114 0.224 7.16 5.73 10.76
4/22/2021 12:30:00 AM 6.71 44.078 0.223 7.16 5.57 10.77
4/22/2021 12:45:00 AM 6.68 44.024 0.223 7.16 5.52 10.77
4/22/2021 1:00:00 AM 6.65 43.97 0.223 7.16 5.59 10.77
4/22/2021 1:15:00 AM 6.62 43.916 0.223 7.16 5.63 10.78
4/22/2021 1:30:00 AM 6.58 43.844 0.223 7.16 5.66 10.79
4/22/2021 1:45:00 AM 6.55 43.79 0.223 7.16 5.66 10.79
4/22/2021 2:00:00 AM 6.5 43.7 0.222 7.15 5.83 10.8
4/22/2021 2:15:00 AM 6.47 43.646 0.223 7.15 5.72 10.8
4/22/2021 2:30:00 AM 6.42 43.556 0.222 7.15 5.92 10.81
4/22/2021 2:45:00 AM 6.37 43.466 0.222 7.15 5.5 10.82
4/22/2021 3:00:00 AM 6.32 43.376 0.223 7.15 5.5 10.82
4/22/2021 3:15:00 AM 6.27 43.286 0.223 7.16 5.62 10.84
4/22/2021 3:30:00 AM 6.22 43.196 0.223 7.15 5.84 10.85
4/22/2021 3:45:00 AM 6.14 43.052 0.223 7.15 5.75 10.86
4/22/2021 4:00:00 AM 6.09 42.962 0.223 7.15 5.45 10.88
4/22/2021 4:15:00 AM 6.04 42.872 0.223 7.15 5.66 10.88
4/22/2021 4:30:00 AM 5.99 42.782 0.223 7.15 5.59 10.89
4/22/2021 4:45:00 AM 5.96 42.728 0.223 7.15 5.46 10.9
4/22/2021 5:00:00 AM 5.92 42.656 0.223 7.16 5.54 10.92
4/22/2021 5:15:00 AM 5.88 42.584 0.224 7.15 5.58 10.93
4/22/2021 5:30:00 AM 5.85 42.53 0.224 7.16 5.54 10.93
4/22/2021 5:45:00 AM 5.82 42.476 0.224 7.16 5.5 10.95
4/22/2021 6:00:00 AM 5.79 42.422 0.224 7.16 5.47 10.95
4/22/2021 6:15:00 AM 5.76 42.368 0.224 7.16 5.71 10.96
4/22/2021 6:30:00 AM 5.72 42.296 0.224 7.16 5.51 10.97
4/22/2021 6:45:00 AM 5.68 42.224 0.224 7.15 5.49 10.99
4/22/2021 7:00:00 AM 5.65 42.17 0.225 7.16 5.31 11.01
4/22/2021 7:15:00 AM 5.62 42.116 0.225 7.16 5.52 11.05
4/22/2021 7:30:00 AM 5.6 42.08 0.225 7.17 5.43 11.1
4/22/2021 7:45:00 AM 5.55 41.99 0.225 7.17 5.36 11.14
4/22/2021 8:00:00 AM 5.58 42.044 0.225 7.18 5.36 11.22
4/22/2021 8:15:00 AM 5.68 42.224 0.225 7.2 5.44 11.34
4/22/2021 8:30:00 AM 5.53 41.954 0.225 7.19 5.35 11.37
4/22/2021 8:45:00 AM 5.42 41.756 0.225 7.19 5.34 11.4
4/22/2021 9:00:00 AM 5.44 41.792 0.225 7.2 5.29 11.45
4/22/2021 9:15:00 AM 5.24 41.432 0.226 7.19 6.21 11.47
4/22/2021 9:30:00 AM 5.22 41.396 0.226 7.21 5.87 11.55
4/22/2021 9:45:00 AM 5.43 41.774 0.226 7.23 5.45 11.65
4/22/2021 10:00:00 AM 5.42 41.756 0.229 7.23 7.45 11.72
4/22/2021 10:15:00 AM 5.49 41.882 0.23 7.24 8.67 11.77
4/22/2021 10:30:00 AM 5.56 42.008 0.229 7.25 6.7 11.83
4/22/2021 10:45:00 AM 5.62 42.116 0.228 7.25 6.16 11.88
4/22/2021 11:00:00 AM 5.81 42.458 0.227 7.27 5.96 11.93
4/22/2021 11:15:00 AM 5.79 42.422 0.226 7.26 5.75 11.95
4/22/2021 11:30:00 AM 5.84 42.512 0.226 7.26 5.81 11.98
4/22/2021 11:45:00 AM 5.96 42.728 0.226 7.27 5.58 12.02
4/22/2021 12:00:00 PM 6.28 43.304 0.225 7.29 5.49 12.06
4/22/2021 12:15:00 PM 6.59 43.862 0.225 7.3 5.66 12.08
4/22/2021 12:30:00 PM 6.55 43.79 0.225 7.3 5.36 12.07
4/22/2021 12:45:00 PM 6.7 44.06 0.225 7.31 5.28 12.08
4/22/2021 1:00:00 PM 7.07 44.726 0.225 7.32 5.33 12.07
4/22/2021 1:15:00 PM 7.3 45.14 0.226 7.32 5.13 12.07
4/22/2021 1:30:00 PM 7.34 45.212 0.226 7.32 5.27 12.04
4/22/2021 1:45:00 PM 7.51 45.518 0.226 7.32 5.26 12.05
4/22/2021 2:00:00 PM 7.42 45.356 0.226 7.31 5.16 12.03
4/22/2021 2:15:00 PM 7.37 45.266 0.226 7.31 5.23 12.04
4/22/2021 2:30:00 PM 7.31 45.158 0.226 7.31 5.27 12.05
4/22/2021 2:45:00 PM 7.27 45.086 0.226 7.31 5.31 12.04
4/22/2021 3:00:00 PM 7.28 45.104 0.226 7.31 5.28 12.06
4/22/2021 3:15:00 PM 7.35 45.23 0.226 7.32 5.35 12.09
4/22/2021 3:30:00 PM 7.32 45.176 0.225 7.32 5.29 12.12
4/22/2021 3:45:00 PM 7.51 45.518 0.226 7.34 5.16 12.13
4/22/2021 4:00:00 PM 7.59 45.662 0.225 7.34 5.23 12.13
4/22/2021 4:15:00 PM 7.52 45.536 0.226 7.34 5.27 12.12
4/22/2021 4:30:00 PM 7.55 45.59 0.226 7.34 5.34 12.11
4/22/2021 4:45:00 PM 7.61 45.698 0.226 7.34 5.17 12.1
4/22/2021 5:00:00 PM 7.67 45.806 0.226 7.34 5.29 12.11
4/22/2021 5:15:00 PM 7.64 45.752 0.225 7.34 5.36 12.11
4/22/2021 5:30:00 PM 7.57 45.626 0.226 7.33 5.59 12.1
4/22/2021 5:45:00 PM 7.48 45.464 0.226 7.33 5.21 12.08
4/22/2021 6:00:00 PM 7.41 45.338 0.226 7.33 5.22 12.06
4/22/2021 6:15:00 PM 7.31 45.158 0.226 7.33 5.19 12.03
4/22/2021 6:30:00 PM 7.21 44.978 0.226 7.32 5.24 11.99
4/22/2021 6:45:00 PM 7.13 44.834 0.226 7.32 5.13 11.96
4/22/2021 7:00:00 PM 7.04 44.672 0.226 7.31 5.51 11.93
4/22/2021 7:15:00 PM 6.94 44.492 0.226 7.29 5.19 11.89
4/22/2021 7:30:00 PM 6.84 44.312 0.226 7.28 5.16 11.84
4/22/2021 7:45:00 PM 6.72 44.096 0.227 7.26 5.2 11.77
4/22/2021 8:00:00 PM 6.63 43.934 0.226 7.25 5.11 11.7
4/22/2021 8:15:00 PM 6.53 43.754 0.227 7.24 5.16 11.64
4/22/2021 8:30:00 PM 6.43 43.574 0.227 7.22 5.24 11.58
4/22/2021 8:45:00 PM 6.34 43.412 0.227 7.21 5.06 11.54
4/22/2021 9:00:00 PM 6.27 43.286 0.227 7.2 5.44 11.5
4/22/2021 9:15:00 PM 6.21 43.178 0.227 7.2 5.24 11.46
4/22/2021 9:30:00 PM 6.15 43.07 0.227 7.2 5.2 11.44
4/22/2021 9:45:00 PM 6.1 42.98 0.227 7.19 5.28 11.41
4/22/2021 10:00:00 PM 6.03 42.854 0.228 7.19 5.27 11.39
4/22/2021 10:15:00 PM 5.97 42.746 0.227 7.18 5.29 11.37
4/22/2021 10:30:00 PM 5.91 42.638 0.227 7.17 5.6 11.36
4/22/2021 10:45:00 PM 5.86 42.548 0.227 7.17 5.21 11.35
4/22/2021 11:00:00 PM 5.81 42.458 0.227 7.17 5.4 11.35
4/22/2021 11:15:00 PM 5.76 42.368 0.227 7.17 5.34 11.35
4/22/2021 11:30:00 PM 5.72 42.296 0.227 7.17 5.34 11.34
4/22/2021 11:45:00 PM 5.68 42.224 0.228 7.17 5.24 11.34
4/23/2021 12:00:00 AM 5.64 42.152 0.227 7.17 5.43 11.33
4/23/2021 12:15:00 AM 5.61 42.098 0.227 7.16 5.31 11.32
4/23/2021 12:30:00 AM 5.57 42.026 0.228 7.17 5.15 11.33
4/23/2021 12:45:00 AM 5.54 41.972 0.227 7.16 5.15 11.33
4/23/2021 1:00:00 AM 5.51 41.918 0.227 7.17 5.28 11.33
4/23/2021 1:15:00 AM 5.48 41.864 0.227 7.17 5.16 11.33
4/23/2021 1:30:00 AM 5.45 41.81 0.227 7.17 5.24 11.33
4/23/2021 1:45:00 AM 5.41 41.738 0.227 7.17 5.11 11.33
4/23/2021 2:00:00 AM 5.38 41.684 0.227 7.17 5.08 11.33
4/23/2021 2:15:00 AM 5.35 41.63 0.227 7.17 5.2 11.33
4/23/2021 2:30:00 AM 5.32 41.576 0.227 7.17 5.1 11.33
4/23/2021 2:45:00 AM 5.29 41.522 0.227 7.17 5 11.33
4/23/2021 3:00:00 AM 5.27 41.486 0.227 7.17 5.06 11.34
4/23/2021 3:15:00 AM 5.23 41.414 0.228 7.16 5.15 11.34
4/23/2021 3:30:00 AM 5.2 41.36 0.228 7.16 5.01 11.35
4/23/2021 3:45:00 AM 5.16 41.288 0.228 7.16 5.14 11.35
4/23/2021 4:00:00 AM 5.13 41.234 0.228 7.16 5.16 11.35
4/23/2021 4:15:00 AM 5.09 41.162 0.228 7.16 5.14 11.36
4/23/2021 4:30:00 AM 5.05 41.09 0.228 7.16 5.24 11.36
4/23/2021 4:45:00 AM 5.01 41.018 0.228 7.17 5.11 11.37
4/23/2021 5:00:00 AM 4.98 40.964 0.228 7.17 5.22 11.38
4/23/2021 5:15:00 AM 4.93 40.874 0.228 7.16 5.21 11.38
4/23/2021 5:30:00 AM 4.89 40.802 0.228 7.16 5.21 11.39
4/23/2021 5:45:00 AM 4.85 40.73 0.228 7.16 5.34 11.4
4/23/2021 6:00:00 AM 4.8 40.64 0.228 7.16 5.27 11.4
4/23/2021 6:15:00 AM 4.77 40.586 0.228 7.16 5.53 11.41
4/23/2021 6:30:00 AM 4.72 40.496 0.228 7.17 5.23 11.43
4/23/2021 6:45:00 AM 4.69 40.442 0.228 7.17 5.38 11.45
4/23/2021 7:00:00 AM 4.66 40.388 0.228 7.17 5.15 11.49
4/23/2021 7:15:00 AM 4.65 40.37 0.229 7.17 5.02 11.55
4/23/2021 7:30:00 AM 4.66 40.388 0.229 7.18 5.12 11.61
4/23/2021 7:45:00 AM 4.67 40.406 0.229 7.19 5.07 11.67
4/23/2021 8:00:00 AM 4.7 40.46 0.229 7.19 5.1 11.74
4/23/2021 8:15:00 AM 4.75 40.55 0.229 7.21 5.02 11.8
4/23/2021 8:30:00 AM 4.83 40.694 0.229 7.21 5.06 11.87
4/23/2021 8:45:00 AM 4.94 40.892 0.229 7.22 5.15 11.93
4/23/2021 9:00:00 AM 5.07 41.126 0.229 7.23 5.09 11.99
4/23/2021 9:15:00 AM 5.23 41.414 0.229 7.24 5.09 12.03
4/23/2021 9:30:00 AM 5.42 41.756 0.229 7.25 5.07 12.07
4/23/2021 9:45:00 AM 5.6 42.08 0.228 7.26 4.93 12.1
4/23/2021 10:00:00 AM 5.8 42.44 0.228 7.26 5.03 12.13
4/23/2021 10:15:00 AM 6.04 42.872 0.228 7.27 4.95 12.15
4/23/2021 10:30:00 AM 6.3 43.34 0.228 7.28 5.05 12.16
4/23/2021 10:45:00 AM 6.58 43.844 0.228 7.28 5 12.16
4/23/2021 11:00:00 AM 6.87 44.366 0.228 7.29 5.06 12.16
4/23/2021 11:15:00 AM 7.16 44.888 0.228 7.29 5.02 12.16
4/23/2021 11:30:00 AM 7.47 45.446 0.228 7.29 5.04 12.14
4/23/2021 11:45:00 AM 7.76 45.968 0.228 7.29 5.07 12.14
4/23/2021 12:00:00 PM 8.05 46.49 0.228 7.3 5.09 12.12
4/23/2021 12:15:00 PM 8.35 47.03 0.228 7.3 5.06 12.1
4/23/2021 12:30:00 PM 8.64 47.552 0.228 7.3 5.04 12.08
4/23/2021 12:45:00 PM 8.92 48.056 0.228 7.3 4.99 12.06
4/23/2021 1:00:00 PM 9.22 48.596 0.228 7.3 4.92 12.04
4/23/2021 1:15:00 PM 9.39 48.902 0.228 7.3 4.96 12.02
4/23/2021 1:30:00 PM 9.43 48.974 0.228 7.29 5.01 11.98
4/23/2021 1:45:00 PM 9.45 49.01 0.228 7.29 5.09 11.96
4/23/2021 2:00:00 PM 9.46 49.028 0.228 7.29 5.04 11.95
4/23/2021 2:15:00 PM 9.41 48.938 0.228 7.28 5.1 11.94
4/23/2021 2:30:00 PM 9.38 48.884 0.228 7.28 5.08 11.95
4/23/2021 2:45:00 PM 9.42 48.956 0.228 7.28 5.16 11.96
4/23/2021 3:00:00 PM 9.6 49.28 0.228 7.3 5 11.97
4/23/2021 3:15:00 PM 9.56 49.208 0.229 7.3 5.04 11.98
4/23/2021 3:30:00 PM 9.58 49.244 0.229 7.3 5.03 11.97
4/23/2021 3:45:00 PM 9.7 49.46 0.228 7.3 5.1 11.96
4/23/2021 4:00:00 PM 9.73 49.514 0.229 7.31 5.08 11.95
4/23/2021 4:15:00 PM 9.88 49.784 0.229 7.32 5.16 11.94
4/23/2021 4:30:00 PM 10.02 50.036 0.229 7.33 4.93 11.93
4/23/2021 4:45:00 PM 10.01 50.018 0.229 7.32 5.07 11.91
4/23/2021 5:00:00 PM 10.02 50.036 0.229 7.31 5.07 11.88
4/23/2021 5:15:00 PM 10.07 50.126 0.229 7.31 5.26 11.85
4/23/2021 5:30:00 PM 10.04 50.072 0.229 7.31 5.11 11.81
4/23/2021 5:45:00 PM 10 50 0.229 7.3 5.07 11.77
4/23/2021 6:00:00 PM 9.93 49.874 0.229 7.29 5.19 11.72
4/23/2021 6:15:00 PM 9.82 49.676 0.229 7.29 5.07 11.67
4/23/2021 6:30:00 PM 9.68 49.424 0.23 7.28 5.22 11.61
4/23/2021 6:45:00 PM 9.5 49.1 0.23 7.26 5.11 11.55
4/23/2021 7:00:00 PM 9.35 48.83 0.23 7.25 5.04 11.49
4/23/2021 7:15:00 PM 9.19 48.542 0.23 7.24 5.23 11.42
4/23/2021 7:30:00 PM 9.06 48.308 0.23 7.23 5.15 11.36
4/23/2021 7:45:00 PM 8.93 48.074 0.231 7.22 5.21 11.29
4/23/2021 8:00:00 PM 8.81 47.858 0.231 7.21 5.08 11.22
4/23/2021 8:15:00 PM 8.7 47.66 0.231 7.19 5.12 11.15
4/23/2021 8:30:00 PM 8.59 47.462 0.231 7.19 5.23 11.09
4/23/2021 8:45:00 PM 8.5 47.3 0.231 7.17 5.26 11.03
4/23/2021 9:00:00 PM 8.4 47.12 0.231 7.17 5.38 10.99
4/23/2021 9:15:00 PM 8.32 46.976 0.232 7.16 5.32 10.94
4/23/2021 9:30:00 PM 8.25 46.85 0.232 7.15 5.35 10.9
4/23/2021 9:45:00 PM 8.18 46.724 0.232 7.15 5.47 10.87
4/23/2021 10:00:00 PM 8.11 46.598 0.232 7.14 5.29 10.84
4/23/2021 10:15:00 PM 8.04 46.472 0.232 7.13 5.4 10.82
4/23/2021 10:30:00 PM 7.98 46.364 0.232 7.12 5.43 10.79
4/23/2021 10:45:00 PM 7.92 46.256 0.232 7.11 5.57 10.77
4/23/2021 11:00:00 PM 7.86 46.148 0.232 7.11 5.44 10.76
4/23/2021 11:15:00 PM 7.79 46.022 0.232 7.12 5.42 10.75
4/23/2021 11:30:00 PM 7.73 45.914 0.232 7.11 5.34 10.74
4/23/2021 11:45:00 PM 7.67 45.806 0.23 7.11 5.16 10.74
4/24/2021 12:00:00 AM 7.61 45.698 0.232 7.12 8.98 10.73
4/24/2021 12:15:00 AM 7.56 45.608 0.232 7.11 4.98 10.73
4/24/2021 12:30:00 AM 7.5 45.5 0.232 7.12 5.06 10.73
4/24/2021 12:45:00 AM 7.45 45.41 0.232 7.12 5.25 10.74
4/24/2021 1:00:00 AM 7.39 45.302 0.232 7.11 5.15 10.73
4/24/2021 1:15:00 AM 7.34 45.212 0.232 7.11 5.04 10.72
4/24/2021 1:30:00 AM 7.29 45.122 0.232 7.11 5.43 10.72
4/24/2021 1:45:00 AM 7.24 45.032 0.232 7.11 5.09 10.72
4/24/2021 2:00:00 AM 7.19 44.942 0.232 7.11 4.98 10.73
4/24/2021 2:15:00 AM 7.14 44.852 0.233 7.11 5.14 10.73
4/24/2021 2:30:00 AM 7.1 44.78 0.233 7.12 5.99 10.74
4/24/2021 2:45:00 AM 7.05 44.69 0.233 7.12 5.22 10.75
4/24/2021 3:00:00 AM 7 44.6 0.233 7.12 5.09 10.75
4/24/2021 3:15:00 AM 6.95 44.51 0.233 7.12 5.22 10.75
4/24/2021 3:30:00 AM 6.9 44.42 0.233 7.12 5.03 10.76
4/24/2021 3:45:00 AM 6.86 44.348 0.233 7.12 5.51 10.76
4/24/2021 4:00:00 AM 6.81 44.258 0.233 7.12 5.37 10.76
4/24/2021 4:15:00 AM 6.77 44.186 0.233 7.12 5.21 10.77
4/24/2021 4:30:00 AM 6.72 44.096 0.233 7.12 5.06 10.77
4/24/2021 4:45:00 AM 6.67 44.006 0.234 7.12 5.01 10.78
4/24/2021 5:00:00 AM 6.62 43.916 0.233 7.12 5.1 10.78
4/24/2021 5:15:00 AM 6.57 43.826 0.234 7.13 5.1 10.79
4/24/2021 5:30:00 AM 6.53 43.754 0.234 7.13 5.29 10.8
4/24/2021 5:45:00 AM 6.48 43.664 0.234 7.13 5.16 10.81
4/24/2021 6:00:00 AM 6.43 43.574 0.234 7.13 5.22 10.82
4/24/2021 6:15:00 AM 6.38 43.484 0.234 7.13 5.07 10.82
4/24/2021 6:30:00 AM 6.33 43.394 0.234 7.13 5.15 10.84
4/24/2021 6:45:00 AM 6.3 43.34 0.234 7.13 5.19 10.86
4/24/2021 7:00:00 AM 6.26 43.268 0.234 7.14 5.16 10.92
4/24/2021 7:15:00 AM 6.24 43.232 0.234 7.14 5.12 10.97
4/24/2021 7:30:00 AM 6.25 43.25 0.234 7.15 5 11.03
4/24/2021 7:45:00 AM 6.27 43.286 0.235 7.16 5.1 11.12
4/24/2021 8:00:00 AM 6.3 43.34 0.234 7.17 5.02 11.19
4/24/2021 8:15:00 AM 6.37 43.466 0.235 7.18 5.01 11.26
4/24/2021 8:30:00 AM 6.46 43.628 0.235 7.19 5.18 11.34
4/24/2021 8:45:00 AM 6.59 43.862 0.235 7.2 4.97 11.4
4/24/2021 9:00:00 AM 6.73 44.114 0.234 7.21 4.88 11.47
4/24/2021 9:15:00 AM 6.86 44.348 0.235 7.21 5 11.52
4/24/2021 9:30:00 AM 6.98 44.564 0.234 7.22 5.02 11.56
4/24/2021 9:45:00 AM 7.22 44.996 0.234 7.23 4.87 11.6
4/24/2021 10:00:00 AM 7.48 45.464 0.234 7.23 4.98 11.64
4/24/2021 10:15:00 AM 7.73 45.914 0.234 7.24 5.01 11.66
4/24/2021 10:30:00 AM 7.97 46.346 0.234 7.25 4.99 11.7
4/24/2021 10:45:00 AM 8.24 46.832 0.234 7.25 5.03 11.71
4/24/2021 11:00:00 AM 8.48 47.264 0.234 7.25 5.08 11.71
4/24/2021 11:15:00 AM 8.71 47.678 0.234 7.26 5.2 11.72
4/24/2021 11:30:00 AM 8.92 48.056 0.234 7.26 5.07 11.72
4/24/2021 11:45:00 AM 9.14 48.452 0.234 7.26 5.27 11.73
4/24/2021 12:00:00 PM 9.37 48.866 0.234 7.27 5.05 11.73
4/24/2021 12:15:00 PM 9.59 49.262 0.234 7.27 5.14 11.73
4/24/2021 12:30:00 PM 9.78 49.604 0.233 7.28 5.21 11.74
4/24/2021 12:45:00 PM 9.95 49.91 0.233 7.28 5.33 11.73
4/24/2021 1:00:00 PM 10.12 50.216 0.234 7.28 5.09 11.73
4/24/2021 1:15:00 PM 10.24 50.432 0.234 7.27 5.2 11.72
4/24/2021 1:30:00 PM 10.3 50.54 0.234 7.26 5.1 11.7
4/24/2021 1:45:00 PM 10.34 50.612 0.233 7.26 5.15 11.7
4/24/2021 2:00:00 PM 10.38 50.684 0.234 7.25 5.15 11.69
4/24/2021 2:15:00 PM 10.4 50.72 0.234 7.25 5.15 11.68
4/24/2021 2:30:00 PM 10.41 50.738 0.234 7.25 5.3 11.68
4/24/2021 2:45:00 PM 10.42 50.756 0.234 7.25 5.17 11.67
4/24/2021 3:00:00 PM 10.43 50.774 0.234 7.24 5.23 11.68
4/24/2021 3:15:00 PM 10.38 50.684 0.234 7.24 5.16 11.66
4/24/2021 3:30:00 PM 10.32 50.576 0.234 7.25 5.3 11.63
4/24/2021 3:45:00 PM 10.25 50.45 0.234 7.25 5.2 11.6
4/24/2021 4:00:00 PM 10.17 50.306 0.234 7.25 5.3 11.57
4/24/2021 4:15:00 PM 10.09 50.162 0.234 7.24 5.15 11.54
4/24/2021 4:30:00 PM 10 50 0.235 7.23 5.13 11.5
4/24/2021 4:45:00 PM 9.9 49.82 0.235 7.22 5.34 11.46
4/24/2021 5:00:00 PM 9.83 49.694 0.235 7.22 5.16 11.44
4/24/2021 5:15:00 PM 9.76 49.568 0.235 7.22 5.66 11.4
4/24/2021 5:30:00 PM 9.68 49.424 0.235 7.22 5.2 11.35
4/24/2021 5:45:00 PM 9.62 49.316 0.235 7.21 5.24 11.3
4/24/2021 6:00:00 PM 9.56 49.208 0.236 7.2 5.14 11.24
4/24/2021 6:15:00 PM 9.51 49.118 0.235 7.19 5.18 11.18
4/24/2021 6:30:00 PM 9.45 49.01 0.236 7.19 5.13 11.14
4/24/2021 6:45:00 PM 9.41 48.938 0.236 7.19 5.2 11.09
4/24/2021 7:00:00 PM 9.36 48.848 0.236 7.18 5.12 11.02
4/24/2021 7:15:00 PM 9.3 48.74 0.236 7.16 5.32 10.95
4/24/2021 7:30:00 PM 9.25 48.65 0.236 7.15 5.11 10.88
4/24/2021 7:45:00 PM 9.2 48.56 0.236 7.14 5.03 10.81
4/24/2021 8:00:00 PM 9.15 48.47 0.237 7.13 5.16 10.74
4/24/2021 8:15:00 PM 9.11 48.398 0.237 7.12 5.15 10.68
4/24/2021 8:30:00 PM 9.07 48.326 0.237 7.12 5.07 10.63
4/24/2021 8:45:00 PM 9.03 48.254 0.237 7.11 5.26 10.59
4/24/2021 9:00:00 PM 8.99 48.182 0.237 7.11 5.44 10.55
4/24/2021 9:15:00 PM 8.95 48.11 0.237 7.11 5.35 10.52
4/24/2021 9:30:00 PM 8.92 48.056 0.237 7.1 5.28 10.49
4/24/2021 9:45:00 PM 8.88 47.984 0.237 7.1 5.25 10.47
4/24/2021 10:00:00 PM 8.86 47.948 0.237 7.1 5.32 10.44
4/24/2021 10:15:00 PM 8.83 47.894 0.237 7.1 5.17 10.42
4/24/2021 10:30:00 PM 8.81 47.858 0.237 7.1 5.28 10.41
4/24/2021 10:45:00 PM 8.8 47.84 0.237 7.1 5.33 10.38
4/24/2021 11:00:00 PM 8.79 47.822 0.237 7.09 5.41 10.36
4/24/2021 11:15:00 PM 8.77 47.786 0.237 7.09 5.56 10.35
4/24/2021 11:30:00 PM 8.76 47.768 0.238 7.09 5.86 10.33
4/24/2021 11:45:00 PM 8.75 47.75 0.238 7.09 6.22 10.31
4/25/2021 12:00:00 AM 8.74 47.732 0.239 7.09 6.57 10.3
4/25/2021 12:15:00 AM 8.73 47.714 0.239 7.08 6.7 10.28
4/25/2021 12:30:00 AM 8.71 47.678 0.238 7.08 6.64 10.26
4/25/2021 12:45:00 AM 8.7 47.66 0.238 7.07 6.17 10.23
4/25/2021 1:00:00 AM 8.68 47.624 0.238 7.06 6.42 10.21
4/25/2021 1:15:00 AM 8.67 47.606 0.238 7.05 6.5 10.18
4/25/2021 1:30:00 AM 8.66 47.588 0.238 7.05 6.27 10.17
4/25/2021 1:45:00 AM 8.65 47.57 0.237 7.05 6.21 10.16
4/25/2021 2:00:00 AM 8.63 47.534 0.237 7.04 6.23 10.15
4/25/2021 2:15:00 AM 8.62 47.516 0.236 7.05 5.98 10.14
4/25/2021 2:30:00 AM 8.6 47.48 0.236 7.04 5.86 10.14
4/25/2021 2:45:00 AM 8.59 47.462 0.235 7.05 6.01 10.14
4/25/2021 3:00:00 AM 8.57 47.426 0.236 7.05 5.86 10.14
4/25/2021 3:15:00 AM 8.56 47.408 0.236 7.05 5.89 10.14
4/25/2021 3:30:00 AM 8.54 47.372 0.236 7.05 5.76 10.14
4/25/2021 3:45:00 AM 8.52 47.336 0.236 7.05 5.73 10.14
4/25/2021 4:00:00 AM 8.5 47.3 0.237 7.05 5.87 10.13
4/25/2021 4:15:00 AM 8.49 47.282 0.237 7.05 5.75 10.12
4/25/2021 4:30:00 AM 8.47 47.246 0.236 7.04 5.69 10.12
4/25/2021 4:45:00 AM 8.46 47.228 0.236 7.05 5.93 10.12
4/25/2021 5:00:00 AM 8.44 47.192 0.235 7.05 5.65 10.12
4/25/2021 5:15:00 AM 8.42 47.156 0.235 7.05 5.7 10.12
4/25/2021 5:30:00 AM 8.4 47.12 0.235 7.05 5.63 10.12
4/25/2021 5:45:00 AM 8.38 47.084 0.235 7.05 5.7 10.13
4/25/2021 6:00:00 AM 8.36 47.048 0.235 7.05 5.74 10.13
4/25/2021 6:15:00 AM 8.35 47.03 0.235 7.06 5.69 10.13
4/25/2021 6:30:00 AM 8.33 46.994 0.235 7.06 5.56 10.14
4/25/2021 6:45:00 AM 8.32 46.976 0.235 7.06 5.62 10.15
4/25/2021 7:00:00 AM 8.3 46.94 0.235 7.06 5.56 10.16
4/25/2021 7:15:00 AM 8.29 46.922 0.235 7.06 5.5 10.18
4/25/2021 7:30:00 AM 8.27 46.886 0.235 7.06 5.52 10.2
4/25/2021 7:45:00 AM 8.28 46.904 0.234 7.07 5.51 10.25
4/25/2021 8:00:00 AM 8.28 46.904 0.234 7.08 5.9 10.3
4/25/2021 8:15:00 AM 8.32 46.976 0.234 7.09 5.3 10.39
4/25/2021 8:30:00 AM 8.38 47.084 0.234 7.11 5.36 10.5
4/25/2021 8:45:00 AM 8.44 47.192 0.233 7.12 5.39 10.6
4/25/2021 9:00:00 AM 8.5 47.3 0.233 7.13 5.24 10.68
4/25/2021 9:15:00 AM 8.55 47.39 0.231 7.14 6.25 10.74
4/25/2021 9:30:00 AM 8.59 47.462 0.232 7.15 5.25 10.81
4/25/2021 9:45:00 AM 8.68 47.624 0.232 7.16 5.19 10.88
4/25/2021 10:00:00 AM 8.77 47.786 0.232 7.18 5.24 10.95
4/25/2021 10:15:00 AM 8.85 47.93 0.232 7.19 5.3 11.01
4/25/2021 10:30:00 AM 8.95 48.11 0.232 7.19 5.23 11.06
4/25/2021 10:45:00 AM 9.09 48.362 0.232 7.21 5.35 11.12
4/25/2021 11:00:00 AM 9.33 48.794 0.231 7.23 5.32 11.18
4/25/2021 11:15:00 AM 9.4 48.92 0.231 7.23 5.2 11.2
4/25/2021 11:30:00 AM 9.53 49.154 0.23 7.23 5.25 11.21
4/25/2021 11:45:00 AM 9.61 49.298 0.23 7.24 5.27 11.22
4/25/2021 12:00:00 PM 9.71 49.478 0.23 7.24 5.23 11.23
4/25/2021 12:15:00 PM 9.69 49.442 0.229 7.24 5.37 11.21
4/25/2021 12:30:00 PM 9.71 49.478 0.229 7.24 5.32 11.2
4/25/2021 12:45:00 PM 9.97 49.946 0.229 7.27 5.29 11.25
4/25/2021 1:00:00 PM 9.86 49.748 0.229 7.26 5.38 11.23
4/25/2021 1:15:00 PM 9.9 49.82 0.228 7.26 5.37 11.25
4/25/2021 1:30:00 PM 9.97 49.946 0.228 7.27 5.37 11.26
4/25/2021 1:45:00 PM 9.93 49.874 0.228 7.26 5.4 11.21
4/25/2021 2:00:00 PM 9.9 49.82 0.228 7.25 5.34 11.2
4/25/2021 2:15:00 PM 10.18 50.324 0.228 7.28 5.37 11.25
4/25/2021 2:30:00 PM 10.14 50.252 0.228 7.28 5.39 11.27
4/25/2021 2:45:00 PM 10.25 50.45 0.227 7.29 5.26 11.29
4/25/2021 3:00:00 PM 10.12 50.216 0.227 7.27 5.37 11.22
4/25/2021 3:15:00 PM 10.18 50.324 0.227 7.28 5.39 11.26
4/25/2021 3:30:00 PM 10.43 50.774 0.227 7.31 5.3 11.3
4/25/2021 3:45:00 PM 10.6 51.08 0.226 7.32 5.32 11.33
4/25/2021 4:00:00 PM 10.71 51.278 0.226 7.33 5.33 11.35
4/25/2021 4:15:00 PM 10.56 51.008 0.226 7.31 5.4 11.25
4/25/2021 4:30:00 PM 10.64 51.152 0.226 7.32 5.37 11.25
4/25/2021 4:45:00 PM 10.66 51.188 0.226 7.32 5.85 11.26
4/25/2021 5:00:00 PM 10.61 51.098 0.226 7.31 5.36 11.25
4/25/2021 5:15:00 PM 10.64 51.152 0.226 7.31 5.38 11.25
4/25/2021 5:30:00 PM 10.66 51.188 0.225 7.3 5.44 11.25
4/25/2021 5:45:00 PM 10.63 51.134 0.225 7.3 5.41 11.24
4/25/2021 6:00:00 PM 10.61 51.098 0.225 7.3 5.41 11.22
4/25/2021 6:15:00 PM 10.57 51.026 0.225 7.31 5.46 11.2
4/25/2021 6:30:00 PM 10.48 50.864 0.225 7.3 5.33 11.17
4/25/2021 6:45:00 PM 10.36 50.648 0.225 7.29 5.55 11.12
4/25/2021 7:00:00 PM 10.23 50.414 0.224 7.28 5.51 11.07
4/25/2021 7:15:00 PM 10.1 50.18 0.225 7.28 5.54 11
4/25/2021 7:30:00 PM 9.97 49.946 0.225 7.27 5.38 10.95
4/25/2021 7:45:00 PM 9.86 49.748 0.225 7.26 5.51 10.89
4/25/2021 8:00:00 PM 9.74 49.532 0.225 7.25 5.31 10.82
4/25/2021 8:15:00 PM 9.62 49.316 0.225 7.24 5.28 10.76
4/25/2021 8:30:00 PM 9.5 49.1 0.225 7.23 5.63 10.69
4/25/2021 8:45:00 PM 9.41 48.938 0.225 7.22 5.5 10.64
4/25/2021 9:00:00 PM 9.3 48.74 0.225 7.21 5.48 10.59
4/25/2021 9:15:00 PM 9.22 48.596 0.225 7.2 5.41 10.56
4/25/2021 9:30:00 PM 9.13 48.434 0.225 7.2 5.61 10.53
4/25/2021 9:45:00 PM 9.04 48.272 0.225 7.2 5.64 10.51
4/25/2021 10:00:00 PM 8.96 48.128 0.226 7.19 5.59 10.49
4/25/2021 10:15:00 PM 8.89 48.002 0.226 7.19 5.81 10.47
4/25/2021 10:30:00 PM 8.82 47.876 0.226 7.19 5.58 10.46
4/25/2021 10:45:00 PM 8.75 47.75 0.226 7.18 5.69 10.46
4/25/2021 11:00:00 PM 8.68 47.624 0.226 7.18 5.59 10.44
4/25/2021 11:15:00 PM 8.61 47.498 0.226 7.18 5.54 10.44
4/25/2021 11:30:00 PM 8.54 47.372 0.227 7.18 5.77 10.44
4/25/2021 11:45:00 PM 8.48 47.264 0.226 7.18 5.58 10.43
4/26/2021 12:00:00 AM 8.43 47.174 0.227 7.17 5.86 10.43
4/26/2021 12:15:00 AM 8.36 47.048 0.227 7.17 5.45 10.42
4/26/2021 12:30:00 AM 8.3 46.94 0.227 7.17 5.63 10.42
4/26/2021 12:45:00 AM 8.24 46.832 0.227 7.17 5.63 10.43
4/26/2021 1:00:00 AM 8.17 46.706 0.227 7.17 5.65 10.43
4/26/2021 1:15:00 AM 8.12 46.616 0.228 7.17 5.54 10.43
4/26/2021 1:30:00 AM 8.05 46.49 0.228 7.18 5.64 10.43
4/26/2021 1:45:00 AM 7.99 46.382 0.228 7.17 5.57 10.44
4/26/2021 2:00:00 AM 7.94 46.292 0.228 7.17 5.62 10.45
4/26/2021 2:15:00 AM 7.87 46.166 0.228 7.17 5.49 10.45
4/26/2021 2:30:00 AM 7.82 46.076 0.228 7.17 5.78 10.45
4/26/2021 2:45:00 AM 7.77 45.986 0.229 7.17 5.62 10.45
4/26/2021 3:00:00 AM 7.71 45.878 0.229 7.17 5.67 10.46
4/26/2021 3:15:00 AM 7.66 45.788 0.229 7.17 5.56 10.47
4/26/2021 3:30:00 AM 7.6 45.68 0.229 7.17 5.64 10.47
4/26/2021 3:45:00 AM 7.54 45.572 0.229 7.16 5.78 10.48
4/26/2021 4:00:00 AM 7.48 45.464 0.23 7.17 5.77 10.48
4/26/2021 4:15:00 AM 7.43 45.374 0.23 7.17 5.78 10.49
4/26/2021 4:30:00 AM 7.38 45.284 0.23 7.17 5.76 10.5
4/26/2021 4:45:00 AM 7.34 45.212 0.23 7.17 5.67 10.51
4/26/2021 5:00:00 AM 7.29 45.122 0.23 7.17 5.65 10.51
4/26/2021 5:15:00 AM 7.24 45.032 0.23 7.17 5.63 10.53
4/26/2021 5:30:00 AM 7.19 44.942 0.231 7.17 5.76 10.53
4/26/2021 5:45:00 AM 7.14 44.852 0.231 7.17 5.65 10.54
4/26/2021 6:00:00 AM 7.1 44.78 0.231 7.17 5.69 10.55
4/26/2021 6:15:00 AM 7.04 44.672 0.231 7.17 5.59 10.56
4/26/2021 6:30:00 AM 6.99 44.582 0.232 7.17 5.48 10.58
4/26/2021 6:45:00 AM 6.96 44.528 0.232 7.17 5.53 10.61
4/26/2021 7:00:00 AM 6.92 44.456 0.232 7.17 5.51 10.65
4/26/2021 7:15:00 AM 6.89 44.402 0.232 7.18 5.44 10.71
4/26/2021 7:30:00 AM 6.88 44.384 0.232 7.19 5.46 10.79
4/26/2021 7:45:00 AM 6.88 44.384 0.233 7.2 5.35 10.86
4/26/2021 8:00:00 AM 6.88 44.384 0.233 7.21 5.5 10.94
4/26/2021 8:15:00 AM 6.93 44.474 0.233 7.21 5.37 11.01
4/26/2021 8:30:00 AM 6.99 44.582 0.233 7.23 5.37 11.1
4/26/2021 8:45:00 AM 7.08 44.744 0.233 7.24 5.33 11.17
4/26/2021 9:00:00 AM 7.18 44.924 0.233 7.25 5.32 11.25
4/26/2021 9:15:00 AM 7.31 45.158 0.233 7.26 5.26 11.31
4/26/2021 9:30:00 AM 7.49 45.482 0.233 7.27 5.42 11.36
4/26/2021 9:45:00 AM 7.67 45.806 0.232 7.29 5.46 11.41
4/26/2021 10:00:00 AM 7.87 46.166 0.232 7.29 5.34 11.46
4/26/2021 10:15:00 AM 8.1 46.58 0.232 7.3 5.43 11.49
4/26/2021 10:30:00 AM 8.33 46.994 0.233 7.31 5.39 11.53
4/26/2021 10:45:00 AM 8.59 47.462 0.233 7.31 5.37 11.55
4/26/2021 11:00:00 AM 8.85 47.93 0.233 7.32 5.34 11.57
4/26/2021 11:15:00 AM 9.13 48.434 0.232 7.32 5.39 11.58
4/26/2021 11:30:00 AM 9.43 48.974 0.233 7.33 5.42 11.6
4/26/2021 11:45:00 AM 9.72 49.496 0.233 7.33 5.39 11.6
4/26/2021 12:00:00 PM 9.98 49.964 0.233 7.34 5.31 11.61
4/26/2021 12:15:00 PM 10.26 50.468 0.233 7.35 5.38 11.6
4/26/2021 12:30:00 PM 10.55 50.99 0.233 7.35 5.43 11.6
4/26/2021 12:45:00 PM 10.83 51.494 0.233 7.35 5.34 11.59
4/26/2021 1:00:00 PM 11.11 51.998 0.233 7.36 5.37 11.59
4/26/2021 1:15:00 PM 11.37 52.466 0.233 7.36 5.29 11.58
4/26/2021 1:30:00 PM 11.63 52.934 0.233 7.37 5.43 11.57
4/26/2021 1:45:00 PM 11.88 53.384 0.233 7.37 5.3 11.56
4/26/2021 2:00:00 PM 12.1 53.78 0.233 7.37 5.38 11.54
4/26/2021 2:15:00 PM 12.31 54.158 0.233 7.38 5.53 11.53
4/26/2021 2:30:00 PM 12.5 54.5 0.234 7.39 5.28 11.51
4/26/2021 2:45:00 PM 12.65 54.77 0.233 7.39 5.24 11.51
4/26/2021 3:00:00 PM 12.8 55.04 0.233 7.38 5.24 11.49
4/26/2021 3:15:00 PM 12.91 55.238 0.234 7.39 5.39 11.46
4/26/2021 3:30:00 PM 13.02 55.436 0.234 7.39 5.3 11.45
4/26/2021 3:45:00 PM 13.1 55.58 0.234 7.38 5.31 11.43
4/26/2021 4:00:00 PM 13.15 55.67 0.234 7.38 5.23 11.4
4/26/2021 4:15:00 PM 13.16 55.688 0.234 7.38 5.31 11.38
4/26/2021 4:30:00 PM 13.14 55.652 0.234 7.37 5.27 11.36
4/26/2021 4:45:00 PM 13.13 55.634 0.234 7.36 5.17 11.33
4/26/2021 5:00:00 PM 13.09 55.562 0.234 7.36 5.32 11.3
4/26/2021 5:15:00 PM 13.02 55.436 0.234 7.35 5.19 11.28
4/26/2021 5:30:00 PM 12.95 55.31 0.234 7.34 5.39 11.24
4/26/2021 5:45:00 PM 12.84 55.112 0.234 7.34 5.21 11.2
4/26/2021 6:00:00 PM 12.7 54.86 0.234 7.33 5.23 11.15
4/26/2021 6:15:00 PM 12.55 54.59 0.235 7.32 5.36 11.1
4/26/2021 6:30:00 PM 12.36 54.248 0.235 7.3 5.25 11.03
4/26/2021 6:45:00 PM 12.15 53.87 0.235 7.28 5.64 10.97
4/26/2021 7:00:00 PM 11.94 53.492 0.235 7.27 5.41 10.9
4/26/2021 7:15:00 PM 11.76 53.168 0.236 7.26 5.54 10.82
4/26/2021 7:30:00 PM 11.6 52.88 0.236 7.24 5.38 10.75
4/26/2021 7:45:00 PM 11.46 52.628 0.236 7.23 5.21 10.68
4/26/2021 8:00:00 PM 11.35 52.43 0.236 7.22 5.17 10.6
4/26/2021 8:15:00 PM 11.23 52.214 0.236 7.2 5.13 10.51
4/26/2021 8:30:00 PM 11.11 51.998 0.236 7.19 5.3 10.44
4/26/2021 8:45:00 PM 11 51.8 0.237 7.18 5.31 10.37
4/26/2021 9:00:00 PM 10.9 51.62 0.237 7.17 5.25 10.31
4/26/2021 9:15:00 PM 10.8 51.44 0.237 7.15 5.44 10.26
4/26/2021 9:30:00 PM 10.7 51.26 0.237 7.15 5.28 10.21
4/26/2021 9:45:00 PM 10.61 51.098 0.237 7.14 5.7 10.18
4/26/2021 10:00:00 PM 10.51 50.918 0.237 7.13 5.4 10.15
4/26/2021 10:15:00 PM 10.43 50.774 0.237 7.13 5.43 10.12
4/26/2021 10:30:00 PM 10.33 50.594 0.238 7.13 5.51 10.11
4/26/2021 10:45:00 PM 10.23 50.414 0.238 7.12 5.74 10.09
4/26/2021 11:00:00 PM 10.14 50.252 0.238 7.12 5.77 10.08
4/26/2021 11:15:00 PM 10.05 50.09 0.238 7.12 5.53 10.08
4/26/2021 11:30:00 PM 9.96 49.928 0.238 7.12 5.44 10.06
4/26/2021 11:45:00 PM 9.87 49.766 0.238 7.12 5.38 10.06
4/27/2021 12:00:00 AM 9.79 49.622 0.238 7.11 5.51 10.06
4/27/2021 12:15:00 AM 9.71 49.478 0.238 7.12 5.52 10.06
4/27/2021 12:30:00 AM 9.65 49.37 0.238 7.11 5.56 10.06
4/27/2021 12:45:00 AM 9.63 49.334 0.238 7.12 5.57 10.05
4/27/2021 1:00:00 AM 9.59 49.262 0.239 7.12 5.31 10.05
4/27/2021 1:15:00 AM 9.55 49.19 0.239 7.12 5.65 10.05
4/27/2021 1:30:00 AM 9.53 49.154 0.239 7.12 5.58 10.03
4/27/2021 1:45:00 AM 9.51 49.118 0.239 7.11 5.52 10.02
4/27/2021 2:00:00 AM 9.47 49.046 0.239 7.11 5.59 10.01
4/27/2021 2:15:00 AM 9.46 49.028 0.239 7.1 5.63 10
4/27/2021 2:30:00 AM 9.45 49.01 0.239 7.11 5.6 10
4/27/2021 2:45:00 AM 9.43 48.974 0.239 7.1 5.49 10
4/27/2021 3:00:00 AM 9.41 48.938 0.239 7.1 5.69 10
4/27/2021 3:15:00 AM 9.39 48.902 0.239 7.1 5.58 9.99
4/27/2021 3:30:00 AM 9.37 48.866 0.239 7.1 5.58 9.99
4/27/2021 3:45:00 AM 9.32 48.776 0.239 7.1 5.5 9.98
4/27/2021 4:00:00 AM 9.27 48.686 0.239 7.09 5.55 9.98
4/27/2021 4:15:00 AM 9.22 48.596 0.24 7.09 5.52 9.97
4/27/2021 4:30:00 AM 9.17 48.506 0.24 7.09 5.49 9.97
4/27/2021 4:45:00 AM 9.12 48.416 0.24 7.1 5.57 9.98
4/27/2021 5:00:00 AM 9.07 48.326 0.24 7.09 5.51 9.98
4/27/2021 5:15:00 AM 9.02 48.236 0.24 7.09 5.42 9.98
4/27/2021 5:30:00 AM 8.97 48.146 0.24 7.09 5.48 9.99
4/27/2021 5:45:00 AM 8.92 48.056 0.24 7.09 5.48 9.99
4/27/2021 6:00:00 AM 8.87 47.966 0.24 7.09 5.57 10
4/27/2021 6:15:00 AM 8.82 47.876 0.24 7.09 5.52 10
4/27/2021 6:30:00 AM 8.78 47.804 0.24 7.1 5.4 10.02
4/27/2021 6:45:00 AM 8.75 47.75 0.24 7.1 5.36 10.06
4/27/2021 7:00:00 AM 8.72 47.696 0.24 7.11 6.04 10.1
4/27/2021 7:15:00 AM 8.71 47.678 0.24 7.11 5.39 10.16
4/27/2021 7:30:00 AM 8.72 47.696 0.24 7.12 5.21 10.24
4/27/2021 7:45:00 AM 8.75 47.75 0.24 7.14 5.17 10.33
4/27/2021 8:00:00 AM 8.8 47.84 0.24 7.14 5.21 10.42
4/27/2021 8:15:00 AM 8.87 47.966 0.24 7.16 5.1 10.5
4/27/2021 8:30:00 AM 8.97 48.146 0.24 7.17 5.28 10.59
4/27/2021 8:45:00 AM 9.12 48.416 0.24 7.18 5.28 10.68
4/27/2021 9:00:00 AM 9.31 48.758 0.24 7.2 5.07 10.75
4/27/2021 9:15:00 AM 9.52 49.136 0.24 7.21 5.24 10.82
4/27/2021 9:30:00 AM 9.75 49.55 0.24 7.22 5.12 10.87
4/27/2021 9:45:00 AM 10.01 50.018 0.24 7.23 5.39 10.92
4/27/2021 10:00:00 AM 10.27 50.486 0.24 7.24 5.23 10.97
4/27/2021 10:15:00 AM 10.58 51.044 0.24 7.25 5.3 11.01
4/27/2021 10:30:00 AM 10.9 51.62 0.24 7.25 5.2 11.04
4/27/2021 10:45:00 AM 11.23 52.214 0.239 7.26 5.82 11.05
4/27/2021 11:00:00 AM 11.57 52.826 0.239 7.27 5.32 11.09
4/27/2021 11:15:00 AM 11.9 53.42 0.239 7.27 5.19 11.11
4/27/2021 11:30:00 AM 12.26 54.068 0.238 7.28 5.12 11.12
4/27/2021 11:45:00 AM 12.6 54.68 0.239 7.29 5.29 11.13
4/27/2021 12:00:00 PM 12.94 55.292 0.239 7.29 5.27 11.13
4/27/2021 12:15:00 PM 13.28 55.904 0.239 7.3 5.24 11.14
4/27/2021 12:30:00 PM 13.61 56.498 0.239 7.3 5.14 11.14
4/27/2021 12:45:00 PM 13.94 57.092 0.239 7.3 5.3 11.14
4/27/2021 1:00:00 PM 14.26 57.668 0.239 7.31 5.23 11.13
4/27/2021 1:15:00 PM 14.55 58.19 0.238 7.33 5.06 11.13
4/27/2021 1:30:00 PM 14.86 58.748 0.238 7.34 5.13 11.11
4/27/2021 1:45:00 PM 15.15 59.27 0.239 7.35 5.24 11.1
4/27/2021 2:00:00 PM 15.41 59.738 0.239 7.36 5.2 11.09
4/27/2021 2:15:00 PM 15.62 60.116 0.239 7.37 5.11 11.06
4/27/2021 2:30:00 PM 15.77 60.386 0.239 7.36 5.2 11.05
4/27/2021 2:45:00 PM 16 60.8 0.239 7.36 5.09 11.05
4/27/2021 3:00:00 PM 16.19 61.142 0.239 7.36 5.09 11.03
4/27/2021 3:15:00 PM 16.24 61.232 0.239 7.36 4.99 11
4/27/2021 3:30:00 PM 16.38 61.484 0.239 7.36 5.23 10.98
4/27/2021 3:45:00 PM 16.5 61.7 0.239 7.37 5.02 10.96
4/27/2021 4:00:00 PM 16.55 61.79 0.239 7.37 5.2 10.92
4/27/2021 4:15:00 PM 16.55 61.79 0.239 7.4 5.26 10.89
4/27/2021 4:30:00 PM 16.51 61.718 0.239 7.4 5.31 10.85
4/27/2021 4:45:00 PM 16.51 61.718 0.239 7.4 5.27 10.82
4/27/2021 5:00:00 PM 16.42 61.556 0.239 7.39 5.29 10.78
4/27/2021 5:15:00 PM 16.35 61.43 0.239 7.37 5.18 10.76
4/27/2021 5:30:00 PM 16.26 61.268 0.239 7.36 5.31 10.73
4/27/2021 5:45:00 PM 16.17 61.106 0.239 7.35 5.16 10.69
4/27/2021 6:00:00 PM 16.04 60.872 0.239 7.35 5.18 10.63
4/27/2021 6:15:00 PM 15.88 60.584 0.239 7.33 5.31 10.56
4/27/2021 6:30:00 PM 15.74 60.332 0.239 7.33 5.22 10.5
4/27/2021 6:45:00 PM 15.57 60.026 0.239 7.3 5.21 10.44
4/27/2021 7:00:00 PM 15.39 59.702 0.24 7.28 5.65 10.35
4/27/2021 7:15:00 PM 15.21 59.378 0.24 7.26 5.34 10.23
4/27/2021 7:30:00 PM 15.06 59.108 0.24 7.24 5.47 10.11
4/27/2021 7:45:00 PM 14.91 58.838 0.241 7.22 5.44 9.98
4/27/2021 8:00:00 PM 14.76 58.568 0.241 7.2 5.35 9.86
4/27/2021 8:15:00 PM 14.62 58.316 0.241 7.18 5.29 9.75
4/27/2021 8:30:00 PM 14.5 58.1 0.241 7.16 5.43 9.64
4/27/2021 8:45:00 PM 14.38 57.884 0.241 7.15 5.39 9.55
4/27/2021 9:00:00 PM 14.25 57.65 0.242 7.12 5.83 9.47
4/27/2021 9:15:00 PM 14.14 57.452 0.242 7.11 5.66 9.4
4/27/2021 9:30:00 PM 14.03 57.254 0.242 7.1 5.89 9.35
4/27/2021 9:45:00 PM 13.92 57.056 0.242 7.09 5.61 9.29
4/27/2021 10:00:00 PM 13.81 56.858 0.242 7.08 6.12 9.25
4/27/2021 10:15:00 PM 13.71 56.678 0.242 7.07 5.82 9.23
4/27/2021 10:30:00 PM 13.61 56.498 0.242 7.07 5.88 9.19
4/27/2021 10:45:00 PM 13.51 56.318 0.242 7.06 5.84 9.17
4/27/2021 11:00:00 PM 13.41 56.138 0.245 7.06 7.07 9.15
4/27/2021 11:15:00 PM 13.32 55.976 0.243 7.06 6.12 9.14
4/27/2021 11:30:00 PM 13.23 55.814 0.242 7.06 6.34 9.13
4/27/2021 11:45:00 PM 13.14 55.652 0.242 7.06 6.09 9.12
4/28/2021 12:00:00 AM 13.06 55.508 0.242 7.06 5.8 9.11
4/28/2021 12:15:00 AM 12.99 55.382 0.242 7.03 6.08 9.1
4/28/2021 12:30:00 AM 12.92 55.256 0.242 7.03 5.97 9.1
4/28/2021 12:45:00 AM 12.85 55.13 0.242 7.03 6.12 9.09
4/28/2021 1:00:00 AM 12.78 55.004 0.242 7.03 6.15 9.08
4/28/2021 1:15:00 AM 12.73 54.914 0.242 7.03 6.19 9.09
4/28/2021 1:30:00 AM 12.67 54.806 0.242 7.03 6.38 9.08
4/28/2021 1:45:00 AM 12.62 54.716 0.242 7.03 6.35 9.08
4/28/2021 2:00:00 AM 12.56 54.608 0.242 7.03 6.01 9.08
4/28/2021 2:15:00 AM 12.52 54.536 0.242 7.03 6.31 9.07
4/28/2021 2:30:00 AM 12.5 54.5 0.242 7.04 5.96 9.07
4/28/2021 2:45:00 AM 12.48 54.464 0.243 7.04 6.1 9.06
4/28/2021 3:00:00 AM 12.46 54.428 0.242 7.04 6.02 9.06
4/28/2021 3:15:00 AM 12.44 54.392 0.243 7.04 6.19 9.06
4/28/2021 3:30:00 AM 12.42 54.356 0.242 7.04 7.82 9.05
4/28/2021 3:45:00 AM 12.4 54.32 0.243 7.04 6.24 9.06
4/28/2021 4:00:00 AM 12.39 54.302 0.243 7.03 6.14 9.05
4/28/2021 4:15:00 AM 12.37 54.266 0.243 7.04 6.08 9.04
4/28/2021 4:30:00 AM 12.36 54.248 0.243 7.04 6.11 9.04
4/28/2021 4:45:00 AM 12.34 54.212 0.243 7.04 6.19 9.04
4/28/2021 5:00:00 AM 12.34 54.212 0.243 7.03 6.57 9.03
4/28/2021 5:15:00 AM 12.33 54.194 0.243 7.03 6.65 9.02
4/28/2021 5:30:00 AM 12.32 54.176 0.243 7.03 6.28 9.02
4/28/2021 5:45:00 AM 12.31 54.158 0.243 7.03 6.48 9.01
4/28/2021 6:00:00 AM 12.29 54.122 0.243 7.03 6.17 9.01
4/28/2021 6:15:00 AM 12.28 54.104 0.244 7.03 6.09 8.99
4/28/2021 6:30:00 AM 12.27 54.086 0.244 7.03 6.04 9.01
4/28/2021 6:45:00 AM 12.26 54.068 0.244 7.03 5.92 9.04
4/28/2021 7:00:00 AM 12.27 54.086 0.244 7.04 5.69 9.08
4/28/2021 7:15:00 AM 12.27 54.086 0.244 7.04 5.97 9.13
4/28/2021 7:30:00 AM 12.28 54.104 0.244 7.05 5.88 9.19
4/28/2021 7:45:00 AM 12.31 54.158 0.244 7.06 5.96 9.28
4/28/2021 8:00:00 AM 12.37 54.266 0.244 7.08 5.69 9.4
4/28/2021 8:15:00 AM 12.43 54.374 0.244 7.08 5.86 9.49
4/28/2021 8:30:00 AM 12.49 54.482 0.244 7.09 5.82 9.59
4/28/2021 8:45:00 AM 12.57 54.626 0.244 7.11 5.94 9.69
4/28/2021 9:00:00 AM 12.75 54.95 0.244 7.13 5.79 9.82
4/28/2021 9:15:00 AM 12.94 55.292 0.244 7.15 5.84 9.94
4/28/2021 9:30:00 AM 13.19 55.742 0.244 7.17 5.87 10.05
4/28/2021 9:45:00 AM 13.37 56.066 0.244 7.18 5.69 10.13
4/28/2021 10:00:00 AM 13.59 56.462 0.244 7.2 5.97 10.22
4/28/2021 10:15:00 AM 13.81 56.858 0.244 7.21 5.89 10.28
4/28/2021 10:30:00 AM 13.89 57.002 0.244 7.21 5.82 10.3
4/28/2021 10:45:00 AM 14.01 57.218 0.244 7.22 5.84 10.36
4/28/2021 11:00:00 AM 14.18 57.524 0.244 7.24 5.83 10.42
4/28/2021 11:15:00 AM 14.4 57.92 0.243 7.25 5.86 10.48
4/28/2021 11:30:00 AM 14.6 58.28 0.243 7.27 5.62 10.53
4/28/2021 11:45:00 AM 14.79 58.622 0.243 7.3 5.59 10.58
4/28/2021 12:00:00 PM 15.05 59.09 0.243 7.32 5.77 10.64
4/28/2021 12:15:00 PM 15.24 59.432 0.243 7.33 5.7 10.67
4/28/2021 12:30:00 PM 15.51 59.918 0.243 7.35 5.69 10.7
4/28/2021 12:45:00 PM 15.88 60.584 0.243 7.37 5.89 10.74
4/28/2021 1:00:00 PM 16.02 60.836 0.243 7.38 5.67 10.74
4/28/2021 1:15:00 PM 16.42 61.556 0.243 7.4 5.69 10.77
4/28/2021 1:30:00 PM 16.54 61.772 0.243 7.42 5.69 10.74
4/28/2021 1:45:00 PM 16.72 62.096 0.243 7.43 5.77 10.75
4/28/2021 2:00:00 PM 16.84 62.312 0.243 7.45 5.69 10.75
4/28/2021 2:15:00 PM 17.05 62.69 0.242 7.46 5.76 10.74
4/28/2021 2:30:00 PM 17.26 63.068 0.242 7.48 6.53 10.75
4/28/2021 2:45:00 PM 17.33 63.194 0.242 7.49 5.84 10.73
4/28/2021 3:00:00 PM 17.35 63.23 0.242 7.5 5.84 10.71
4/28/2021 3:15:00 PM 17.4 63.32 0.242 7.5 5.9 10.68
4/28/2021 3:30:00 PM 17.45 63.41 0.242 7.5 5.89 10.66
4/28/2021 3:45:00 PM 17.37 63.266 0.242 7.49 6.54 10.62
4/28/2021 4:00:00 PM 17.31 63.158 0.243 7.48 5.94 10.57
4/28/2021 4:15:00 PM 17.29 63.122 0.242 7.47 6.15 10.54
4/28/2021 4:30:00 PM 17.21 62.978 0.243 7.46 6.12 10.48
4/28/2021 4:45:00 PM 17.1 62.78 0.243 7.44 6.36 10.41
4/28/2021 5:00:00 PM 17.01 62.618 0.243 7.42 6.34 10.36
4/28/2021 5:15:00 PM 16.98 62.564 0.243 7.42 6.27 10.35
4/28/2021 5:30:00 PM 16.96 62.528 0.243 7.42 6.28 10.36
4/28/2021 5:45:00 PM 16.9 62.42 0.243 7.41 6.1 10.32
4/28/2021 6:00:00 PM 16.84 62.312 0.244 7.4 5.96 10.26
4/28/2021 6:15:00 PM 16.77 62.186 0.243 7.38 6.11 10.12
4/28/2021 6:30:00 PM 16.69 62.042 0.243 7.36 6.07 10.04
4/28/2021 6:45:00 PM 16.61 61.898 0.243 7.34 6.05 9.97
4/28/2021 7:00:00 PM 16.53 61.754 0.244 7.32 6.25 9.89
4/28/2021 7:15:00 PM 16.45 61.61 0.244 7.29 6.52 9.78
4/28/2021 7:30:00 PM 16.36 61.448 0.244 7.27 6.22 9.65
4/28/2021 7:45:00 PM 16.26 61.268 0.245 7.25 6.15 9.54
4/28/2021 8:00:00 PM 16.16 61.088 0.245 7.23 6.27 9.42
4/28/2021 8:15:00 PM 16.06 60.908 0.245 7.21 6.25 9.29
4/28/2021 8:30:00 PM 15.98 60.764 0.245 7.19 6.38 9.18
4/28/2021 8:45:00 PM 15.89 60.602 0.246 7.16 6.68 9.09
4/28/2021 9:00:00 PM 15.81 60.458 0.246 7.15 6.69 9.01
4/28/2021 9:15:00 PM 15.73 60.314 0.246 7.14 7.65 8.94
4/28/2021 9:30:00 PM 15.65 60.17 0.246 7.12 7.31 8.88
4/28/2021 9:45:00 PM 15.6 60.08 0.246 7.11 7.11 8.82
4/28/2021 10:00:00 PM 15.54 59.972 0.246 7.1 6.45 8.78
4/28/2021 10:15:00 PM 15.5 59.9 0.247 7.1 7.32 8.73
4/28/2021 10:30:00 PM 15.45 59.81 0.247 7.09 7.65 8.7
4/28/2021 10:45:00 PM 15.41 59.738 0.247 7.08 7.01 8.67
4/28/2021 11:00:00 PM 15.35 59.63 0.247 7.07 6.66 8.64
4/28/2021 11:15:00 PM 15.31 59.558 0.247 7.07 7.45 8.61
4/28/2021 11:30:00 PM 15.28 59.504 0.247 7.07 6.3 8.59
4/28/2021 11:45:00 PM 15.26 59.468 0.247 7.07 6.31 8.58
4/29/2021 12:00:00 AM 15.24 59.432 0.247 7.07 6.27 8.56
4/29/2021 12:15:00 AM 15.21 59.378 0.247 7.07 6.29 8.53
4/29/2021 12:30:00 AM 15.19 59.342 0.247 7.07 6.54 8.51
4/29/2021 12:45:00 AM 15.19 59.342 0.247 7.06 6.46 8.49
4/29/2021 1:00:00 AM 15.18 59.324 0.247 7.05 6.55 8.48
4/29/2021 1:15:00 AM 15.15 59.27 0.247 7.05 7.21 8.45
4/29/2021 1:30:00 AM 15.13 59.234 0.247 7.05 6.5 8.44
4/29/2021 1:45:00 AM 15.12 59.216 0.247 7.05 6.26 8.43
4/29/2021 2:00:00 AM 15.09 59.162 0.247 7.04 6.35 8.4
4/29/2021 2:15:00 AM 15.07 59.126 0.247 7.04 6.16 8.39
4/29/2021 2:30:00 AM 15.04 59.072 0.247 7.03 6.84 8.38
4/29/2021 2:45:00 AM 15.02 59.036 0.247 7.03 6.7 8.35
4/29/2021 3:00:00 AM 14.99 58.982 0.248 7.02 6.42 8.34
4/29/2021 3:15:00 AM 14.96 58.928 0.248 7.02 6.15 8.33
4/29/2021 3:30:00 AM 14.93 58.874 0.248 7.02 6.7 8.34
4/29/2021 3:45:00 AM 14.9 58.82 0.248 7.02 6.42 8.34
4/29/2021 4:00:00 AM 14.89 58.802 0.248 7.02 6.21 8.34
4/29/2021 4:15:00 AM 14.87 58.766 0.248 7.02 6.38 8.33
4/29/2021 4:30:00 AM 14.85 58.73 0.248 7.03 6.54 8.33
4/29/2021 4:45:00 AM 14.84 58.712 0.248 7.03 7.09 8.33
4/29/2021 5:00:00 AM 14.83 58.694 0.248 7.03 6.43 8.32
4/29/2021 5:15:00 AM 14.81 58.658 0.248 7.03 6.55 8.32
4/29/2021 5:30:00 AM 14.79 58.622 0.249 7.03 6.86 8.32
4/29/2021 5:45:00 AM 14.78 58.604 0.249 7.04 6.36 8.32
4/29/2021 6:00:00 AM 14.76 58.568 0.249 7.04 6.38 8.32
4/29/2021 6:15:00 AM 14.75 58.55 0.249 7.03 6.41 8.3
4/29/2021 6:30:00 AM 14.73 58.514 0.249 7.04 6.26 8.32
4/29/2021 6:45:00 AM 14.71 58.478 0.25 7.04 6.54 8.36
4/29/2021 7:00:00 AM 14.71 58.478 0.25 7.05 6.2 8.39
4/29/2021 7:15:00 AM 14.72 58.496 0.25 7.05 5.93 8.45
4/29/2021 7:30:00 AM 14.74 58.532 0.25 7.06 6.02 8.5
4/29/2021 7:45:00 AM 14.75 58.55 0.25 7.06 6.1 8.53
4/29/2021 8:00:00 AM 14.77 58.586 0.25 7.07 5.89 8.6
4/29/2021 8:15:00 AM 14.82 58.676 0.25 7.09 5.91 8.71
4/29/2021 8:30:00 AM 14.89 58.802 0.25 7.1 5.86 8.84
4/29/2021 8:45:00 AM 14.91 58.838 0.25 7.1 6.15 8.87
4/29/2021 9:00:00 AM 14.93 58.874 0.25 7.11 6.05 8.92
4/29/2021 9:15:00 AM 14.95 58.91 0.25 7.11 5.86 8.95
4/29/2021 9:30:00 AM 14.98 58.964 0.25 7.12 5.98 9.02
4/29/2021 9:45:00 AM 15 59 0.25 7.12 6.59 9.04
4/29/2021 10:00:00 AM 15 59 0.25 7.12 6.95 9.05
4/29/2021 10:15:00 AM 15.03 59.054 0.25 7.13 7.05 9.11
4/29/2021 10:30:00 AM 15.06 59.108 0.25 7.14 8.34 9.16
4/29/2021 10:45:00 AM 15.05 59.09 0.251 7.14 9.46 9.12
4/29/2021 11:00:00 AM 15.14 59.252 0.247 7.15 19.46 9.11
4/29/2021 11:15:00 AM 15.15 59.27 0.248 7.16 11.92 9.19
4/29/2021 11:30:00 AM 15.14 59.252 0.25 7.15 11.39 9.21
4/29/2021 11:45:00 AM 15.16 59.288 0.252 7.14 11.95 9.23
4/29/2021 12:00:00 PM 15.2 59.36 0.251 7.14 11.53 9.27
4/29/2021 12:15:00 PM 15.28 59.504 0.248 7.16 11.29 9.32
4/29/2021 12:30:00 PM 15.35 59.63 0.245 7.17 10.9 9.38
4/29/2021 12:45:00 PM 15.42 59.756 0.243 7.19 11.34 9.44
4/29/2021 1:00:00 PM 15.46 59.828 0.243 7.19 9.7 9.49
4/29/2021 1:15:00 PM 15.51 59.918 0.244 7.2 8.67 9.57
4/29/2021 1:30:00 PM 15.54 59.972 0.244 7.2 9.05 9.57
4/29/2021 1:45:00 PM 15.54 59.972 0.243 7.2 8.8 9.51
4/29/2021 2:00:00 PM 15.59 60.062 0.243 7.2 8.32 9.53
4/29/2021 2:15:00 PM 15.69 60.242 0.243 7.23 7.77 9.66
4/29/2021 2:30:00 PM 15.72 60.296 0.243 7.23 7.65 9.68
4/29/2021 2:45:00 PM 15.71 60.278 0.243 7.22 7.62 9.63
4/29/2021 3:00:00 PM 15.77 60.386 0.242 7.23 7.23 9.68
4/29/2021 3:15:00 PM 15.78 60.404 0.242 7.24 7.35 9.65
4/29/2021 3:30:00 PM 15.76 60.368 0.242 7.24 7.3 9.58
4/29/2021 3:45:00 PM 15.74 60.332 0.242 7.23 7.35 9.52
4/29/2021 4:00:00 PM 15.75 60.35 0.242 7.23 7.1 9.51
4/29/2021 4:15:00 PM 15.82 60.476 0.242 7.26 6.99 9.61
4/29/2021 4:30:00 PM 15.9 60.62 0.242 7.27 7.56 9.69
4/29/2021 4:45:00 PM 15.98 60.764 0.241 7.29 7.31 9.74
4/29/2021 5:00:00 PM 16.05 60.89 0.241 7.3 7.15 9.79
4/29/2021 5:15:00 PM 16.03 60.854 0.241 7.3 6.95 9.71
4/29/2021 5:30:00 PM 15.99 60.782 0.24 7.27 7.2 9.55
4/29/2021 5:45:00 PM 15.98 60.764 0.24 7.26 7.44 9.5
4/29/2021 6:00:00 PM 15.94 60.692 0.239 7.25 7.22 9.44
4/29/2021 6:15:00 PM 15.89 60.602 0.239 7.24 6.99 9.41
4/29/2021 6:30:00 PM 15.83 60.494 0.24 7.23 7.4 9.35
4/29/2021 6:45:00 PM 15.75 60.35 0.24 7.22 7.18 9.24
4/29/2021 7:00:00 PM 15.74 60.332 0.236 7.26 54.86 9.11
4/29/2021 7:15:00 PM 15.67 60.206 0.235 7.27 27.6 9.01
4/29/2021 7:30:00 PM 15.54 59.972 0.238 7.23 20.55 8.94
4/29/2021 7:45:00 PM 15.5 59.9 0.233 7.24 31.7 8.82
4/29/2021 8:00:00 PM 15.45 59.81 0.228 7.23 26.4 8.74
4/29/2021 8:15:00 PM 15.38 59.684 0.226 7.22 25.08 8.69
4/29/2021 8:30:00 PM 15.32 59.576 0.221 7.2 25.97 8.65
4/29/2021 8:45:00 PM 15.25 59.45 0.219 7.19 22.7 8.62
4/29/2021 9:00:00 PM 15.18 59.324 0.219 7.18 19.45 8.61
4/29/2021 9:15:00 PM 15.11 59.198 0.221 7.16 17.96 8.59
4/29/2021 9:30:00 PM 15.05 59.09 0.222 7.15 17.08 8.57
4/29/2021 9:45:00 PM 14.98 58.964 0.224 7.14 14.87 8.55
4/29/2021 10:00:00 PM 14.93 58.874 0.226 7.14 13.88 8.54
4/29/2021 10:15:00 PM 14.88 58.784 0.227 7.13 13.89 8.53
4/29/2021 10:30:00 PM 14.81 58.658 0.229 7.13 13.82 8.54
4/29/2021 10:45:00 PM 14.75 58.55 0.231 7.13 14.63 8.55
4/29/2021 11:00:00 PM 14.68 58.424 0.233 7.13 14.84 8.56
4/29/2021 11:15:00 PM 14.59 58.262 0.236 7.14 15.56 8.58
4/29/2021 11:30:00 PM 14.52 58.136 0.236 7.14 14.76 8.6
4/29/2021 11:45:00 PM 14.44 57.992 0.237 7.14 16.1 8.62
4/30/2021 12:00:00 AM 14.28 57.704 0.245 7.15 21.29 8.66
4/30/2021 12:15:00 AM 14.18 57.524 0.244 7.16 21.74 8.71
4/30/2021 12:30:00 AM 14.13 57.434 0.24 7.16 18.67 8.71
4/30/2021 12:45:00 AM 14.1 57.38 0.237 7.17 17.57 8.71
4/30/2021 1:00:00 AM 14.07 57.326 0.234 7.18 17.49 8.71
4/30/2021 1:15:00 AM 14.03 57.254 0.234 7.18 16.93 8.7
4/30/2021 1:30:00 AM 14 57.2 0.232 7.18 18.99 8.68
4/30/2021 1:45:00 AM 13.95 57.11 0.23 7.18 18.49 8.68
4/30/2021 2:00:00 AM 13.91 57.038 0.229 7.18 16.33 8.68
4/30/2021 2:15:00 AM 13.86 56.948 0.227 7.18 15.71 8.69
4/30/2021 2:30:00 AM 13.84 56.912 0.224 7.18 15.84 8.68
4/30/2021 2:45:00 AM 13.81 56.858 0.222 7.18 14.67 8.69
4/30/2021 3:00:00 AM 13.79 56.822 0.219 7.18 15.66 8.69
4/30/2021 3:15:00 AM 13.77 56.786 0.217 7.19 13.82 8.69
4/30/2021 3:30:00 AM 13.75 56.75 0.216 7.19 13.97 8.68
4/30/2021 3:45:00 AM 13.72 56.696 0.216 7.19 13.57 8.68
4/30/2021 4:00:00 AM 13.69 56.642 0.215 7.18 13.78 8.68
4/30/2021 4:15:00 AM 13.66 56.588 0.214 7.18 13.42 8.68
4/30/2021 4:30:00 AM 13.62 56.516 0.213 7.18 13.79 8.69
4/30/2021 4:45:00 AM 13.58 56.444 0.212 7.18 13.75 8.69
4/30/2021 5:00:00 AM 13.53 56.354 0.211 7.19 12.84 8.7
4/30/2021 5:15:00 AM 13.47 56.246 0.209 7.18 14.84 8.71
4/30/2021 5:30:00 AM 13.42 56.156 0.207 7.18 13.79 8.72
4/30/2021 5:45:00 AM 13.36 56.048 0.205 7.19 13.94 8.73
4/30/2021 6:00:00 AM 13.3 55.94 0.204 7.18 13.52 8.75
4/30/2021 6:15:00 AM 13.25 55.85 0.202 7.18 12.74 8.77
4/30/2021 6:30:00 AM 13.19 55.742 0.202 7.18 11.73 8.79
4/30/2021 6:45:00 AM 13.16 55.688 0.201 7.18 12.38 8.82
4/30/2021 7:00:00 AM 13.14 55.652 0.2 7.19 12.28 8.85
4/30/2021 7:15:00 AM 13.12 55.616 0.2 7.2 13.06 8.88
4/30/2021 7:30:00 AM 13.11 55.598 0.199 7.2 12.44 8.92
4/30/2021 7:45:00 AM 13.11 55.598 0.199 7.21 12.87 8.96
4/30/2021 8:00:00 AM 13.09 55.562 0.198 7.21 11.79 8.99
4/30/2021 8:15:00 AM 13.08 55.544 0.197 7.21 12.35 9.02
4/30/2021 8:30:00 AM 13.07 55.526 0.195 7.21 12.58 9.05
4/30/2021 8:45:00 AM 13.04 55.472 0.194 7.21 13.01 9.06
4/30/2021 9:00:00 AM 13.04 55.472 0.193 7.22 15.16 9.09
4/30/2021 9:15:00 AM 13.03 55.454 0.193 7.22 13.62 9.12
4/30/2021 9:30:00 AM 13.05 55.49 0.192 7.23 15.09 9.16
4/30/2021 9:45:00 AM 13.07 55.526 0.191 7.24 15.33 9.19
4/30/2021 10:00:00 AM 13.04 55.472 0.191 7.24 15.05 9.2
4/30/2021 10:15:00 AM 13.08 55.544 0.191 7.24 15.91 9.25
4/30/2021 10:30:00 AM 13.16 55.688 0.191 7.26 16 9.29
4/30/2021 10:45:00 AM 13.16 55.688 0.191 7.26 15.65 9.3
4/30/2021 11:00:00 AM 13.29 55.922 0.191 7.29 15.1 9.37
4/30/2021 11:15:00 AM 13.44 56.192 0.192 7.3 13.87 9.42
4/30/2021 11:30:00 AM 13.73 56.714 0.192 7.33 13.35 9.49
4/30/2021 11:45:00 AM 13.88 56.984 0.193 7.34 13.31 9.53
4/30/2021 12:00:00 PM 13.99 57.182 0.193 7.34 14.97 9.56
4/30/2021 12:15:00 PM 14.17 57.506 0.193 7.36 14.39 9.6
4/30/2021 12:30:00 PM 14.27 57.686 0.193 7.36 13.73 9.62
4/30/2021 12:45:00 PM 14.26 57.668 0.194 7.36 12.8 9.65
4/30/2021 1:00:00 PM 14.27 57.686 0.194 7.37 13.36 9.68
4/30/2021 1:15:00 PM 14.24 57.632 0.194 7.37 13.06 9.72
4/30/2021 1:30:00 PM 14.17 57.506 0.194 7.37 13.67 9.73
4/30/2021 1:45:00 PM 14.06 57.308 0.195 7.36 13.53 9.76
4/30/2021 2:00:00 PM 13.93 57.074 0.195 7.36 12.97 9.75
4/30/2021 2:15:00 PM 13.74 56.732 0.195 7.35 13.73 9.73
4/30/2021 2:30:00 PM 13.55 56.39 0.195 7.35 13.34 9.72
4/30/2021 2:45:00 PM 13.62 56.516 0.195 7.37 13.65 9.77
4/30/2021 3:00:00 PM 13.58 56.444 0.196 7.37 14.04 9.79
4/30/2021 3:15:00 PM 13.79 56.822 0.196 7.4 13.07 9.85
4/30/2021 3:30:00 PM 13.66 56.588 0.197 7.38 13 9.8
4/30/2021 3:45:00 PM 13.64 56.552 0.197 7.37 12.45 9.79
4/30/2021 4:00:00 PM 13.54 56.372 0.197 7.37 12.75 9.81
4/30/2021 4:15:00 PM 13.47 56.246 0.197 7.37 12.09 9.83
4/30/2021 4:30:00 PM 13.34 56.012 0.197 7.35 12.77 9.79
4/30/2021 4:45:00 PM 13.27 55.886 0.197 7.35 11.64 9.83
4/30/2021 5:00:00 PM 13.22 55.796 0.197 7.35 11.65 9.85
4/30/2021 5:15:00 PM 13.28 55.904 0.198 7.37 12.15 9.91
4/30/2021 5:30:00 PM 13.22 55.796 0.198 7.37 11.36 9.9
4/30/2021 5:45:00 PM 13.11 55.598 0.198 7.36 11.81 9.87
4/30/2021 6:00:00 PM 12.92 55.256 0.199 7.35 11.11 9.84
4/30/2021 6:15:00 PM 12.8 55.04 0.199 7.34 11.48 9.82
4/30/2021 6:30:00 PM 12.7 54.86 0.199 7.33 11.6 9.81
4/30/2021 6:45:00 PM 12.63 54.734 0.199 7.33 10.97 9.8
4/30/2021 7:00:00 PM 12.53 54.554 0.199 7.32 11.48 9.78
4/30/2021 7:15:00 PM 12.43 54.374 0.2 7.32 11.34 9.76
4/30/2021 7:30:00 PM 12.34 54.212 0.2 7.31 10.66 9.73
4/30/2021 7:45:00 PM 12.22 53.996 0.2 7.3 10.82 9.7
4/30/2021 8:00:00 PM 12.07 53.726 0.201 7.28 11.1 9.67
4/30/2021 8:15:00 PM 11.91 53.438 0.201 7.27 11.16 9.64
4/30/2021 8:30:00 PM 11.75 53.15 0.202 7.26 11.11 9.62
4/30/2021 8:45:00 PM 11.61 52.898 0.202 7.25 11.74 9.6
4/30/2021 9:00:00 PM 11.5 52.7 0.202 7.25 11.49 9.59
4/30/2021 9:15:00 PM 11.41 52.538 0.202 7.24 11.29 9.57
4/30/2021 9:30:00 PM 11.33 52.394 0.203 7.23 11.84 9.57
4/30/2021 9:45:00 PM 11.23 52.214 0.203 7.23 11.37 9.56
4/30/2021 10:00:00 PM 11.18 52.124 0.203 7.23 11.91 9.56
4/30/2021 10:15:00 PM 11.11 51.998 0.203 7.23 11.43 9.56
4/30/2021 10:30:00 PM 11.04 51.872 0.204 7.23 11.21 9.56
4/30/2021 10:45:00 PM 10.97 51.746 0.204 7.23 11.26 9.56
4/30/2021 11:00:00 PM 10.89 51.602 0.204 7.22 11.78 9.57
4/30/2021 11:15:00 PM 10.83 51.494 0.204 7.22 11.41 9.57
4/30/2021 11:30:00 PM 10.77 51.386 0.204 7.21 11.66 9.56
4/30/2021 11:45:00 PM 10.69 51.242 0.204 7.21 11.28 9.57
5/1/2021 12:00:00 AM 10.61 51.098 0.205 7.2 11.51 9.58
5/1/2021 12:15:00 AM 10.53 50.954 0.205 7.2 11.6 9.59
5/1/2021 12:30:00 AM 10.45 50.81 0.205 7.2 12.03 9.59
5/1/2021 12:45:00 AM 10.38 50.684 0.205 7.2 11.75 9.59
5/1/2021 1:00:00 AM 10.31 50.558 0.205 7.19 11.47 9.59
5/1/2021 1:15:00 AM 10.25 50.45 0.204 7.19 12.47 9.61
5/1/2021 1:30:00 AM 10.19 50.342 0.205 7.19 11.76 9.61
5/1/2021 1:45:00 AM 10.13 50.234 0.205 7.19 12.28 9.62
5/1/2021 2:00:00 AM 10.07 50.126 0.205 7.18 11.8 9.62
5/1/2021 2:15:00 AM 9.99 49.982 0.205 7.18 11.8 9.64
5/1/2021 2:30:00 AM 9.93 49.874 0.205 7.18 12.07 9.65
5/1/2021 2:45:00 AM 9.85 49.73 0.205 7.18 11.59 9.66
5/1/2021 3:00:00 AM 9.75 49.55 0.206 7.18 11.63 9.68
5/1/2021 3:15:00 AM 9.68 49.424 0.206 7.18 11.97 9.69
5/1/2021 3:30:00 AM 9.62 49.316 0.206 7.18 11.9 9.71
5/1/2021 3:45:00 AM 9.56 49.208 0.205 7.17 11.53 9.72
5/1/2021 4:00:00 AM 9.47 49.046 0.206 7.17 11.64 9.74
5/1/2021 4:15:00 AM 9.41 48.938 0.206 7.17 11.61 9.75
5/1/2021 4:30:00 AM 9.35 48.83 0.206 7.17 11.79 9.76
5/1/2021 4:45:00 AM 9.28 48.704 0.206 7.17 11.56 9.77
5/1/2021 5:00:00 AM 9.21 48.578 0.206 7.17 11.66 9.79
5/1/2021 5:15:00 AM 9.14 48.452 0.207 7.17 11.59 9.81
5/1/2021 5:30:00 AM 9.06 48.308 0.206 7.17 10.95 9.83
5/1/2021 5:45:00 AM 8.99 48.182 0.207 7.17 11.17 9.84
5/1/2021 6:00:00 AM 8.92 48.056 0.206 7.17 11.14 9.86
5/1/2021 6:15:00 AM 8.84 47.912 0.207 7.17 10.93 9.88
5/1/2021 6:30:00 AM 8.79 47.822 0.207 7.17 11.28 9.91
5/1/2021 6:45:00 AM 8.74 47.732 0.207 7.17 10.84 9.94
5/1/2021 7:00:00 AM 8.7 47.66 0.207 7.17 10.62 9.99
5/1/2021 7:15:00 AM 8.66 47.588 0.207 7.18 10.6 10.04
5/1/2021 7:30:00 AM 8.64 47.552 0.207 7.19 10.68 10.1
5/1/2021 7:45:00 AM 8.63 47.534 0.207 7.19 10.3 10.16
5/1/2021 8:00:00 AM 8.65 47.57 0.207 7.2 10.38 10.22
5/1/2021 8:15:00 AM 8.69 47.642 0.207 7.21 10.29 10.3
5/1/2021 8:30:00 AM 8.74 47.732 0.207 7.22 9.95 10.36
5/1/2021 8:45:00 AM 8.82 47.876 0.207 7.23 10.17 10.42
5/1/2021 9:00:00 AM 8.93 48.074 0.207 7.24 10.01 10.48
5/1/2021 9:15:00 AM 9.06 48.308 0.207 7.25 9.72 10.54
5/1/2021 9:30:00 AM 9.2 48.56 0.207 7.26 9.59 10.58
5/1/2021 9:45:00 AM 9.35 48.83 0.207 7.27 9.7 10.64
5/1/2021 10:00:00 AM 9.52 49.136 0.207 7.28 9.36 10.68
5/1/2021 10:15:00 AM 9.72 49.496 0.207